<?xml version="1.0" encoding="UTF-8" standalone="no" ?>
<gpx xmlns="http://www.topografix.com/GPX/1/1" xmlns:xsi="http://www.w3.org/2001/XMLSchema-instance" xsi:schemaLocation="http://www.topografix.com/GPX/1/1 http://www.topografix.com/GPX/1/1/gpx.xsd" version="1.1" creator="VisuGPX - https://www.visugpx.com">
  <metadata>
    <name>Chamrousse-col de la botte-lacs robert</name>
    <desc><![CDATA[File with points/tracks from Locus Map/3.46.2]]></desc>
  </metadata>
  <trk>
    <name><![CDATA[2020-07-01 08:47:39]]></name>
    <desc><![CDATA[Col de la botte]]></desc>
    <extensions>
      <line xmlns="http://www.topografix.com/GPX/gpx_style/0/2">
        <color>0000FF</color>
        <opacity>0.59</opacity>
        <width>6.0</width>
      </line>
    </extensions>
    <trkseg>
      <trkpt lat="45.11219" lon="5.88064">
        <ele>1795.07</ele>
        <time>2020-07-01T06:47:49.000Z</time>
      </trkpt>
      <trkpt lat="45.11218" lon="5.88064">
        <ele>1799.34</ele>
        <time>2020-07-01T06:48:01.000Z</time>
      </trkpt>
      <trkpt lat="45.11208" lon="5.88071">
        <ele>1800.73</ele>
        <time>2020-07-01T06:48:11.000Z</time>
      </trkpt>
      <trkpt lat="45.11205" lon="5.88084">
        <ele>1802.06</ele>
        <time>2020-07-01T06:48:21.000Z</time>
      </trkpt>
      <trkpt lat="45.11199" lon="5.88094">
        <ele>1801.12</ele>
        <time>2020-07-01T06:48:31.000Z</time>
      </trkpt>
      <trkpt lat="45.11197" lon="5.88103">
        <ele>1798.75</ele>
        <time>2020-07-01T06:48:41.000Z</time>
      </trkpt>
      <trkpt lat="45.11199" lon="5.88104">
        <ele>1799.59</ele>
        <time>2020-07-01T06:48:51.000Z</time>
      </trkpt>
      <trkpt lat="45.11199" lon="5.88108">
        <ele>1800.69</ele>
        <time>2020-07-01T06:49:01.000Z</time>
      </trkpt>
      <trkpt lat="45.11198" lon="5.88109">
        <ele>1800.33</ele>
        <time>2020-07-01T06:49:13.000Z</time>
      </trkpt>
      <trkpt lat="45.11193" lon="5.88117">
        <ele>1796.32</ele>
        <time>2020-07-01T06:49:23.000Z</time>
      </trkpt>
      <trkpt lat="45.11182" lon="5.88133">
        <ele>1802.3</ele>
        <time>2020-07-01T06:49:33.000Z</time>
      </trkpt>
      <trkpt lat="45.11171" lon="5.88144">
        <ele>1801.92</ele>
        <time>2020-07-01T06:49:43.000Z</time>
      </trkpt>
      <trkpt lat="45.11165" lon="5.88153">
        <ele>1808.4</ele>
        <time>2020-07-01T06:49:53.000Z</time>
      </trkpt>
      <trkpt lat="45.11158" lon="5.8816">
        <ele>1807.57</ele>
        <time>2020-07-01T06:50:03.000Z</time>
      </trkpt>
      <trkpt lat="45.11151" lon="5.88168">
        <ele>1809.33</ele>
        <time>2020-07-01T06:50:13.000Z</time>
      </trkpt>
      <trkpt lat="45.11141" lon="5.8818">
        <ele>1811.17</ele>
        <time>2020-07-01T06:50:23.000Z</time>
      </trkpt>
      <trkpt lat="45.11137" lon="5.88194">
        <ele>1816.15</ele>
        <time>2020-07-01T06:50:33.000Z</time>
      </trkpt>
      <trkpt lat="45.11134" lon="5.88207">
        <ele>1820.99</ele>
        <time>2020-07-01T06:50:43.000Z</time>
      </trkpt>
      <trkpt lat="45.11133" lon="5.88215">
        <ele>1826.19</ele>
        <time>2020-07-01T06:50:53.000Z</time>
      </trkpt>
      <trkpt lat="45.11131" lon="5.88232">
        <ele>1826.93</ele>
        <time>2020-07-01T06:51:03.000Z</time>
      </trkpt>
      <trkpt lat="45.11132" lon="5.88245">
        <ele>1825.84</ele>
        <time>2020-07-01T06:51:13.000Z</time>
      </trkpt>
      <trkpt lat="45.11129" lon="5.88259">
        <ele>1826.82</ele>
        <time>2020-07-01T06:51:23.000Z</time>
      </trkpt>
      <trkpt lat="45.1112" lon="5.88271">
        <ele>1824.11</ele>
        <time>2020-07-01T06:51:33.000Z</time>
      </trkpt>
      <trkpt lat="45.11114" lon="5.88284">
        <ele>1831.19</ele>
        <time>2020-07-01T06:51:43.000Z</time>
      </trkpt>
      <trkpt lat="45.11106" lon="5.88293">
        <ele>1832.99</ele>
        <time>2020-07-01T06:51:53.000Z</time>
      </trkpt>
      <trkpt lat="45.111" lon="5.88306">
        <ele>1833.51</ele>
        <time>2020-07-01T06:52:03.000Z</time>
      </trkpt>
      <trkpt lat="45.11093" lon="5.88317">
        <ele>1839.02</ele>
        <time>2020-07-01T06:52:13.000Z</time>
      </trkpt>
      <trkpt lat="45.11087" lon="5.8833">
        <ele>1836.74</ele>
        <time>2020-07-01T06:52:23.000Z</time>
      </trkpt>
      <trkpt lat="45.11081" lon="5.88338">
        <ele>1836.57</ele>
        <time>2020-07-01T06:52:33.000Z</time>
      </trkpt>
      <trkpt lat="45.11075" lon="5.88355">
        <ele>1836.63</ele>
        <time>2020-07-01T06:52:43.000Z</time>
      </trkpt>
      <trkpt lat="45.11069" lon="5.88366">
        <ele>1837.83</ele>
        <time>2020-07-01T06:52:53.000Z</time>
      </trkpt>
      <trkpt lat="45.11063" lon="5.88381">
        <ele>1838.01</ele>
        <time>2020-07-01T06:53:03.000Z</time>
      </trkpt>
      <trkpt lat="45.11059" lon="5.88391">
        <ele>1840.39</ele>
        <time>2020-07-01T06:53:13.000Z</time>
      </trkpt>
      <trkpt lat="45.1105" lon="5.88398">
        <ele>1840.82</ele>
        <time>2020-07-01T06:53:23.000Z</time>
      </trkpt>
      <trkpt lat="45.11044" lon="5.88406">
        <ele>1846.52</ele>
        <time>2020-07-01T06:53:33.000Z</time>
      </trkpt>
      <trkpt lat="45.11039" lon="5.88418">
        <ele>1842.71</ele>
        <time>2020-07-01T06:53:43.000Z</time>
      </trkpt>
      <trkpt lat="45.11037" lon="5.88434">
        <ele>1841.97</ele>
        <time>2020-07-01T06:53:53.000Z</time>
      </trkpt>
      <trkpt lat="45.1103" lon="5.88454">
        <ele>1839.52</ele>
        <time>2020-07-01T06:54:03.000Z</time>
      </trkpt>
      <trkpt lat="45.11024" lon="5.88473">
        <ele>1841.19</ele>
        <time>2020-07-01T06:54:13.000Z</time>
      </trkpt>
      <trkpt lat="45.11015" lon="5.8848">
        <ele>1841.09</ele>
        <time>2020-07-01T06:54:23.000Z</time>
      </trkpt>
      <trkpt lat="45.11006" lon="5.88486">
        <ele>1843.14</ele>
        <time>2020-07-01T06:54:33.000Z</time>
      </trkpt>
      <trkpt lat="45.11006" lon="5.88488">
        <ele>1838.29</ele>
        <time>2020-07-01T06:54:43.000Z</time>
      </trkpt>
      <trkpt lat="45.11005" lon="5.8849">
        <ele>1839.05</ele>
        <time>2020-07-01T06:55:56.000Z</time>
      </trkpt>
      <trkpt lat="45.10996" lon="5.88511">
        <ele>1848.71</ele>
        <time>2020-07-01T06:56:06.000Z</time>
      </trkpt>
      <trkpt lat="45.10984" lon="5.8853">
        <ele>1853.42</ele>
        <time>2020-07-01T06:56:16.000Z</time>
      </trkpt>
      <trkpt lat="45.10978" lon="5.88541">
        <ele>1856.78</ele>
        <time>2020-07-01T06:56:26.000Z</time>
      </trkpt>
      <trkpt lat="45.10978" lon="5.88555">
        <ele>1852.13</ele>
        <time>2020-07-01T06:56:36.000Z</time>
      </trkpt>
      <trkpt lat="45.1098" lon="5.88564">
        <ele>1852.22</ele>
        <time>2020-07-01T06:56:46.000Z</time>
      </trkpt>
      <trkpt lat="45.10981" lon="5.88578">
        <ele>1853.37</ele>
        <time>2020-07-01T06:56:56.000Z</time>
      </trkpt>
      <trkpt lat="45.10973" lon="5.88598">
        <ele>1858.93</ele>
        <time>2020-07-01T06:57:06.000Z</time>
      </trkpt>
      <trkpt lat="45.10977" lon="5.88613">
        <ele>1857.38</ele>
        <time>2020-07-01T06:57:16.000Z</time>
      </trkpt>
      <trkpt lat="45.10977" lon="5.88621">
        <ele>1855.64</ele>
        <time>2020-07-01T06:57:26.000Z</time>
      </trkpt>
      <trkpt lat="45.10972" lon="5.88629">
        <ele>1857.33</ele>
        <time>2020-07-01T06:57:36.000Z</time>
      </trkpt>
      <trkpt lat="45.1097" lon="5.88641">
        <ele>1857.15</ele>
        <time>2020-07-01T06:57:46.000Z</time>
      </trkpt>
      <trkpt lat="45.1097" lon="5.88661">
        <ele>1857.74</ele>
        <time>2020-07-01T06:57:56.000Z</time>
      </trkpt>
      <trkpt lat="45.10969" lon="5.88679">
        <ele>1857.52</ele>
        <time>2020-07-01T06:58:06.000Z</time>
      </trkpt>
      <trkpt lat="45.10974" lon="5.88691">
        <ele>1861.01</ele>
        <time>2020-07-01T06:58:16.000Z</time>
      </trkpt>
      <trkpt lat="45.1097" lon="5.88707">
        <ele>1864.83</ele>
        <time>2020-07-01T06:58:26.000Z</time>
      </trkpt>
      <trkpt lat="45.1098" lon="5.88714">
        <ele>1866.2</ele>
        <time>2020-07-01T06:58:36.000Z</time>
      </trkpt>
      <trkpt lat="45.1098" lon="5.8873">
        <ele>1869.93</ele>
        <time>2020-07-01T06:58:46.000Z</time>
      </trkpt>
      <trkpt lat="45.10975" lon="5.88737">
        <ele>1866.59</ele>
        <time>2020-07-01T06:58:56.000Z</time>
      </trkpt>
      <trkpt lat="45.10974" lon="5.88742">
        <ele>1865.12</ele>
        <time>2020-07-01T06:59:06.000Z</time>
      </trkpt>
      <trkpt lat="45.10974" lon="5.8875">
        <ele>1866.95</ele>
        <time>2020-07-01T06:59:16.000Z</time>
      </trkpt>
      <trkpt lat="45.10975" lon="5.88752">
        <ele>1867.46</ele>
        <time>2020-07-01T06:59:26.000Z</time>
      </trkpt>
      <trkpt lat="45.10975" lon="5.88754">
        <ele>1868.32</ele>
        <time>2020-07-01T06:59:36.000Z</time>
      </trkpt>
      <trkpt lat="45.10977" lon="5.88756">
        <ele>1870.31</ele>
        <time>2020-07-01T06:59:46.000Z</time>
      </trkpt>
      <trkpt lat="45.10982" lon="5.88772">
        <ele>1871.02</ele>
        <time>2020-07-01T06:59:56.000Z</time>
      </trkpt>
      <trkpt lat="45.10985" lon="5.88785">
        <ele>1869.04</ele>
        <time>2020-07-01T07:00:06.000Z</time>
      </trkpt>
      <trkpt lat="45.10986" lon="5.88798">
        <ele>1869.04</ele>
        <time>2020-07-01T07:00:16.000Z</time>
      </trkpt>
      <trkpt lat="45.10988" lon="5.88803">
        <ele>1868.39</ele>
        <time>2020-07-01T07:00:26.000Z</time>
      </trkpt>
      <trkpt lat="45.10988" lon="5.88804">
        <ele>1868.66</ele>
        <time>2020-07-01T07:00:36.000Z</time>
      </trkpt>
      <trkpt lat="45.10988" lon="5.88807">
        <ele>1869.98</ele>
        <time>2020-07-01T07:00:46.000Z</time>
      </trkpt>
      <trkpt lat="45.10997" lon="5.88816">
        <ele>1878.3</ele>
        <time>2020-07-01T07:00:56.000Z</time>
      </trkpt>
      <trkpt lat="45.11001" lon="5.8883">
        <ele>1884.76</ele>
        <time>2020-07-01T07:01:06.000Z</time>
      </trkpt>
      <trkpt lat="45.11006" lon="5.88834">
        <ele>1883.14</ele>
        <time>2020-07-01T07:01:16.000Z</time>
      </trkpt>
      <trkpt lat="45.11008" lon="5.88837">
        <ele>1880.97</ele>
        <time>2020-07-01T07:01:26.000Z</time>
      </trkpt>
      <trkpt lat="45.11009" lon="5.8884">
        <ele>1879.34</ele>
        <time>2020-07-01T07:01:36.000Z</time>
      </trkpt>
      <trkpt lat="45.11015" lon="5.88853">
        <ele>1880.13</ele>
        <time>2020-07-01T07:01:46.000Z</time>
      </trkpt>
      <trkpt lat="45.11017" lon="5.88874">
        <ele>1884.95</ele>
        <time>2020-07-01T07:01:56.000Z</time>
      </trkpt>
      <trkpt lat="45.11016" lon="5.88888">
        <ele>1892.63</ele>
        <time>2020-07-01T07:02:06.000Z</time>
      </trkpt>
      <trkpt lat="45.11025" lon="5.88896">
        <ele>1898.62</ele>
        <time>2020-07-01T07:02:16.000Z</time>
      </trkpt>
      <trkpt lat="45.11031" lon="5.88901">
        <ele>1897.67</ele>
        <time>2020-07-01T07:02:26.000Z</time>
      </trkpt>
      <trkpt lat="45.11038" lon="5.88911">
        <ele>1901.94</ele>
        <time>2020-07-01T07:02:36.000Z</time>
      </trkpt>
      <trkpt lat="45.11032" lon="5.8892">
        <ele>1899.6</ele>
        <time>2020-07-01T07:02:46.000Z</time>
      </trkpt>
      <trkpt lat="45.11035" lon="5.88931">
        <ele>1901.34</ele>
        <time>2020-07-01T07:02:56.000Z</time>
      </trkpt>
      <trkpt lat="45.1104" lon="5.88933">
        <ele>1903.32</ele>
        <time>2020-07-01T07:03:06.000Z</time>
      </trkpt>
      <trkpt lat="45.11044" lon="5.88943">
        <ele>1903.29</ele>
        <time>2020-07-01T07:03:16.000Z</time>
      </trkpt>
      <trkpt lat="45.11049" lon="5.8895">
        <ele>1905.13</ele>
        <time>2020-07-01T07:03:26.000Z</time>
      </trkpt>
      <trkpt lat="45.11049" lon="5.8896">
        <ele>1908.21</ele>
        <time>2020-07-01T07:03:36.000Z</time>
      </trkpt>
      <trkpt lat="45.11052" lon="5.88967">
        <ele>1909.07</ele>
        <time>2020-07-01T07:03:46.000Z</time>
      </trkpt>
      <trkpt lat="45.11055" lon="5.88975">
        <ele>1912.55</ele>
        <time>2020-07-01T07:03:56.000Z</time>
      </trkpt>
      <trkpt lat="45.11054" lon="5.88973">
        <ele>1912.84</ele>
        <time>2020-07-01T07:04:06.000Z</time>
      </trkpt>
      <trkpt lat="45.11053" lon="5.88973">
        <ele>1913.01</ele>
        <time>2020-07-01T07:04:16.000Z</time>
      </trkpt>
      <trkpt lat="45.11053" lon="5.88976">
        <ele>1912.14</ele>
        <time>2020-07-01T07:07:05.000Z</time>
      </trkpt>
      <trkpt lat="45.11066" lon="5.88988">
        <ele>1912.66</ele>
        <time>2020-07-01T07:07:15.000Z</time>
      </trkpt>
      <trkpt lat="45.11084" lon="5.89001">
        <ele>1912.92</ele>
        <time>2020-07-01T07:07:25.000Z</time>
      </trkpt>
      <trkpt lat="45.1109" lon="5.89013">
        <ele>1913.48</ele>
        <time>2020-07-01T07:07:35.000Z</time>
      </trkpt>
      <trkpt lat="45.11092" lon="5.89027">
        <ele>1912.79</ele>
        <time>2020-07-01T07:07:45.000Z</time>
      </trkpt>
      <trkpt lat="45.11098" lon="5.89043">
        <ele>1917.62</ele>
        <time>2020-07-01T07:07:55.000Z</time>
      </trkpt>
      <trkpt lat="45.11104" lon="5.89043">
        <ele>1917.87</ele>
        <time>2020-07-01T07:08:05.000Z</time>
      </trkpt>
      <trkpt lat="45.11115" lon="5.89042">
        <ele>1916.21</ele>
        <time>2020-07-01T07:08:15.000Z</time>
      </trkpt>
      <trkpt lat="45.1112" lon="5.89048">
        <ele>1915.62</ele>
        <time>2020-07-01T07:08:25.000Z</time>
      </trkpt>
      <trkpt lat="45.11126" lon="5.89054">
        <ele>1911.64</ele>
        <time>2020-07-01T07:08:35.000Z</time>
      </trkpt>
      <trkpt lat="45.11133" lon="5.89072">
        <ele>1908.48</ele>
        <time>2020-07-01T07:08:45.000Z</time>
      </trkpt>
      <trkpt lat="45.11139" lon="5.89084">
        <ele>1904.22</ele>
        <time>2020-07-01T07:08:55.000Z</time>
      </trkpt>
      <trkpt lat="45.11149" lon="5.89088">
        <ele>1905.21</ele>
        <time>2020-07-01T07:09:05.000Z</time>
      </trkpt>
      <trkpt lat="45.11156" lon="5.89096">
        <ele>1908.55</ele>
        <time>2020-07-01T07:09:15.000Z</time>
      </trkpt>
      <trkpt lat="45.1116" lon="5.89101">
        <ele>1910.51</ele>
        <time>2020-07-01T07:09:25.000Z</time>
      </trkpt>
      <trkpt lat="45.11162" lon="5.89118">
        <ele>1913.12</ele>
        <time>2020-07-01T07:09:35.000Z</time>
      </trkpt>
      <trkpt lat="45.11161" lon="5.89121">
        <ele>1913.7</ele>
        <time>2020-07-01T07:09:45.000Z</time>
      </trkpt>
      <trkpt lat="45.11161" lon="5.89123">
        <ele>1913.99</ele>
        <time>2020-07-01T07:09:55.000Z</time>
      </trkpt>
      <trkpt lat="45.11161" lon="5.89126">
        <ele>1914.89</ele>
        <time>2020-07-01T07:10:17.000Z</time>
      </trkpt>
      <trkpt lat="45.11161" lon="5.89139">
        <ele>1913.44</ele>
        <time>2020-07-01T07:10:27.000Z</time>
      </trkpt>
      <trkpt lat="45.11171" lon="5.89148">
        <ele>1913</ele>
        <time>2020-07-01T07:10:37.000Z</time>
      </trkpt>
      <trkpt lat="45.1118" lon="5.89182">
        <ele>1916.9</ele>
        <time>2020-07-01T07:10:47.000Z</time>
      </trkpt>
      <trkpt lat="45.11182" lon="5.89195">
        <ele>1917.31</ele>
        <time>2020-07-01T07:10:57.000Z</time>
      </trkpt>
      <trkpt lat="45.11188" lon="5.89193">
        <ele>1917.41</ele>
        <time>2020-07-01T07:11:07.000Z</time>
      </trkpt>
      <trkpt lat="45.11192" lon="5.89207">
        <ele>1922.77</ele>
        <time>2020-07-01T07:11:17.000Z</time>
      </trkpt>
      <trkpt lat="45.11194" lon="5.89216">
        <ele>1925.08</ele>
        <time>2020-07-01T07:11:27.000Z</time>
      </trkpt>
      <trkpt lat="45.11204" lon="5.89224">
        <ele>1927.68</ele>
        <time>2020-07-01T07:11:37.000Z</time>
      </trkpt>
      <trkpt lat="45.112" lon="5.89228">
        <ele>1926.64</ele>
        <time>2020-07-01T07:11:47.000Z</time>
      </trkpt>
      <trkpt lat="45.11202" lon="5.89238">
        <ele>1930.15</ele>
        <time>2020-07-01T07:11:57.000Z</time>
      </trkpt>
      <trkpt lat="45.11199" lon="5.89247">
        <ele>1931.2</ele>
        <time>2020-07-01T07:12:07.000Z</time>
      </trkpt>
      <trkpt lat="45.11202" lon="5.89239">
        <ele>1933.19</ele>
        <time>2020-07-01T07:12:17.000Z</time>
      </trkpt>
      <trkpt lat="45.11202" lon="5.89239">
        <ele>1934.21</ele>
        <time>2020-07-01T07:12:27.000Z</time>
      </trkpt>
      <trkpt lat="45.11204" lon="5.8924">
        <ele>1929.73</ele>
        <time>2020-07-01T07:12:37.000Z</time>
      </trkpt>
      <trkpt lat="45.11205" lon="5.8924">
        <ele>1930.02</ele>
        <time>2020-07-01T07:12:49.000Z</time>
      </trkpt>
      <trkpt lat="45.11203" lon="5.89242">
        <ele>1930.67</ele>
        <time>2020-07-01T07:13:16.000Z</time>
      </trkpt>
      <trkpt lat="45.11198" lon="5.89257">
        <ele>1932.97</ele>
        <time>2020-07-01T07:13:26.000Z</time>
      </trkpt>
      <trkpt lat="45.11193" lon="5.89273">
        <ele>1933.17</ele>
        <time>2020-07-01T07:13:36.000Z</time>
      </trkpt>
      <trkpt lat="45.11189" lon="5.89282">
        <ele>1929.72</ele>
        <time>2020-07-01T07:13:46.000Z</time>
      </trkpt>
      <trkpt lat="45.11188" lon="5.89286">
        <ele>1930.43</ele>
        <time>2020-07-01T07:13:56.000Z</time>
      </trkpt>
      <trkpt lat="45.11187" lon="5.89288">
        <ele>1930.22</ele>
        <time>2020-07-01T07:14:06.000Z</time>
      </trkpt>
      <trkpt lat="45.11184" lon="5.89304">
        <ele>1932.88</ele>
        <time>2020-07-01T07:14:16.000Z</time>
      </trkpt>
      <trkpt lat="45.11184" lon="5.89308">
        <ele>1928.47</ele>
        <time>2020-07-01T07:14:26.000Z</time>
      </trkpt>
      <trkpt lat="45.11182" lon="5.89308">
        <ele>1927.89</ele>
        <time>2020-07-01T07:14:36.000Z</time>
      </trkpt>
      <trkpt lat="45.11181" lon="5.89309">
        <ele>1927.91</ele>
        <time>2020-07-01T07:14:46.000Z</time>
      </trkpt>
      <trkpt lat="45.11181" lon="5.89311">
        <ele>1928.44</ele>
        <time>2020-07-01T07:15:28.000Z</time>
      </trkpt>
      <trkpt lat="45.11175" lon="5.89328">
        <ele>1932.06</ele>
        <time>2020-07-01T07:15:38.000Z</time>
      </trkpt>
      <trkpt lat="45.11169" lon="5.89336">
        <ele>1935.76</ele>
        <time>2020-07-01T07:15:48.000Z</time>
      </trkpt>
      <trkpt lat="45.11165" lon="5.89345">
        <ele>1926.77</ele>
        <time>2020-07-01T07:15:58.000Z</time>
      </trkpt>
      <trkpt lat="45.11167" lon="5.89356">
        <ele>1925.51</ele>
        <time>2020-07-01T07:16:08.000Z</time>
      </trkpt>
      <trkpt lat="45.1117" lon="5.89361">
        <ele>1926.51</ele>
        <time>2020-07-01T07:16:18.000Z</time>
      </trkpt>
      <trkpt lat="45.1117" lon="5.89364">
        <ele>1927.01</ele>
        <time>2020-07-01T07:16:28.000Z</time>
      </trkpt>
      <trkpt lat="45.1117" lon="5.89365">
        <ele>1927.98</ele>
        <time>2020-07-01T07:16:41.000Z</time>
      </trkpt>
      <trkpt lat="45.11163" lon="5.89392">
        <ele>1932.53</ele>
        <time>2020-07-01T07:16:51.000Z</time>
      </trkpt>
      <trkpt lat="45.11155" lon="5.89407">
        <ele>1933.44</ele>
        <time>2020-07-01T07:17:01.000Z</time>
      </trkpt>
      <trkpt lat="45.11154" lon="5.89407">
        <ele>1931.29</ele>
        <time>2020-07-01T07:17:49.000Z</time>
      </trkpt>
      <trkpt lat="45.11151" lon="5.8941">
        <ele>1928.98</ele>
        <time>2020-07-01T07:17:59.000Z</time>
      </trkpt>
      <trkpt lat="45.11151" lon="5.89411">
        <ele>1927.14</ele>
        <time>2020-07-01T07:19:52.000Z</time>
      </trkpt>
      <trkpt lat="45.11146" lon="5.89429">
        <ele>1926.31</ele>
        <time>2020-07-01T07:20:02.000Z</time>
      </trkpt>
      <trkpt lat="45.11143" lon="5.8944">
        <ele>1927.79</ele>
        <time>2020-07-01T07:20:12.000Z</time>
      </trkpt>
      <trkpt lat="45.11138" lon="5.89455">
        <ele>1926.49</ele>
        <time>2020-07-01T07:20:22.000Z</time>
      </trkpt>
      <trkpt lat="45.11135" lon="5.8947">
        <ele>1926.57</ele>
        <time>2020-07-01T07:20:32.000Z</time>
      </trkpt>
      <trkpt lat="45.11142" lon="5.8948">
        <ele>1932.4</ele>
        <time>2020-07-01T07:20:42.000Z</time>
      </trkpt>
      <trkpt lat="45.11149" lon="5.89482">
        <ele>1934.71</ele>
        <time>2020-07-01T07:20:52.000Z</time>
      </trkpt>
      <trkpt lat="45.11149" lon="5.89485">
        <ele>1935.22</ele>
        <time>2020-07-01T07:21:02.000Z</time>
      </trkpt>
      <trkpt lat="45.11149" lon="5.89486">
        <ele>1934.95</ele>
        <time>2020-07-01T07:21:19.000Z</time>
      </trkpt>
      <trkpt lat="45.11143" lon="5.89499">
        <ele>1936.49</ele>
        <time>2020-07-01T07:21:29.000Z</time>
      </trkpt>
      <trkpt lat="45.11145" lon="5.89512">
        <ele>1935</ele>
        <time>2020-07-01T07:21:39.000Z</time>
      </trkpt>
      <trkpt lat="45.1114" lon="5.89514">
        <ele>1933.14</ele>
        <time>2020-07-01T07:21:49.000Z</time>
      </trkpt>
      <trkpt lat="45.11138" lon="5.8952">
        <ele>1933.11</ele>
        <time>2020-07-01T07:21:59.000Z</time>
      </trkpt>
      <trkpt lat="45.11139" lon="5.89519">
        <ele>1932.98</ele>
        <time>2020-07-01T07:22:09.000Z</time>
      </trkpt>
      <trkpt lat="45.11139" lon="5.89525">
        <ele>1936.35</ele>
        <time>2020-07-01T07:22:19.000Z</time>
      </trkpt>
      <trkpt lat="45.11136" lon="5.89541">
        <ele>1942.87</ele>
        <time>2020-07-01T07:22:29.000Z</time>
      </trkpt>
      <trkpt lat="45.11135" lon="5.8956">
        <ele>1937.27</ele>
        <time>2020-07-01T07:22:39.000Z</time>
      </trkpt>
      <trkpt lat="45.1113" lon="5.89577">
        <ele>1940.87</ele>
        <time>2020-07-01T07:22:49.000Z</time>
      </trkpt>
      <trkpt lat="45.11126" lon="5.89591">
        <ele>1944.14</ele>
        <time>2020-07-01T07:22:59.000Z</time>
      </trkpt>
      <trkpt lat="45.11122" lon="5.89598">
        <ele>1941.26</ele>
        <time>2020-07-01T07:23:09.000Z</time>
      </trkpt>
      <trkpt lat="45.11121" lon="5.8961">
        <ele>1936.98</ele>
        <time>2020-07-01T07:23:19.000Z</time>
      </trkpt>
      <trkpt lat="45.11125" lon="5.89621">
        <ele>1933.91</ele>
        <time>2020-07-01T07:23:29.000Z</time>
      </trkpt>
      <trkpt lat="45.11131" lon="5.89629">
        <ele>1932.92</ele>
        <time>2020-07-01T07:23:39.000Z</time>
      </trkpt>
      <trkpt lat="45.11139" lon="5.89637">
        <ele>1935.62</ele>
        <time>2020-07-01T07:23:49.000Z</time>
      </trkpt>
      <trkpt lat="45.11141" lon="5.89653">
        <ele>1939.79</ele>
        <time>2020-07-01T07:23:59.000Z</time>
      </trkpt>
      <trkpt lat="45.11146" lon="5.89668">
        <ele>1941.73</ele>
        <time>2020-07-01T07:24:09.000Z</time>
      </trkpt>
      <trkpt lat="45.11139" lon="5.89676">
        <ele>1940.61</ele>
        <time>2020-07-01T07:24:19.000Z</time>
      </trkpt>
      <trkpt lat="45.11137" lon="5.89687">
        <ele>1937.64</ele>
        <time>2020-07-01T07:24:29.000Z</time>
      </trkpt>
      <trkpt lat="45.11132" lon="5.89693">
        <ele>1934.79</ele>
        <time>2020-07-01T07:24:39.000Z</time>
      </trkpt>
      <trkpt lat="45.11131" lon="5.89702">
        <ele>1929.43</ele>
        <time>2020-07-01T07:24:49.000Z</time>
      </trkpt>
      <trkpt lat="45.11127" lon="5.89703">
        <ele>1925.54</ele>
        <time>2020-07-01T07:24:59.000Z</time>
      </trkpt>
      <trkpt lat="45.11127" lon="5.89709">
        <ele>1927.06</ele>
        <time>2020-07-01T07:25:09.000Z</time>
      </trkpt>
      <trkpt lat="45.11128" lon="5.89711">
        <ele>1922.45</ele>
        <time>2020-07-01T07:25:19.000Z</time>
      </trkpt>
      <trkpt lat="45.11127" lon="5.89712">
        <ele>1922.74</ele>
        <time>2020-07-01T07:25:29.000Z</time>
      </trkpt>
      <trkpt lat="45.11123" lon="5.89718">
        <ele>1924.14</ele>
        <time>2020-07-01T07:25:39.000Z</time>
      </trkpt>
      <trkpt lat="45.11118" lon="5.89744">
        <ele>1925.88</ele>
        <time>2020-07-01T07:25:49.000Z</time>
      </trkpt>
      <trkpt lat="45.11114" lon="5.89765">
        <ele>1928.66</ele>
        <time>2020-07-01T07:25:59.000Z</time>
      </trkpt>
      <trkpt lat="45.11112" lon="5.89771">
        <ele>1924.93</ele>
        <time>2020-07-01T07:26:09.000Z</time>
      </trkpt>
      <trkpt lat="45.11114" lon="5.8977">
        <ele>1923.97</ele>
        <time>2020-07-01T07:26:19.000Z</time>
      </trkpt>
      <trkpt lat="45.11114" lon="5.89771">
        <ele>1924.44</ele>
        <time>2020-07-01T07:26:31.000Z</time>
      </trkpt>
      <trkpt lat="45.11113" lon="5.89773">
        <ele>1924.93</ele>
        <time>2020-07-01T07:29:04.000Z</time>
      </trkpt>
      <trkpt lat="45.11108" lon="5.89792">
        <ele>1919.32</ele>
        <time>2020-07-01T07:29:14.000Z</time>
      </trkpt>
      <trkpt lat="45.11105" lon="5.89813">
        <ele>1917.05</ele>
        <time>2020-07-01T07:29:24.000Z</time>
      </trkpt>
      <trkpt lat="45.11106" lon="5.89834">
        <ele>1916.24</ele>
        <time>2020-07-01T07:29:34.000Z</time>
      </trkpt>
      <trkpt lat="45.11104" lon="5.89852">
        <ele>1918.2</ele>
        <time>2020-07-01T07:29:44.000Z</time>
      </trkpt>
      <trkpt lat="45.11109" lon="5.89859">
        <ele>1920.45</ele>
        <time>2020-07-01T07:29:54.000Z</time>
      </trkpt>
      <trkpt lat="45.11114" lon="5.89866">
        <ele>1921.65</ele>
        <time>2020-07-01T07:30:04.000Z</time>
      </trkpt>
      <trkpt lat="45.11116" lon="5.89877">
        <ele>1918.53</ele>
        <time>2020-07-01T07:30:14.000Z</time>
      </trkpt>
      <trkpt lat="45.11119" lon="5.89885">
        <ele>1920.33</ele>
        <time>2020-07-01T07:30:24.000Z</time>
      </trkpt>
      <trkpt lat="45.11123" lon="5.89888">
        <ele>1920.26</ele>
        <time>2020-07-01T07:30:34.000Z</time>
      </trkpt>
      <trkpt lat="45.11129" lon="5.8989">
        <ele>1918.4</ele>
        <time>2020-07-01T07:30:44.000Z</time>
      </trkpt>
      <trkpt lat="45.11135" lon="5.89898">
        <ele>1915.66</ele>
        <time>2020-07-01T07:30:54.000Z</time>
      </trkpt>
      <trkpt lat="45.11132" lon="5.89914">
        <ele>1912.95</ele>
        <time>2020-07-01T07:31:04.000Z</time>
      </trkpt>
      <trkpt lat="45.11143" lon="5.89929">
        <ele>1915.76</ele>
        <time>2020-07-01T07:31:14.000Z</time>
      </trkpt>
      <trkpt lat="45.11147" lon="5.89942">
        <ele>1920.18</ele>
        <time>2020-07-01T07:31:24.000Z</time>
      </trkpt>
      <trkpt lat="45.1115" lon="5.89948">
        <ele>1915.26</ele>
        <time>2020-07-01T07:31:34.000Z</time>
      </trkpt>
      <trkpt lat="45.11152" lon="5.89955">
        <ele>1916.08</ele>
        <time>2020-07-01T07:31:44.000Z</time>
      </trkpt>
      <trkpt lat="45.11162" lon="5.89956">
        <ele>1916.65</ele>
        <time>2020-07-01T07:31:54.000Z</time>
      </trkpt>
      <trkpt lat="45.11165" lon="5.89961">
        <ele>1916.52</ele>
        <time>2020-07-01T07:32:04.000Z</time>
      </trkpt>
      <trkpt lat="45.11168" lon="5.89969">
        <ele>1913.04</ele>
        <time>2020-07-01T07:32:14.000Z</time>
      </trkpt>
      <trkpt lat="45.11176" lon="5.89985">
        <ele>1909.51</ele>
        <time>2020-07-01T07:32:24.000Z</time>
      </trkpt>
      <trkpt lat="45.11182" lon="5.89994">
        <ele>1901.51</ele>
        <time>2020-07-01T07:32:34.000Z</time>
      </trkpt>
      <trkpt lat="45.11183" lon="5.89996">
        <ele>1904.93</ele>
        <time>2020-07-01T07:32:44.000Z</time>
      </trkpt>
      <trkpt lat="45.11184" lon="5.89999">
        <ele>1904.18</ele>
        <time>2020-07-01T07:32:54.000Z</time>
      </trkpt>
      <trkpt lat="45.11193" lon="5.90011">
        <ele>1902.48</ele>
        <time>2020-07-01T07:33:04.000Z</time>
      </trkpt>
      <trkpt lat="45.11207" lon="5.90009">
        <ele>1907.49</ele>
        <time>2020-07-01T07:33:14.000Z</time>
      </trkpt>
      <trkpt lat="45.11212" lon="5.90015">
        <ele>1911.79</ele>
        <time>2020-07-01T07:33:24.000Z</time>
      </trkpt>
      <trkpt lat="45.11225" lon="5.90023">
        <ele>1912</ele>
        <time>2020-07-01T07:33:34.000Z</time>
      </trkpt>
      <trkpt lat="45.11234" lon="5.90025">
        <ele>1910.83</ele>
        <time>2020-07-01T07:33:44.000Z</time>
      </trkpt>
      <trkpt lat="45.11243" lon="5.90037">
        <ele>1912.37</ele>
        <time>2020-07-01T07:33:54.000Z</time>
      </trkpt>
      <trkpt lat="45.11244" lon="5.90046">
        <ele>1911.82</ele>
        <time>2020-07-01T07:34:04.000Z</time>
      </trkpt>
      <trkpt lat="45.1125" lon="5.90059">
        <ele>1910.81</ele>
        <time>2020-07-01T07:34:14.000Z</time>
      </trkpt>
      <trkpt lat="45.11252" lon="5.90071">
        <ele>1907.58</ele>
        <time>2020-07-01T07:34:24.000Z</time>
      </trkpt>
      <trkpt lat="45.11259" lon="5.90085">
        <ele>1909.88</ele>
        <time>2020-07-01T07:34:34.000Z</time>
      </trkpt>
      <trkpt lat="45.11263" lon="5.90097">
        <ele>1911.16</ele>
        <time>2020-07-01T07:34:44.000Z</time>
      </trkpt>
      <trkpt lat="45.11269" lon="5.90106">
        <ele>1918.1</ele>
        <time>2020-07-01T07:34:54.000Z</time>
      </trkpt>
      <trkpt lat="45.11277" lon="5.90116">
        <ele>1916.56</ele>
        <time>2020-07-01T07:35:04.000Z</time>
      </trkpt>
      <trkpt lat="45.11282" lon="5.9013">
        <ele>1918.95</ele>
        <time>2020-07-01T07:35:14.000Z</time>
      </trkpt>
      <trkpt lat="45.11273" lon="5.90135">
        <ele>1914.63</ele>
        <time>2020-07-01T07:35:24.000Z</time>
      </trkpt>
      <trkpt lat="45.1128" lon="5.9014">
        <ele>1914.77</ele>
        <time>2020-07-01T07:35:34.000Z</time>
      </trkpt>
      <trkpt lat="45.11281" lon="5.9015">
        <ele>1916.01</ele>
        <time>2020-07-01T07:35:44.000Z</time>
      </trkpt>
      <trkpt lat="45.11283" lon="5.90156">
        <ele>1913.24</ele>
        <time>2020-07-01T07:35:54.000Z</time>
      </trkpt>
      <trkpt lat="45.11285" lon="5.90153">
        <ele>1906.28</ele>
        <time>2020-07-01T07:36:04.000Z</time>
      </trkpt>
      <trkpt lat="45.11284" lon="5.90154">
        <ele>1910.56</ele>
        <time>2020-07-01T07:36:14.000Z</time>
      </trkpt>
      <trkpt lat="45.11285" lon="5.90157">
        <ele>1915.42</ele>
        <time>2020-07-01T07:36:24.000Z</time>
      </trkpt>
      <trkpt lat="45.11287" lon="5.90157">
        <ele>1915.37</ele>
        <time>2020-07-01T07:36:34.000Z</time>
      </trkpt>
      <trkpt lat="45.11287" lon="5.90159">
        <ele>1914.71</ele>
        <time>2020-07-01T07:40:34.000Z</time>
      </trkpt>
      <trkpt lat="45.11284" lon="5.90184">
        <ele>1916.09</ele>
        <time>2020-07-01T07:40:44.000Z</time>
      </trkpt>
      <trkpt lat="45.1129" lon="5.90203">
        <ele>1912.64</ele>
        <time>2020-07-01T07:40:54.000Z</time>
      </trkpt>
      <trkpt lat="45.11293" lon="5.90213">
        <ele>1910.67</ele>
        <time>2020-07-01T07:41:04.000Z</time>
      </trkpt>
      <trkpt lat="45.113" lon="5.90228">
        <ele>1909.91</ele>
        <time>2020-07-01T07:41:14.000Z</time>
      </trkpt>
      <trkpt lat="45.11303" lon="5.90239">
        <ele>1911.31</ele>
        <time>2020-07-01T07:41:24.000Z</time>
      </trkpt>
      <trkpt lat="45.11313" lon="5.90244">
        <ele>1914.51</ele>
        <time>2020-07-01T07:41:34.000Z</time>
      </trkpt>
      <trkpt lat="45.11327" lon="5.9025">
        <ele>1920.77</ele>
        <time>2020-07-01T07:41:44.000Z</time>
      </trkpt>
      <trkpt lat="45.11337" lon="5.90254">
        <ele>1918.6</ele>
        <time>2020-07-01T07:41:54.000Z</time>
      </trkpt>
      <trkpt lat="45.1134" lon="5.90261">
        <ele>1916.58</ele>
        <time>2020-07-01T07:42:04.000Z</time>
      </trkpt>
      <trkpt lat="45.11345" lon="5.90267">
        <ele>1916.49</ele>
        <time>2020-07-01T07:42:14.000Z</time>
      </trkpt>
      <trkpt lat="45.11353" lon="5.90274">
        <ele>1919.28</ele>
        <time>2020-07-01T07:42:24.000Z</time>
      </trkpt>
      <trkpt lat="45.11356" lon="5.90279">
        <ele>1921.85</ele>
        <time>2020-07-01T07:42:34.000Z</time>
      </trkpt>
      <trkpt lat="45.11366" lon="5.90283">
        <ele>1921.2</ele>
        <time>2020-07-01T07:42:44.000Z</time>
      </trkpt>
      <trkpt lat="45.11379" lon="5.90287">
        <ele>1922.29</ele>
        <time>2020-07-01T07:42:54.000Z</time>
      </trkpt>
      <trkpt lat="45.11385" lon="5.9029">
        <ele>1925.65</ele>
        <time>2020-07-01T07:43:04.000Z</time>
      </trkpt>
      <trkpt lat="45.11385" lon="5.90287">
        <ele>1927.49</ele>
        <time>2020-07-01T07:43:14.000Z</time>
      </trkpt>
      <trkpt lat="45.1139" lon="5.90293">
        <ele>1934.31</ele>
        <time>2020-07-01T07:43:24.000Z</time>
      </trkpt>
      <trkpt lat="45.11394" lon="5.90301">
        <ele>1938.49</ele>
        <time>2020-07-01T07:43:34.000Z</time>
      </trkpt>
      <trkpt lat="45.11399" lon="5.90303">
        <ele>1938.63</ele>
        <time>2020-07-01T07:43:44.000Z</time>
      </trkpt>
      <trkpt lat="45.11404" lon="5.90307">
        <ele>1937.16</ele>
        <time>2020-07-01T07:43:54.000Z</time>
      </trkpt>
      <trkpt lat="45.11407" lon="5.90316">
        <ele>1936.41</ele>
        <time>2020-07-01T07:44:04.000Z</time>
      </trkpt>
      <trkpt lat="45.11411" lon="5.90325">
        <ele>1938.37</ele>
        <time>2020-07-01T07:44:14.000Z</time>
      </trkpt>
      <trkpt lat="45.1142" lon="5.90325">
        <ele>1940.61</ele>
        <time>2020-07-01T07:44:24.000Z</time>
      </trkpt>
      <trkpt lat="45.11424" lon="5.9033">
        <ele>1942.96</ele>
        <time>2020-07-01T07:44:34.000Z</time>
      </trkpt>
      <trkpt lat="45.11426" lon="5.90336">
        <ele>1943.48</ele>
        <time>2020-07-01T07:44:44.000Z</time>
      </trkpt>
      <trkpt lat="45.11433" lon="5.90346">
        <ele>1941.34</ele>
        <time>2020-07-01T07:44:54.000Z</time>
      </trkpt>
      <trkpt lat="45.11434" lon="5.90349">
        <ele>1941.51</ele>
        <time>2020-07-01T07:45:04.000Z</time>
      </trkpt>
      <trkpt lat="45.1143" lon="5.90359">
        <ele>1938.62</ele>
        <time>2020-07-01T07:45:14.000Z</time>
      </trkpt>
      <trkpt lat="45.11432" lon="5.90361">
        <ele>1940.23</ele>
        <time>2020-07-01T07:45:24.000Z</time>
      </trkpt>
      <trkpt lat="45.11436" lon="5.90365">
        <ele>1943.18</ele>
        <time>2020-07-01T07:45:34.000Z</time>
      </trkpt>
      <trkpt lat="45.11436" lon="5.90368">
        <ele>1944.38</ele>
        <time>2020-07-01T07:45:44.000Z</time>
      </trkpt>
      <trkpt lat="45.11445" lon="5.90366">
        <ele>1943.44</ele>
        <time>2020-07-01T07:45:54.000Z</time>
      </trkpt>
      <trkpt lat="45.11458" lon="5.90375">
        <ele>1943</ele>
        <time>2020-07-01T07:46:04.000Z</time>
      </trkpt>
      <trkpt lat="45.11458" lon="5.9038">
        <ele>1945.58</ele>
        <time>2020-07-01T07:46:14.000Z</time>
      </trkpt>
      <trkpt lat="45.11457" lon="5.90379">
        <ele>1943.7</ele>
        <time>2020-07-01T07:46:24.000Z</time>
      </trkpt>
      <trkpt lat="45.11458" lon="5.90379">
        <ele>1945.19</ele>
        <time>2020-07-01T07:46:36.000Z</time>
      </trkpt>
      <trkpt lat="45.11462" lon="5.90382">
        <ele>1943.37</ele>
        <time>2020-07-01T07:46:46.000Z</time>
      </trkpt>
      <trkpt lat="45.11473" lon="5.90387">
        <ele>1941.88</ele>
        <time>2020-07-01T07:46:56.000Z</time>
      </trkpt>
      <trkpt lat="45.11478" lon="5.90388">
        <ele>1937.82</ele>
        <time>2020-07-01T07:47:06.000Z</time>
      </trkpt>
      <trkpt lat="45.11481" lon="5.90396">
        <ele>1940.6</ele>
        <time>2020-07-01T07:47:16.000Z</time>
      </trkpt>
      <trkpt lat="45.1149" lon="5.90402">
        <ele>1938.21</ele>
        <time>2020-07-01T07:47:26.000Z</time>
      </trkpt>
      <trkpt lat="45.11494" lon="5.90414">
        <ele>1941.64</ele>
        <time>2020-07-01T07:47:36.000Z</time>
      </trkpt>
      <trkpt lat="45.11487" lon="5.9042">
        <ele>1944.38</ele>
        <time>2020-07-01T07:47:46.000Z</time>
      </trkpt>
      <trkpt lat="45.11496" lon="5.90431">
        <ele>1943.21</ele>
        <time>2020-07-01T07:47:56.000Z</time>
      </trkpt>
      <trkpt lat="45.11509" lon="5.90443">
        <ele>1943.36</ele>
        <time>2020-07-01T07:48:06.000Z</time>
      </trkpt>
      <trkpt lat="45.11515" lon="5.90446">
        <ele>1938.81</ele>
        <time>2020-07-01T07:48:16.000Z</time>
      </trkpt>
      <trkpt lat="45.1152" lon="5.90445">
        <ele>1937.19</ele>
        <time>2020-07-01T07:48:26.000Z</time>
      </trkpt>
      <trkpt lat="45.11537" lon="5.90452">
        <ele>1942.53</ele>
        <time>2020-07-01T07:48:36.000Z</time>
      </trkpt>
      <trkpt lat="45.11548" lon="5.90457">
        <ele>1939.31</ele>
        <time>2020-07-01T07:48:46.000Z</time>
      </trkpt>
      <trkpt lat="45.11557" lon="5.90459">
        <ele>1940.22</ele>
        <time>2020-07-01T07:48:56.000Z</time>
      </trkpt>
      <trkpt lat="45.11564" lon="5.9046">
        <ele>1941.99</ele>
        <time>2020-07-01T07:49:06.000Z</time>
      </trkpt>
      <trkpt lat="45.11573" lon="5.90467">
        <ele>1941.98</ele>
        <time>2020-07-01T07:49:16.000Z</time>
      </trkpt>
      <trkpt lat="45.11581" lon="5.90467">
        <ele>1951.07</ele>
        <time>2020-07-01T07:49:26.000Z</time>
      </trkpt>
      <trkpt lat="45.1159" lon="5.90471">
        <ele>1955.46</ele>
        <time>2020-07-01T07:49:36.000Z</time>
      </trkpt>
      <trkpt lat="45.11591" lon="5.90467">
        <ele>1965.1</ele>
        <time>2020-07-01T07:49:46.000Z</time>
      </trkpt>
      <trkpt lat="45.11599" lon="5.90468">
        <ele>1965.45</ele>
        <time>2020-07-01T07:49:56.000Z</time>
      </trkpt>
      <trkpt lat="45.11605" lon="5.90474">
        <ele>1963.67</ele>
        <time>2020-07-01T07:50:06.000Z</time>
      </trkpt>
      <trkpt lat="45.11619" lon="5.9048">
        <ele>1957.06</ele>
        <time>2020-07-01T07:50:16.000Z</time>
      </trkpt>
      <trkpt lat="45.1163" lon="5.90476">
        <ele>1958.18</ele>
        <time>2020-07-01T07:50:26.000Z</time>
      </trkpt>
      <trkpt lat="45.11637" lon="5.90477">
        <ele>1952.48</ele>
        <time>2020-07-01T07:50:36.000Z</time>
      </trkpt>
      <trkpt lat="45.11642" lon="5.9048">
        <ele>1952.39</ele>
        <time>2020-07-01T07:50:46.000Z</time>
      </trkpt>
      <trkpt lat="45.11646" lon="5.90486">
        <ele>1954.76</ele>
        <time>2020-07-01T07:50:56.000Z</time>
      </trkpt>
      <trkpt lat="45.11655" lon="5.90491">
        <ele>1956.74</ele>
        <time>2020-07-01T07:51:06.000Z</time>
      </trkpt>
      <trkpt lat="45.11663" lon="5.90493">
        <ele>1955.45</ele>
        <time>2020-07-01T07:51:16.000Z</time>
      </trkpt>
      <trkpt lat="45.11669" lon="5.90496">
        <ele>1960.64</ele>
        <time>2020-07-01T07:51:26.000Z</time>
      </trkpt>
      <trkpt lat="45.11674" lon="5.90498">
        <ele>1967.67</ele>
        <time>2020-07-01T07:51:36.000Z</time>
      </trkpt>
      <trkpt lat="45.11681" lon="5.90501">
        <ele>1975.78</ele>
        <time>2020-07-01T07:51:46.000Z</time>
      </trkpt>
      <trkpt lat="45.11682" lon="5.90503">
        <ele>1978.19</ele>
        <time>2020-07-01T07:51:56.000Z</time>
      </trkpt>
      <trkpt lat="45.11689" lon="5.90504">
        <ele>1981.39</ele>
        <time>2020-07-01T07:52:06.000Z</time>
      </trkpt>
      <trkpt lat="45.11694" lon="5.90505">
        <ele>1989.56</ele>
        <time>2020-07-01T07:52:16.000Z</time>
      </trkpt>
      <trkpt lat="45.11699" lon="5.90508">
        <ele>1992.57</ele>
        <time>2020-07-01T07:52:26.000Z</time>
      </trkpt>
      <trkpt lat="45.11708" lon="5.90512">
        <ele>1994.07</ele>
        <time>2020-07-01T07:52:36.000Z</time>
      </trkpt>
      <trkpt lat="45.11717" lon="5.90516">
        <ele>1994.5</ele>
        <time>2020-07-01T07:52:46.000Z</time>
      </trkpt>
      <trkpt lat="45.11725" lon="5.9052">
        <ele>2000.82</ele>
        <time>2020-07-01T07:52:56.000Z</time>
      </trkpt>
      <trkpt lat="45.1173" lon="5.90528">
        <ele>1999.64</ele>
        <time>2020-07-01T07:53:06.000Z</time>
      </trkpt>
      <trkpt lat="45.11732" lon="5.90528">
        <ele>2002.07</ele>
        <time>2020-07-01T07:53:16.000Z</time>
      </trkpt>
      <trkpt lat="45.11734" lon="5.90534">
        <ele>1997.87</ele>
        <time>2020-07-01T07:53:26.000Z</time>
      </trkpt>
      <trkpt lat="45.11741" lon="5.90539">
        <ele>2003.08</ele>
        <time>2020-07-01T07:53:36.000Z</time>
      </trkpt>
      <trkpt lat="45.11743" lon="5.90546">
        <ele>2000.72</ele>
        <time>2020-07-01T07:53:46.000Z</time>
      </trkpt>
      <trkpt lat="45.11743" lon="5.90549">
        <ele>2006.37</ele>
        <time>2020-07-01T07:53:56.000Z</time>
      </trkpt>
      <trkpt lat="45.1175" lon="5.90557">
        <ele>2010.69</ele>
        <time>2020-07-01T07:54:06.000Z</time>
      </trkpt>
      <trkpt lat="45.11759" lon="5.90564">
        <ele>2008.8</ele>
        <time>2020-07-01T07:54:16.000Z</time>
      </trkpt>
      <trkpt lat="45.11766" lon="5.90566">
        <ele>2007.2</ele>
        <time>2020-07-01T07:54:26.000Z</time>
      </trkpt>
      <trkpt lat="45.11772" lon="5.90569">
        <ele>2005.24</ele>
        <time>2020-07-01T07:54:36.000Z</time>
      </trkpt>
      <trkpt lat="45.11772" lon="5.90571">
        <ele>2009.87</ele>
        <time>2020-07-01T07:54:46.000Z</time>
      </trkpt>
      <trkpt lat="45.11772" lon="5.90575">
        <ele>2014.85</ele>
        <time>2020-07-01T07:54:56.000Z</time>
      </trkpt>
      <trkpt lat="45.11769" lon="5.90573">
        <ele>2017.67</ele>
        <time>2020-07-01T07:55:06.000Z</time>
      </trkpt>
      <trkpt lat="45.11771" lon="5.90573">
        <ele>2018.95</ele>
        <time>2020-07-01T07:55:16.000Z</time>
      </trkpt>
      <trkpt lat="45.11773" lon="5.90573">
        <ele>2018.28</ele>
        <time>2020-07-01T07:55:26.000Z</time>
      </trkpt>
      <trkpt lat="45.11774" lon="5.90574">
        <ele>2018.04</ele>
        <time>2020-07-01T07:56:36.000Z</time>
      </trkpt>
      <trkpt lat="45.11774" lon="5.90575">
        <ele>2017.08</ele>
        <time>2020-07-01T07:58:47.000Z</time>
      </trkpt>
      <trkpt lat="45.11774" lon="5.90576">
        <ele>2016.56</ele>
        <time>2020-07-01T08:01:03.000Z</time>
      </trkpt>
      <trkpt lat="45.11775" lon="5.90576">
        <ele>2016.57</ele>
        <time>2020-07-01T08:02:54.000Z</time>
      </trkpt>
      <trkpt lat="45.11775" lon="5.90578">
        <ele>2015.52</ele>
        <time>2020-07-01T08:05:32.000Z</time>
      </trkpt>
      <trkpt lat="45.11776" lon="5.90579">
        <ele>2015.91</ele>
        <time>2020-07-01T08:05:55.000Z</time>
      </trkpt>
      <trkpt lat="45.11787" lon="5.90597">
        <ele>2016.37</ele>
        <time>2020-07-01T08:06:05.000Z</time>
      </trkpt>
      <trkpt lat="45.11798" lon="5.90608">
        <ele>2016.69</ele>
        <time>2020-07-01T08:06:15.000Z</time>
      </trkpt>
      <trkpt lat="45.11808" lon="5.90619">
        <ele>2013.7</ele>
        <time>2020-07-01T08:06:25.000Z</time>
      </trkpt>
      <trkpt lat="45.11817" lon="5.90625">
        <ele>2009.88</ele>
        <time>2020-07-01T08:06:35.000Z</time>
      </trkpt>
      <trkpt lat="45.11829" lon="5.90629">
        <ele>2012.92</ele>
        <time>2020-07-01T08:06:45.000Z</time>
      </trkpt>
      <trkpt lat="45.11839" lon="5.90639">
        <ele>2012.11</ele>
        <time>2020-07-01T08:06:55.000Z</time>
      </trkpt>
      <trkpt lat="45.11847" lon="5.90646">
        <ele>2013.33</ele>
        <time>2020-07-01T08:07:05.000Z</time>
      </trkpt>
      <trkpt lat="45.11855" lon="5.90655">
        <ele>2013.24</ele>
        <time>2020-07-01T08:07:15.000Z</time>
      </trkpt>
      <trkpt lat="45.11859" lon="5.90659">
        <ele>2016.35</ele>
        <time>2020-07-01T08:07:25.000Z</time>
      </trkpt>
      <trkpt lat="45.11857" lon="5.90659">
        <ele>2016.72</ele>
        <time>2020-07-01T08:07:35.000Z</time>
      </trkpt>
      <trkpt lat="45.11858" lon="5.90668">
        <ele>2017.4</ele>
        <time>2020-07-01T08:07:45.000Z</time>
      </trkpt>
      <trkpt lat="45.11858" lon="5.90676">
        <ele>2019.13</ele>
        <time>2020-07-01T08:07:55.000Z</time>
      </trkpt>
      <trkpt lat="45.11867" lon="5.90679">
        <ele>2016.25</ele>
        <time>2020-07-01T08:08:05.000Z</time>
      </trkpt>
      <trkpt lat="45.11872" lon="5.9069">
        <ele>2015.13</ele>
        <time>2020-07-01T08:08:15.000Z</time>
      </trkpt>
      <trkpt lat="45.11878" lon="5.90693">
        <ele>2018.77</ele>
        <time>2020-07-01T08:08:25.000Z</time>
      </trkpt>
      <trkpt lat="45.11889" lon="5.90709">
        <ele>2023.27</ele>
        <time>2020-07-01T08:08:35.000Z</time>
      </trkpt>
      <trkpt lat="45.11897" lon="5.90715">
        <ele>2026.16</ele>
        <time>2020-07-01T08:08:45.000Z</time>
      </trkpt>
      <trkpt lat="45.11909" lon="5.90721">
        <ele>2026</ele>
        <time>2020-07-01T08:08:55.000Z</time>
      </trkpt>
      <trkpt lat="45.11915" lon="5.90728">
        <ele>2025.9</ele>
        <time>2020-07-01T08:09:05.000Z</time>
      </trkpt>
      <trkpt lat="45.11916" lon="5.90734">
        <ele>2029.17</ele>
        <time>2020-07-01T08:09:15.000Z</time>
      </trkpt>
      <trkpt lat="45.1192" lon="5.90743">
        <ele>2027.8</ele>
        <time>2020-07-01T08:09:25.000Z</time>
      </trkpt>
      <trkpt lat="45.11926" lon="5.90747">
        <ele>2033.36</ele>
        <time>2020-07-01T08:09:35.000Z</time>
      </trkpt>
      <trkpt lat="45.11934" lon="5.90755">
        <ele>2037.1</ele>
        <time>2020-07-01T08:09:45.000Z</time>
      </trkpt>
      <trkpt lat="45.11942" lon="5.90757">
        <ele>2042.27</ele>
        <time>2020-07-01T08:09:55.000Z</time>
      </trkpt>
      <trkpt lat="45.11949" lon="5.90761">
        <ele>2042.68</ele>
        <time>2020-07-01T08:10:05.000Z</time>
      </trkpt>
      <trkpt lat="45.11947" lon="5.90769">
        <ele>2037.69</ele>
        <time>2020-07-01T08:10:15.000Z</time>
      </trkpt>
      <trkpt lat="45.11949" lon="5.90782">
        <ele>2039.67</ele>
        <time>2020-07-01T08:10:25.000Z</time>
      </trkpt>
      <trkpt lat="45.11954" lon="5.90788">
        <ele>2044.08</ele>
        <time>2020-07-01T08:10:35.000Z</time>
      </trkpt>
      <trkpt lat="45.11953" lon="5.90791">
        <ele>2042.69</ele>
        <time>2020-07-01T08:10:45.000Z</time>
      </trkpt>
      <trkpt lat="45.11955" lon="5.90794">
        <ele>2040.06</ele>
        <time>2020-07-01T08:10:55.000Z</time>
      </trkpt>
      <trkpt lat="45.11956" lon="5.90795">
        <ele>2041.21</ele>
        <time>2020-07-01T08:11:05.000Z</time>
      </trkpt>
      <trkpt lat="45.11957" lon="5.90797">
        <ele>2042.98</ele>
        <time>2020-07-01T08:11:36.000Z</time>
      </trkpt>
      <trkpt lat="45.11967" lon="5.9081">
        <ele>2036.92</ele>
        <time>2020-07-01T08:11:46.000Z</time>
      </trkpt>
      <trkpt lat="45.1197" lon="5.90813">
        <ele>2039.41</ele>
        <time>2020-07-01T08:11:56.000Z</time>
      </trkpt>
      <trkpt lat="45.11971" lon="5.90814">
        <ele>2038.9</ele>
        <time>2020-07-01T08:12:06.000Z</time>
      </trkpt>
      <trkpt lat="45.11972" lon="5.90816">
        <ele>2042.34</ele>
        <time>2020-07-01T08:12:26.000Z</time>
      </trkpt>
      <trkpt lat="45.11977" lon="5.90832">
        <ele>2048.02</ele>
        <time>2020-07-01T08:12:36.000Z</time>
      </trkpt>
      <trkpt lat="45.11981" lon="5.90835">
        <ele>2051.25</ele>
        <time>2020-07-01T08:12:46.000Z</time>
      </trkpt>
      <trkpt lat="45.11982" lon="5.90838">
        <ele>2053.55</ele>
        <time>2020-07-01T08:12:56.000Z</time>
      </trkpt>
      <trkpt lat="45.11987" lon="5.90838">
        <ele>2056.29</ele>
        <time>2020-07-01T08:13:06.000Z</time>
      </trkpt>
      <trkpt lat="45.11991" lon="5.90846">
        <ele>2056.84</ele>
        <time>2020-07-01T08:13:16.000Z</time>
      </trkpt>
      <trkpt lat="45.11995" lon="5.90847">
        <ele>2056.9</ele>
        <time>2020-07-01T08:13:26.000Z</time>
      </trkpt>
      <trkpt lat="45.11996" lon="5.90847">
        <ele>2056.86</ele>
        <time>2020-07-01T08:13:36.000Z</time>
      </trkpt>
      <trkpt lat="45.12008" lon="5.90839">
        <ele>2056.99</ele>
        <time>2020-07-01T08:13:46.000Z</time>
      </trkpt>
      <trkpt lat="45.12019" lon="5.90837">
        <ele>2062.45</ele>
        <time>2020-07-01T08:13:56.000Z</time>
      </trkpt>
      <trkpt lat="45.12021" lon="5.90844">
        <ele>2059.38</ele>
        <time>2020-07-01T08:14:06.000Z</time>
      </trkpt>
      <trkpt lat="45.12023" lon="5.9085">
        <ele>2060.02</ele>
        <time>2020-07-01T08:14:16.000Z</time>
      </trkpt>
      <trkpt lat="45.12027" lon="5.90848">
        <ele>2058.84</ele>
        <time>2020-07-01T08:14:26.000Z</time>
      </trkpt>
      <trkpt lat="45.12026" lon="5.90847">
        <ele>2062.82</ele>
        <time>2020-07-01T08:15:36.000Z</time>
      </trkpt>
      <trkpt lat="45.12024" lon="5.90844">
        <ele>2065.41</ele>
        <time>2020-07-01T08:15:46.000Z</time>
      </trkpt>
      <trkpt lat="45.12026" lon="5.90839">
        <ele>2067.47</ele>
        <time>2020-07-01T08:15:56.000Z</time>
      </trkpt>
      <trkpt lat="45.12022" lon="5.90837">
        <ele>2069.24</ele>
        <time>2020-07-01T08:16:06.000Z</time>
      </trkpt>
      <trkpt lat="45.12023" lon="5.90839">
        <ele>2067.59</ele>
        <time>2020-07-01T08:16:16.000Z</time>
      </trkpt>
      <trkpt lat="45.12025" lon="5.90842">
        <ele>2071.57</ele>
        <time>2020-07-01T08:16:26.000Z</time>
      </trkpt>
      <trkpt lat="45.12023" lon="5.90846">
        <ele>2072.81</ele>
        <time>2020-07-01T08:16:36.000Z</time>
      </trkpt>
      <trkpt lat="45.12024" lon="5.90848">
        <ele>2072.09</ele>
        <time>2020-07-01T08:16:46.000Z</time>
      </trkpt>
      <trkpt lat="45.12025" lon="5.90848">
        <ele>2071.77</ele>
        <time>2020-07-01T08:17:32.000Z</time>
      </trkpt>
      <trkpt lat="45.12041" lon="5.90854">
        <ele>2069.82</ele>
        <time>2020-07-01T08:17:42.000Z</time>
      </trkpt>
      <trkpt lat="45.12054" lon="5.90861">
        <ele>2061.83</ele>
        <time>2020-07-01T08:17:52.000Z</time>
      </trkpt>
      <trkpt lat="45.12068" lon="5.90868">
        <ele>2059.74</ele>
        <time>2020-07-01T08:18:02.000Z</time>
      </trkpt>
      <trkpt lat="45.12075" lon="5.90874">
        <ele>2059.1</ele>
        <time>2020-07-01T08:18:12.000Z</time>
      </trkpt>
      <trkpt lat="45.12081" lon="5.90889">
        <ele>2060.56</ele>
        <time>2020-07-01T08:18:22.000Z</time>
      </trkpt>
      <trkpt lat="45.12088" lon="5.90897">
        <ele>2057.6</ele>
        <time>2020-07-01T08:18:32.000Z</time>
      </trkpt>
      <trkpt lat="45.12095" lon="5.90906">
        <ele>2057.53</ele>
        <time>2020-07-01T08:18:42.000Z</time>
      </trkpt>
      <trkpt lat="45.12103" lon="5.90915">
        <ele>2055.98</ele>
        <time>2020-07-01T08:18:52.000Z</time>
      </trkpt>
      <trkpt lat="45.12111" lon="5.90924">
        <ele>2057.52</ele>
        <time>2020-07-01T08:19:02.000Z</time>
      </trkpt>
      <trkpt lat="45.12114" lon="5.90932">
        <ele>2058.39</ele>
        <time>2020-07-01T08:19:12.000Z</time>
      </trkpt>
      <trkpt lat="45.12124" lon="5.90935">
        <ele>2060.35</ele>
        <time>2020-07-01T08:19:22.000Z</time>
      </trkpt>
      <trkpt lat="45.1213" lon="5.90938">
        <ele>2059.22</ele>
        <time>2020-07-01T08:19:32.000Z</time>
      </trkpt>
      <trkpt lat="45.12134" lon="5.90939">
        <ele>2057.87</ele>
        <time>2020-07-01T08:19:42.000Z</time>
      </trkpt>
      <trkpt lat="45.1214" lon="5.90951">
        <ele>2060.39</ele>
        <time>2020-07-01T08:19:52.000Z</time>
      </trkpt>
      <trkpt lat="45.12149" lon="5.90951">
        <ele>2060.11</ele>
        <time>2020-07-01T08:20:02.000Z</time>
      </trkpt>
      <trkpt lat="45.12152" lon="5.90952">
        <ele>2059.41</ele>
        <time>2020-07-01T08:20:12.000Z</time>
      </trkpt>
      <trkpt lat="45.12158" lon="5.90963">
        <ele>2059.89</ele>
        <time>2020-07-01T08:20:22.000Z</time>
      </trkpt>
      <trkpt lat="45.12167" lon="5.90966">
        <ele>2067.28</ele>
        <time>2020-07-01T08:20:32.000Z</time>
      </trkpt>
      <trkpt lat="45.12172" lon="5.9097">
        <ele>2068.29</ele>
        <time>2020-07-01T08:20:42.000Z</time>
      </trkpt>
      <trkpt lat="45.12173" lon="5.90969">
        <ele>2069.39</ele>
        <time>2020-07-01T08:20:52.000Z</time>
      </trkpt>
      <trkpt lat="45.12175" lon="5.90967">
        <ele>2069.27</ele>
        <time>2020-07-01T08:21:02.000Z</time>
      </trkpt>
      <trkpt lat="45.12176" lon="5.90968">
        <ele>2069.54</ele>
        <time>2020-07-01T08:21:14.000Z</time>
      </trkpt>
      <trkpt lat="45.12184" lon="5.90969">
        <ele>2073.12</ele>
        <time>2020-07-01T08:21:24.000Z</time>
      </trkpt>
      <trkpt lat="45.12192" lon="5.9097">
        <ele>2072.86</ele>
        <time>2020-07-01T08:21:34.000Z</time>
      </trkpt>
      <trkpt lat="45.12196" lon="5.90972">
        <ele>2072.11</ele>
        <time>2020-07-01T08:21:44.000Z</time>
      </trkpt>
      <trkpt lat="45.12198" lon="5.90973">
        <ele>2070.61</ele>
        <time>2020-07-01T08:21:54.000Z</time>
      </trkpt>
      <trkpt lat="45.12199" lon="5.90974">
        <ele>2071.33</ele>
        <time>2020-07-01T08:22:04.000Z</time>
      </trkpt>
      <trkpt lat="45.12204" lon="5.90976">
        <ele>2061.66</ele>
        <time>2020-07-01T08:22:14.000Z</time>
      </trkpt>
      <trkpt lat="45.12217" lon="5.90985">
        <ele>2059.79</ele>
        <time>2020-07-01T08:22:24.000Z</time>
      </trkpt>
      <trkpt lat="45.12229" lon="5.90993">
        <ele>2062.22</ele>
        <time>2020-07-01T08:22:34.000Z</time>
      </trkpt>
      <trkpt lat="45.12241" lon="5.90997">
        <ele>2066.38</ele>
        <time>2020-07-01T08:22:44.000Z</time>
      </trkpt>
      <trkpt lat="45.12245" lon="5.90999">
        <ele>2064.33</ele>
        <time>2020-07-01T08:22:54.000Z</time>
      </trkpt>
      <trkpt lat="45.12248" lon="5.90999">
        <ele>2065.96</ele>
        <time>2020-07-01T08:23:04.000Z</time>
      </trkpt>
      <trkpt lat="45.1226" lon="5.91001">
        <ele>2065.08</ele>
        <time>2020-07-01T08:23:14.000Z</time>
      </trkpt>
      <trkpt lat="45.12271" lon="5.91008">
        <ele>2064.64</ele>
        <time>2020-07-01T08:23:24.000Z</time>
      </trkpt>
      <trkpt lat="45.12269" lon="5.91006">
        <ele>2063.43</ele>
        <time>2020-07-01T08:23:34.000Z</time>
      </trkpt>
      <trkpt lat="45.12274" lon="5.91013">
        <ele>2062.96</ele>
        <time>2020-07-01T08:23:44.000Z</time>
      </trkpt>
      <trkpt lat="45.12288" lon="5.91023">
        <ele>2061.47</ele>
        <time>2020-07-01T08:23:54.000Z</time>
      </trkpt>
      <trkpt lat="45.12302" lon="5.91036">
        <ele>2064.65</ele>
        <time>2020-07-01T08:24:04.000Z</time>
      </trkpt>
      <trkpt lat="45.12317" lon="5.91044">
        <ele>2077.47</ele>
        <time>2020-07-01T08:24:14.000Z</time>
      </trkpt>
      <trkpt lat="45.12326" lon="5.91048">
        <ele>2082.93</ele>
        <time>2020-07-01T08:24:24.000Z</time>
      </trkpt>
      <trkpt lat="45.12332" lon="5.91048">
        <ele>2081.89</ele>
        <time>2020-07-01T08:24:34.000Z</time>
      </trkpt>
      <trkpt lat="45.12343" lon="5.91048">
        <ele>2081</ele>
        <time>2020-07-01T08:24:44.000Z</time>
      </trkpt>
      <trkpt lat="45.1235" lon="5.91046">
        <ele>2084.83</ele>
        <time>2020-07-01T08:24:54.000Z</time>
      </trkpt>
      <trkpt lat="45.12351" lon="5.91046">
        <ele>2083.51</ele>
        <time>2020-07-01T08:25:04.000Z</time>
      </trkpt>
      <trkpt lat="45.12353" lon="5.91045">
        <ele>2083.42</ele>
        <time>2020-07-01T08:25:14.000Z</time>
      </trkpt>
      <trkpt lat="45.1237" lon="5.91038">
        <ele>2076.98</ele>
        <time>2020-07-01T08:25:24.000Z</time>
      </trkpt>
      <trkpt lat="45.12386" lon="5.91028">
        <ele>2077.6</ele>
        <time>2020-07-01T08:25:34.000Z</time>
      </trkpt>
      <trkpt lat="45.12393" lon="5.91012">
        <ele>2077.01</ele>
        <time>2020-07-01T08:25:44.000Z</time>
      </trkpt>
      <trkpt lat="45.124" lon="5.91003">
        <ele>2074.51</ele>
        <time>2020-07-01T08:25:54.000Z</time>
      </trkpt>
      <trkpt lat="45.12406" lon="5.91001">
        <ele>2074.68</ele>
        <time>2020-07-01T08:26:04.000Z</time>
      </trkpt>
      <trkpt lat="45.1241" lon="5.90995">
        <ele>2080.39</ele>
        <time>2020-07-01T08:26:14.000Z</time>
      </trkpt>
      <trkpt lat="45.1241" lon="5.90979">
        <ele>2078.08</ele>
        <time>2020-07-01T08:26:24.000Z</time>
      </trkpt>
      <trkpt lat="45.12411" lon="5.9097">
        <ele>2082.68</ele>
        <time>2020-07-01T08:26:34.000Z</time>
      </trkpt>
      <trkpt lat="45.12407" lon="5.90958">
        <ele>2086.93</ele>
        <time>2020-07-01T08:26:44.000Z</time>
      </trkpt>
      <trkpt lat="45.12409" lon="5.90955">
        <ele>2088.05</ele>
        <time>2020-07-01T08:26:54.000Z</time>
      </trkpt>
      <trkpt lat="45.12408" lon="5.90948">
        <ele>2092.82</ele>
        <time>2020-07-01T08:27:04.000Z</time>
      </trkpt>
      <trkpt lat="45.12412" lon="5.90947">
        <ele>2091.13</ele>
        <time>2020-07-01T08:27:14.000Z</time>
      </trkpt>
      <trkpt lat="45.12412" lon="5.90943">
        <ele>2086.7</ele>
        <time>2020-07-01T08:27:24.000Z</time>
      </trkpt>
      <trkpt lat="45.12413" lon="5.90942">
        <ele>2085.66</ele>
        <time>2020-07-01T08:27:34.000Z</time>
      </trkpt>
      <trkpt lat="45.12414" lon="5.9094">
        <ele>2085.12</ele>
        <time>2020-07-01T08:28:12.000Z</time>
      </trkpt>
      <trkpt lat="45.12419" lon="5.90931">
        <ele>2087.01</ele>
        <time>2020-07-01T08:28:22.000Z</time>
      </trkpt>
      <trkpt lat="45.12427" lon="5.90923">
        <ele>2083.11</ele>
        <time>2020-07-01T08:28:32.000Z</time>
      </trkpt>
      <trkpt lat="45.12427" lon="5.90921">
        <ele>2083.13</ele>
        <time>2020-07-01T08:28:42.000Z</time>
      </trkpt>
      <trkpt lat="45.12428" lon="5.9092">
        <ele>2084.61</ele>
        <time>2020-07-01T08:29:06.000Z</time>
      </trkpt>
      <trkpt lat="45.12431" lon="5.90914">
        <ele>2080.39</ele>
        <time>2020-07-01T08:29:16.000Z</time>
      </trkpt>
      <trkpt lat="45.12432" lon="5.90913">
        <ele>2082.96</ele>
        <time>2020-07-01T08:29:26.000Z</time>
      </trkpt>
      <trkpt lat="45.12432" lon="5.9091">
        <ele>2083.79</ele>
        <time>2020-07-01T08:30:41.000Z</time>
      </trkpt>
      <trkpt lat="45.12436" lon="5.90903">
        <ele>2083.07</ele>
        <time>2020-07-01T08:30:51.000Z</time>
      </trkpt>
      <trkpt lat="45.12438" lon="5.909">
        <ele>2086.86</ele>
        <time>2020-07-01T08:31:01.000Z</time>
      </trkpt>
      <trkpt lat="45.12438" lon="5.90899">
        <ele>2085.9</ele>
        <time>2020-07-01T08:31:55.000Z</time>
      </trkpt>
      <trkpt lat="45.12439" lon="5.90899">
        <ele>2086.24</ele>
        <time>2020-07-01T08:34:04.000Z</time>
      </trkpt>
      <trkpt lat="45.1244" lon="5.90901">
        <ele>2085.48</ele>
        <time>2020-07-01T08:34:28.000Z</time>
      </trkpt>
      <trkpt lat="45.12451" lon="5.90914">
        <ele>2098.17</ele>
        <time>2020-07-01T08:34:38.000Z</time>
      </trkpt>
      <trkpt lat="45.1246" lon="5.90929">
        <ele>2095.21</ele>
        <time>2020-07-01T08:34:48.000Z</time>
      </trkpt>
      <trkpt lat="45.12473" lon="5.90926">
        <ele>2100.84</ele>
        <time>2020-07-01T08:34:58.000Z</time>
      </trkpt>
      <trkpt lat="45.12482" lon="5.90928">
        <ele>2104.66</ele>
        <time>2020-07-01T08:35:08.000Z</time>
      </trkpt>
      <trkpt lat="45.12486" lon="5.90922">
        <ele>2109.32</ele>
        <time>2020-07-01T08:35:18.000Z</time>
      </trkpt>
      <trkpt lat="45.1249" lon="5.90919">
        <ele>2112.34</ele>
        <time>2020-07-01T08:35:28.000Z</time>
      </trkpt>
      <trkpt lat="45.12494" lon="5.9092">
        <ele>2109.66</ele>
        <time>2020-07-01T08:35:38.000Z</time>
      </trkpt>
      <trkpt lat="45.12496" lon="5.90921">
        <ele>2115.17</ele>
        <time>2020-07-01T08:35:48.000Z</time>
      </trkpt>
      <trkpt lat="45.12493" lon="5.90925">
        <ele>2121.04</ele>
        <time>2020-07-01T08:35:58.000Z</time>
      </trkpt>
      <trkpt lat="45.125" lon="5.90935">
        <ele>2126.73</ele>
        <time>2020-07-01T08:36:08.000Z</time>
      </trkpt>
      <trkpt lat="45.12502" lon="5.90948">
        <ele>2130.58</ele>
        <time>2020-07-01T08:36:18.000Z</time>
      </trkpt>
      <trkpt lat="45.12504" lon="5.90955">
        <ele>2131.09</ele>
        <time>2020-07-01T08:36:28.000Z</time>
      </trkpt>
      <trkpt lat="45.12504" lon="5.90957">
        <ele>2132.16</ele>
        <time>2020-07-01T08:36:45.000Z</time>
      </trkpt>
      <trkpt lat="45.12513" lon="5.90968">
        <ele>2132.44</ele>
        <time>2020-07-01T08:36:55.000Z</time>
      </trkpt>
      <trkpt lat="45.12516" lon="5.90979">
        <ele>2131.08</ele>
        <time>2020-07-01T08:37:05.000Z</time>
      </trkpt>
      <trkpt lat="45.12519" lon="5.90988">
        <ele>2136.85</ele>
        <time>2020-07-01T08:37:15.000Z</time>
      </trkpt>
      <trkpt lat="45.12524" lon="5.91001">
        <ele>2136.67</ele>
        <time>2020-07-01T08:37:25.000Z</time>
      </trkpt>
      <trkpt lat="45.12532" lon="5.91007">
        <ele>2138.34</ele>
        <time>2020-07-01T08:37:35.000Z</time>
      </trkpt>
      <trkpt lat="45.1253" lon="5.91018">
        <ele>2136.33</ele>
        <time>2020-07-01T08:37:45.000Z</time>
      </trkpt>
      <trkpt lat="45.12527" lon="5.91033">
        <ele>2140.66</ele>
        <time>2020-07-01T08:37:55.000Z</time>
      </trkpt>
      <trkpt lat="45.12524" lon="5.91054">
        <ele>2147.22</ele>
        <time>2020-07-01T08:38:05.000Z</time>
      </trkpt>
      <trkpt lat="45.12525" lon="5.91063">
        <ele>2147.16</ele>
        <time>2020-07-01T08:38:15.000Z</time>
      </trkpt>
      <trkpt lat="45.12523" lon="5.91075">
        <ele>2148.61</ele>
        <time>2020-07-01T08:38:25.000Z</time>
      </trkpt>
      <trkpt lat="45.12513" lon="5.91097">
        <ele>2150.36</ele>
        <time>2020-07-01T08:38:35.000Z</time>
      </trkpt>
      <trkpt lat="45.12516" lon="5.91106">
        <ele>2152.6</ele>
        <time>2020-07-01T08:38:45.000Z</time>
      </trkpt>
      <trkpt lat="45.12515" lon="5.9112">
        <ele>2153.71</ele>
        <time>2020-07-01T08:38:55.000Z</time>
      </trkpt>
      <trkpt lat="45.12513" lon="5.91136">
        <ele>2155.62</ele>
        <time>2020-07-01T08:39:05.000Z</time>
      </trkpt>
      <trkpt lat="45.12513" lon="5.91143">
        <ele>2156.04</ele>
        <time>2020-07-01T08:39:15.000Z</time>
      </trkpt>
      <trkpt lat="45.12507" lon="5.91161">
        <ele>2157.57</ele>
        <time>2020-07-01T08:39:25.000Z</time>
      </trkpt>
      <trkpt lat="45.12504" lon="5.91172">
        <ele>2159.97</ele>
        <time>2020-07-01T08:39:35.000Z</time>
      </trkpt>
      <trkpt lat="45.12502" lon="5.91183">
        <ele>2164.22</ele>
        <time>2020-07-01T08:39:45.000Z</time>
      </trkpt>
      <trkpt lat="45.12501" lon="5.91188">
        <ele>2165.6</ele>
        <time>2020-07-01T08:39:55.000Z</time>
      </trkpt>
      <trkpt lat="45.12501" lon="5.91189">
        <ele>2166.28</ele>
        <time>2020-07-01T08:40:16.000Z</time>
      </trkpt>
      <trkpt lat="45.12499" lon="5.9119">
        <ele>2166.83</ele>
        <time>2020-07-01T08:40:59.000Z</time>
      </trkpt>
      <trkpt lat="45.12479" lon="5.912">
        <ele>2167.44</ele>
        <time>2020-07-01T08:41:09.000Z</time>
      </trkpt>
      <trkpt lat="45.12471" lon="5.91199">
        <ele>2161.95</ele>
        <time>2020-07-01T08:41:19.000Z</time>
      </trkpt>
      <trkpt lat="45.12459" lon="5.91213">
        <ele>2163.12</ele>
        <time>2020-07-01T08:41:29.000Z</time>
      </trkpt>
      <trkpt lat="45.1245" lon="5.91229">
        <ele>2167.72</ele>
        <time>2020-07-01T08:41:39.000Z</time>
      </trkpt>
      <trkpt lat="45.12443" lon="5.91239">
        <ele>2164.54</ele>
        <time>2020-07-01T08:41:49.000Z</time>
      </trkpt>
      <trkpt lat="45.12434" lon="5.91242">
        <ele>2171.1</ele>
        <time>2020-07-01T08:41:59.000Z</time>
      </trkpt>
      <trkpt lat="45.12429" lon="5.91253">
        <ele>2175.81</ele>
        <time>2020-07-01T08:42:09.000Z</time>
      </trkpt>
      <trkpt lat="45.12425" lon="5.9125">
        <ele>2171.97</ele>
        <time>2020-07-01T08:42:19.000Z</time>
      </trkpt>
      <trkpt lat="45.12423" lon="5.91251">
        <ele>2172.58</ele>
        <time>2020-07-01T08:42:29.000Z</time>
      </trkpt>
      <trkpt lat="45.12423" lon="5.91251">
        <ele>2172.14</ele>
        <time>2020-07-01T08:42:39.000Z</time>
      </trkpt>
      <trkpt lat="45.12422" lon="5.91253">
        <ele>2173.08</ele>
        <time>2020-07-01T08:42:51.000Z</time>
      </trkpt>
      <trkpt lat="45.12422" lon="5.91254">
        <ele>2173.78</ele>
        <time>2020-07-01T08:43:01.000Z</time>
      </trkpt>
      <trkpt lat="45.12416" lon="5.9125">
        <ele>2171.55</ele>
        <time>2020-07-01T08:43:11.000Z</time>
      </trkpt>
      <trkpt lat="45.1241" lon="5.91264">
        <ele>2178.21</ele>
        <time>2020-07-01T08:43:21.000Z</time>
      </trkpt>
      <trkpt lat="45.12414" lon="5.91266">
        <ele>2181.27</ele>
        <time>2020-07-01T08:43:31.000Z</time>
      </trkpt>
      <trkpt lat="45.1241" lon="5.91266">
        <ele>2181.73</ele>
        <time>2020-07-01T08:43:41.000Z</time>
      </trkpt>
      <trkpt lat="45.1241" lon="5.91267">
        <ele>2182.99</ele>
        <time>2020-07-01T08:43:58.000Z</time>
      </trkpt>
      <trkpt lat="45.12409" lon="5.91267">
        <ele>2183.2</ele>
        <time>2020-07-01T08:45:34.000Z</time>
      </trkpt>
      <trkpt lat="45.12399" lon="5.9127">
        <ele>2182.84</ele>
        <time>2020-07-01T08:45:44.000Z</time>
      </trkpt>
      <trkpt lat="45.12395" lon="5.91272">
        <ele>2186.78</ele>
        <time>2020-07-01T08:45:54.000Z</time>
      </trkpt>
      <trkpt lat="45.12394" lon="5.91273">
        <ele>2187.53</ele>
        <time>2020-07-01T08:46:08.000Z</time>
      </trkpt>
      <trkpt lat="45.1239" lon="5.91275">
        <ele>2187.92</ele>
        <time>2020-07-01T08:46:18.000Z</time>
      </trkpt>
      <trkpt lat="45.12382" lon="5.91282">
        <ele>2193.31</ele>
        <time>2020-07-01T08:46:28.000Z</time>
      </trkpt>
      <trkpt lat="45.12379" lon="5.91285">
        <ele>2194.18</ele>
        <time>2020-07-01T08:46:38.000Z</time>
      </trkpt>
      <trkpt lat="45.1238" lon="5.91286">
        <ele>2198.21</ele>
        <time>2020-07-01T08:46:48.000Z</time>
      </trkpt>
      <trkpt lat="45.12379" lon="5.91286">
        <ele>2199.38</ele>
        <time>2020-07-01T08:47:03.000Z</time>
      </trkpt>
      <trkpt lat="45.12368" lon="5.91295">
        <ele>2203.19</ele>
        <time>2020-07-01T08:47:13.000Z</time>
      </trkpt>
      <trkpt lat="45.12361" lon="5.91309">
        <ele>2206.17</ele>
        <time>2020-07-01T08:47:23.000Z</time>
      </trkpt>
      <trkpt lat="45.12359" lon="5.91312">
        <ele>2205.36</ele>
        <time>2020-07-01T08:47:33.000Z</time>
      </trkpt>
      <trkpt lat="45.12358" lon="5.91313">
        <ele>2205.45</ele>
        <time>2020-07-01T08:47:52.000Z</time>
      </trkpt>
      <trkpt lat="45.12356" lon="5.91336">
        <ele>2211.65</ele>
        <time>2020-07-01T08:48:02.000Z</time>
      </trkpt>
      <trkpt lat="45.12351" lon="5.91344">
        <ele>2208.6</ele>
        <time>2020-07-01T08:48:12.000Z</time>
      </trkpt>
      <trkpt lat="45.12349" lon="5.91353">
        <ele>2215.78</ele>
        <time>2020-07-01T08:48:22.000Z</time>
      </trkpt>
      <trkpt lat="45.12344" lon="5.9136">
        <ele>2217.23</ele>
        <time>2020-07-01T08:48:32.000Z</time>
      </trkpt>
      <trkpt lat="45.1234" lon="5.91357">
        <ele>2221.03</ele>
        <time>2020-07-01T08:48:42.000Z</time>
      </trkpt>
      <trkpt lat="45.1234" lon="5.91355">
        <ele>2222.41</ele>
        <time>2020-07-01T08:48:52.000Z</time>
      </trkpt>
      <trkpt lat="45.12339" lon="5.91356">
        <ele>2219.76</ele>
        <time>2020-07-01T08:49:02.000Z</time>
      </trkpt>
      <trkpt lat="45.12338" lon="5.91357">
        <ele>2220.58</ele>
        <time>2020-07-01T08:49:12.000Z</time>
      </trkpt>
      <trkpt lat="45.12337" lon="5.91357">
        <ele>2222.17</ele>
        <time>2020-07-01T08:49:31.000Z</time>
      </trkpt>
      <trkpt lat="45.12334" lon="5.91365">
        <ele>2225.37</ele>
        <time>2020-07-01T08:49:41.000Z</time>
      </trkpt>
      <trkpt lat="45.12334" lon="5.91367">
        <ele>2226.27</ele>
        <time>2020-07-01T08:49:51.000Z</time>
      </trkpt>
      <trkpt lat="45.12334" lon="5.91369">
        <ele>2227.29</ele>
        <time>2020-07-01T08:50:01.000Z</time>
      </trkpt>
      <trkpt lat="45.12334" lon="5.91371">
        <ele>2227.41</ele>
        <time>2020-07-01T08:50:19.000Z</time>
      </trkpt>
      <trkpt lat="45.12324" lon="5.91385">
        <ele>2231.57</ele>
        <time>2020-07-01T08:50:29.000Z</time>
      </trkpt>
      <trkpt lat="45.12315" lon="5.91389">
        <ele>2232.21</ele>
        <time>2020-07-01T08:50:39.000Z</time>
      </trkpt>
      <trkpt lat="45.12313" lon="5.91403">
        <ele>2240.32</ele>
        <time>2020-07-01T08:50:49.000Z</time>
      </trkpt>
      <trkpt lat="45.12308" lon="5.91409">
        <ele>2237.8</ele>
        <time>2020-07-01T08:50:59.000Z</time>
      </trkpt>
      <trkpt lat="45.12303" lon="5.91424">
        <ele>2239.99</ele>
        <time>2020-07-01T08:51:09.000Z</time>
      </trkpt>
      <trkpt lat="45.12296" lon="5.91436">
        <ele>2246.53</ele>
        <time>2020-07-01T08:51:19.000Z</time>
      </trkpt>
      <trkpt lat="45.1229" lon="5.91449">
        <ele>2250.35</ele>
        <time>2020-07-01T08:51:29.000Z</time>
      </trkpt>
      <trkpt lat="45.12287" lon="5.91454">
        <ele>2252.07</ele>
        <time>2020-07-01T08:51:39.000Z</time>
      </trkpt>
      <trkpt lat="45.12285" lon="5.91459">
        <ele>2250.07</ele>
        <time>2020-07-01T08:51:49.000Z</time>
      </trkpt>
      <trkpt lat="45.12284" lon="5.91461">
        <ele>2251.86</ele>
        <time>2020-07-01T08:51:59.000Z</time>
      </trkpt>
      <trkpt lat="45.12283" lon="5.91462">
        <ele>2252.01</ele>
        <time>2020-07-01T08:53:20.000Z</time>
      </trkpt>
      <trkpt lat="45.12281" lon="5.91464">
        <ele>2251.47</ele>
        <time>2020-07-01T08:53:30.000Z</time>
      </trkpt>
      <trkpt lat="45.12281" lon="5.91466">
        <ele>2252.95</ele>
        <time>2020-07-01T08:53:40.000Z</time>
      </trkpt>
      <trkpt lat="45.12284" lon="5.91466">
        <ele>2252.72</ele>
        <time>2020-07-01T08:53:50.000Z</time>
      </trkpt>
      <trkpt lat="45.12286" lon="5.91472">
        <ele>2252.16</ele>
        <time>2020-07-01T08:54:00.000Z</time>
      </trkpt>
      <trkpt lat="45.12285" lon="5.9147">
        <ele>2251.66</ele>
        <time>2020-07-01T08:54:10.000Z</time>
      </trkpt>
      <trkpt lat="45.12286" lon="5.9147">
        <ele>2251.59</ele>
        <time>2020-07-01T08:54:24.000Z</time>
      </trkpt>
      <trkpt lat="45.12287" lon="5.9147">
        <ele>2253.46</ele>
        <time>2020-07-01T08:54:34.000Z</time>
      </trkpt>
      <trkpt lat="45.12287" lon="5.91469">
        <ele>2253.17</ele>
        <time>2020-07-01T08:54:44.000Z</time>
      </trkpt>
      <trkpt lat="45.12286" lon="5.91468">
        <ele>2256.27</ele>
        <time>2020-07-01T08:56:25.000Z</time>
      </trkpt>
      <trkpt lat="45.12285" lon="5.91467">
        <ele>2254.75</ele>
        <time>2020-07-01T08:56:35.000Z</time>
      </trkpt>
      <trkpt lat="45.12285" lon="5.91466">
        <ele>2254.06</ele>
        <time>2020-07-01T08:56:55.000Z</time>
      </trkpt>
      <trkpt lat="45.12284" lon="5.91465">
        <ele>2253.04</ele>
        <time>2020-07-01T08:57:05.000Z</time>
      </trkpt>
      <trkpt lat="45.12286" lon="5.91463">
        <ele>2254.07</ele>
        <time>2020-07-01T09:00:57.000Z</time>
      </trkpt>
      <trkpt lat="45.12291" lon="5.91452">
        <ele>2253.73</ele>
        <time>2020-07-01T09:01:07.000Z</time>
      </trkpt>
      <trkpt lat="45.12295" lon="5.91442">
        <ele>2253.59</ele>
        <time>2020-07-01T09:01:17.000Z</time>
      </trkpt>
      <trkpt lat="45.12297" lon="5.91439">
        <ele>2253.01</ele>
        <time>2020-07-01T09:01:27.000Z</time>
      </trkpt>
      <trkpt lat="45.12295" lon="5.91435">
        <ele>2251.6</ele>
        <time>2020-07-01T09:01:37.000Z</time>
      </trkpt>
      <trkpt lat="45.12295" lon="5.91437">
        <ele>2250.81</ele>
        <time>2020-07-01T09:01:54.000Z</time>
      </trkpt>
      <trkpt lat="45.12295" lon="5.91439">
        <ele>2251.4</ele>
        <time>2020-07-01T09:02:04.000Z</time>
      </trkpt>
      <trkpt lat="45.12296" lon="5.91441">
        <ele>2249.54</ele>
        <time>2020-07-01T09:02:38.000Z</time>
      </trkpt>
      <trkpt lat="45.12297" lon="5.91441">
        <ele>2248</ele>
        <time>2020-07-01T09:02:48.000Z</time>
      </trkpt>
      <trkpt lat="45.12303" lon="5.91438">
        <ele>2250.23</ele>
        <time>2020-07-01T09:02:58.000Z</time>
      </trkpt>
      <trkpt lat="45.12308" lon="5.91427">
        <ele>2249.45</ele>
        <time>2020-07-01T09:03:08.000Z</time>
      </trkpt>
      <trkpt lat="45.12313" lon="5.91416">
        <ele>2246.29</ele>
        <time>2020-07-01T09:03:18.000Z</time>
      </trkpt>
      <trkpt lat="45.12317" lon="5.91406">
        <ele>2243.78</ele>
        <time>2020-07-01T09:03:28.000Z</time>
      </trkpt>
      <trkpt lat="45.12318" lon="5.91405">
        <ele>2245.84</ele>
        <time>2020-07-01T09:03:38.000Z</time>
      </trkpt>
      <trkpt lat="45.1232" lon="5.91397">
        <ele>2240.5</ele>
        <time>2020-07-01T09:03:48.000Z</time>
      </trkpt>
      <trkpt lat="45.12324" lon="5.91386">
        <ele>2235.08</ele>
        <time>2020-07-01T09:03:58.000Z</time>
      </trkpt>
      <trkpt lat="45.12329" lon="5.91375">
        <ele>2233.04</ele>
        <time>2020-07-01T09:04:08.000Z</time>
      </trkpt>
      <trkpt lat="45.12337" lon="5.91369">
        <ele>2228.97</ele>
        <time>2020-07-01T09:04:18.000Z</time>
      </trkpt>
      <trkpt lat="45.1234" lon="5.91361">
        <ele>2230.92</ele>
        <time>2020-07-01T09:04:28.000Z</time>
      </trkpt>
      <trkpt lat="45.12345" lon="5.91357">
        <ele>2228.92</ele>
        <time>2020-07-01T09:04:38.000Z</time>
      </trkpt>
      <trkpt lat="45.12347" lon="5.91356">
        <ele>2225.58</ele>
        <time>2020-07-01T09:04:48.000Z</time>
      </trkpt>
      <trkpt lat="45.12348" lon="5.91354">
        <ele>2229.32</ele>
        <time>2020-07-01T09:05:00.000Z</time>
      </trkpt>
      <trkpt lat="45.12353" lon="5.91347">
        <ele>2231.9</ele>
        <time>2020-07-01T09:05:10.000Z</time>
      </trkpt>
      <trkpt lat="45.12362" lon="5.91339">
        <ele>2235.6</ele>
        <time>2020-07-01T09:05:20.000Z</time>
      </trkpt>
      <trkpt lat="45.12366" lon="5.91328">
        <ele>2229.42</ele>
        <time>2020-07-01T09:05:30.000Z</time>
      </trkpt>
      <trkpt lat="45.12362" lon="5.91319">
        <ele>2217.96</ele>
        <time>2020-07-01T09:05:40.000Z</time>
      </trkpt>
      <trkpt lat="45.12365" lon="5.91303">
        <ele>2216.9</ele>
        <time>2020-07-01T09:05:50.000Z</time>
      </trkpt>
      <trkpt lat="45.12368" lon="5.91297">
        <ele>2211.9</ele>
        <time>2020-07-01T09:06:00.000Z</time>
      </trkpt>
      <trkpt lat="45.12374" lon="5.91294">
        <ele>2207.23</ele>
        <time>2020-07-01T09:06:10.000Z</time>
      </trkpt>
      <trkpt lat="45.1238" lon="5.91287">
        <ele>2208.97</ele>
        <time>2020-07-01T09:06:20.000Z</time>
      </trkpt>
      <trkpt lat="45.12386" lon="5.91288">
        <ele>2210.34</ele>
        <time>2020-07-01T09:06:30.000Z</time>
      </trkpt>
      <trkpt lat="45.12392" lon="5.9128">
        <ele>2208.59</ele>
        <time>2020-07-01T09:06:40.000Z</time>
      </trkpt>
      <trkpt lat="45.12397" lon="5.91275">
        <ele>2208.25</ele>
        <time>2020-07-01T09:06:50.000Z</time>
      </trkpt>
      <trkpt lat="45.12399" lon="5.91272">
        <ele>2206.11</ele>
        <time>2020-07-01T09:07:00.000Z</time>
      </trkpt>
      <trkpt lat="45.12406" lon="5.91274">
        <ele>2204.03</ele>
        <time>2020-07-01T09:07:10.000Z</time>
      </trkpt>
      <trkpt lat="45.12409" lon="5.91278">
        <ele>2206.03</ele>
        <time>2020-07-01T09:07:20.000Z</time>
      </trkpt>
      <trkpt lat="45.12406" lon="5.91272">
        <ele>2205.93</ele>
        <time>2020-07-01T09:07:30.000Z</time>
      </trkpt>
      <trkpt lat="45.12413" lon="5.91273">
        <ele>2205.46</ele>
        <time>2020-07-01T09:07:40.000Z</time>
      </trkpt>
      <trkpt lat="45.12417" lon="5.91269">
        <ele>2205.96</ele>
        <time>2020-07-01T09:07:50.000Z</time>
      </trkpt>
      <trkpt lat="45.12419" lon="5.91268">
        <ele>2204.17</ele>
        <time>2020-07-01T09:08:00.000Z</time>
      </trkpt>
      <trkpt lat="45.1242" lon="5.91268">
        <ele>2204.29</ele>
        <time>2020-07-01T09:08:12.000Z</time>
      </trkpt>
      <trkpt lat="45.12415" lon="5.91268">
        <ele>2201.54</ele>
        <time>2020-07-01T09:08:22.000Z</time>
      </trkpt>
      <trkpt lat="45.12414" lon="5.91268">
        <ele>2200.99</ele>
        <time>2020-07-01T09:08:32.000Z</time>
      </trkpt>
      <trkpt lat="45.12413" lon="5.91268">
        <ele>2200.07</ele>
        <time>2020-07-01T09:09:00.000Z</time>
      </trkpt>
      <trkpt lat="45.12413" lon="5.91266">
        <ele>2199.77</ele>
        <time>2020-07-01T09:10:33.000Z</time>
      </trkpt>
      <trkpt lat="45.12431" lon="5.91249">
        <ele>2192.66</ele>
        <time>2020-07-01T09:10:43.000Z</time>
      </trkpt>
      <trkpt lat="45.1244" lon="5.91232">
        <ele>2182.09</ele>
        <time>2020-07-01T09:10:53.000Z</time>
      </trkpt>
      <trkpt lat="45.12449" lon="5.91228">
        <ele>2177.2</ele>
        <time>2020-07-01T09:11:03.000Z</time>
      </trkpt>
      <trkpt lat="45.12459" lon="5.91227">
        <ele>2174.07</ele>
        <time>2020-07-01T09:11:13.000Z</time>
      </trkpt>
      <trkpt lat="45.12467" lon="5.91214">
        <ele>2175.1</ele>
        <time>2020-07-01T09:11:23.000Z</time>
      </trkpt>
      <trkpt lat="45.12476" lon="5.91208">
        <ele>2178.74</ele>
        <time>2020-07-01T09:11:33.000Z</time>
      </trkpt>
      <trkpt lat="45.12484" lon="5.91194">
        <ele>2181.3</ele>
        <time>2020-07-01T09:11:43.000Z</time>
      </trkpt>
      <trkpt lat="45.12498" lon="5.91187">
        <ele>2180.16</ele>
        <time>2020-07-01T09:11:53.000Z</time>
      </trkpt>
      <trkpt lat="45.12504" lon="5.91189">
        <ele>2178.95</ele>
        <time>2020-07-01T09:12:03.000Z</time>
      </trkpt>
      <trkpt lat="45.12503" lon="5.91189">
        <ele>2179.13</ele>
        <time>2020-07-01T09:12:19.000Z</time>
      </trkpt>
      <trkpt lat="45.12507" lon="5.91193">
        <ele>2180.8</ele>
        <time>2020-07-01T09:13:09.000Z</time>
      </trkpt>
      <trkpt lat="45.12528" lon="5.91217">
        <ele>2181.87</ele>
        <time>2020-07-01T09:13:19.000Z</time>
      </trkpt>
      <trkpt lat="45.12532" lon="5.91222">
        <ele>2175.09</ele>
        <time>2020-07-01T09:13:29.000Z</time>
      </trkpt>
      <trkpt lat="45.12533" lon="5.91223">
        <ele>2173.55</ele>
        <time>2020-07-01T09:13:40.000Z</time>
      </trkpt>
      <trkpt lat="45.12534" lon="5.91225">
        <ele>2173.57</ele>
        <time>2020-07-01T09:13:52.000Z</time>
      </trkpt>
      <trkpt lat="45.12551" lon="5.91246">
        <ele>2163.91</ele>
        <time>2020-07-01T09:14:02.000Z</time>
      </trkpt>
      <trkpt lat="45.12556" lon="5.91276">
        <ele>2161.53</ele>
        <time>2020-07-01T09:14:12.000Z</time>
      </trkpt>
      <trkpt lat="45.1257" lon="5.91295">
        <ele>2158.86</ele>
        <time>2020-07-01T09:14:22.000Z</time>
      </trkpt>
      <trkpt lat="45.12575" lon="5.91298">
        <ele>2153.84</ele>
        <time>2020-07-01T09:14:32.000Z</time>
      </trkpt>
      <trkpt lat="45.12577" lon="5.91301">
        <ele>2153.64</ele>
        <time>2020-07-01T09:14:42.000Z</time>
      </trkpt>
      <trkpt lat="45.12593" lon="5.91315">
        <ele>2155.8</ele>
        <time>2020-07-01T09:14:52.000Z</time>
      </trkpt>
      <trkpt lat="45.12626" lon="5.9133">
        <ele>2158.53</ele>
        <time>2020-07-01T09:15:02.000Z</time>
      </trkpt>
      <trkpt lat="45.12626" lon="5.91352">
        <ele>2151.77</ele>
        <time>2020-07-01T09:15:12.000Z</time>
      </trkpt>
      <trkpt lat="45.12631" lon="5.91378">
        <ele>2148.44</ele>
        <time>2020-07-01T09:15:22.000Z</time>
      </trkpt>
      <trkpt lat="45.12632" lon="5.91387">
        <ele>2140.24</ele>
        <time>2020-07-01T09:15:32.000Z</time>
      </trkpt>
      <trkpt lat="45.1264" lon="5.91399">
        <ele>2141.81</ele>
        <time>2020-07-01T09:15:42.000Z</time>
      </trkpt>
      <trkpt lat="45.12649" lon="5.91414">
        <ele>2142.32</ele>
        <time>2020-07-01T09:15:52.000Z</time>
      </trkpt>
      <trkpt lat="45.1266" lon="5.91423">
        <ele>2136.06</ele>
        <time>2020-07-01T09:16:02.000Z</time>
      </trkpt>
      <trkpt lat="45.12671" lon="5.91436">
        <ele>2134.15</ele>
        <time>2020-07-01T09:16:12.000Z</time>
      </trkpt>
      <trkpt lat="45.12684" lon="5.91434">
        <ele>2132.52</ele>
        <time>2020-07-01T09:16:22.000Z</time>
      </trkpt>
      <trkpt lat="45.12672" lon="5.91466">
        <ele>2135.22</ele>
        <time>2020-07-01T09:16:32.000Z</time>
      </trkpt>
      <trkpt lat="45.1267" lon="5.91487">
        <ele>2136.69</ele>
        <time>2020-07-01T09:16:42.000Z</time>
      </trkpt>
      <trkpt lat="45.12667" lon="5.91503">
        <ele>2138.07</ele>
        <time>2020-07-01T09:16:52.000Z</time>
      </trkpt>
      <trkpt lat="45.12671" lon="5.91527">
        <ele>2134.53</ele>
        <time>2020-07-01T09:17:02.000Z</time>
      </trkpt>
      <trkpt lat="45.12675" lon="5.91541">
        <ele>2139.57</ele>
        <time>2020-07-01T09:17:12.000Z</time>
      </trkpt>
      <trkpt lat="45.12678" lon="5.91551">
        <ele>2139.63</ele>
        <time>2020-07-01T09:17:22.000Z</time>
      </trkpt>
      <trkpt lat="45.1268" lon="5.91567">
        <ele>2143.61</ele>
        <time>2020-07-01T09:17:32.000Z</time>
      </trkpt>
      <trkpt lat="45.12683" lon="5.91575">
        <ele>2148.03</ele>
        <time>2020-07-01T09:17:42.000Z</time>
      </trkpt>
      <trkpt lat="45.12685" lon="5.91591">
        <ele>2148.3</ele>
        <time>2020-07-01T09:17:52.000Z</time>
      </trkpt>
      <trkpt lat="45.12691" lon="5.91603">
        <ele>2144.8</ele>
        <time>2020-07-01T09:18:02.000Z</time>
      </trkpt>
      <trkpt lat="45.12697" lon="5.91612">
        <ele>2143.3</ele>
        <time>2020-07-01T09:18:12.000Z</time>
      </trkpt>
      <trkpt lat="45.127" lon="5.91625">
        <ele>2141.03</ele>
        <time>2020-07-01T09:18:22.000Z</time>
      </trkpt>
      <trkpt lat="45.12701" lon="5.91644">
        <ele>2142.88</ele>
        <time>2020-07-01T09:18:32.000Z</time>
      </trkpt>
      <trkpt lat="45.12708" lon="5.91664">
        <ele>2141.17</ele>
        <time>2020-07-01T09:18:42.000Z</time>
      </trkpt>
      <trkpt lat="45.1271" lon="5.91678">
        <ele>2149.99</ele>
        <time>2020-07-01T09:18:52.000Z</time>
      </trkpt>
      <trkpt lat="45.1271" lon="5.91691">
        <ele>2149.54</ele>
        <time>2020-07-01T09:19:02.000Z</time>
      </trkpt>
      <trkpt lat="45.12718" lon="5.91705">
        <ele>2154.55</ele>
        <time>2020-07-01T09:19:12.000Z</time>
      </trkpt>
      <trkpt lat="45.12719" lon="5.91728">
        <ele>2153.93</ele>
        <time>2020-07-01T09:19:22.000Z</time>
      </trkpt>
      <trkpt lat="45.12735" lon="5.91746">
        <ele>2144.13</ele>
        <time>2020-07-01T09:19:32.000Z</time>
      </trkpt>
      <trkpt lat="45.12749" lon="5.91749">
        <ele>2129.05</ele>
        <time>2020-07-01T09:19:42.000Z</time>
      </trkpt>
      <trkpt lat="45.12754" lon="5.91755">
        <ele>2128.86</ele>
        <time>2020-07-01T09:19:52.000Z</time>
      </trkpt>
      <trkpt lat="45.12755" lon="5.91768">
        <ele>2133.94</ele>
        <time>2020-07-01T09:20:02.000Z</time>
      </trkpt>
      <trkpt lat="45.1276" lon="5.91787">
        <ele>2140.25</ele>
        <time>2020-07-01T09:20:12.000Z</time>
      </trkpt>
      <trkpt lat="45.12764" lon="5.91809">
        <ele>2139.37</ele>
        <time>2020-07-01T09:20:22.000Z</time>
      </trkpt>
      <trkpt lat="45.1277" lon="5.9182">
        <ele>2138.32</ele>
        <time>2020-07-01T09:20:32.000Z</time>
      </trkpt>
      <trkpt lat="45.12772" lon="5.91835">
        <ele>2136.97</ele>
        <time>2020-07-01T09:20:42.000Z</time>
      </trkpt>
      <trkpt lat="45.12785" lon="5.91844">
        <ele>2138.1</ele>
        <time>2020-07-01T09:20:52.000Z</time>
      </trkpt>
      <trkpt lat="45.12779" lon="5.91844">
        <ele>2125.79</ele>
        <time>2020-07-01T09:21:02.000Z</time>
      </trkpt>
      <trkpt lat="45.12787" lon="5.91852">
        <ele>2130.67</ele>
        <time>2020-07-01T09:21:12.000Z</time>
      </trkpt>
      <trkpt lat="45.1279" lon="5.91867">
        <ele>2135.05</ele>
        <time>2020-07-01T09:21:22.000Z</time>
      </trkpt>
      <trkpt lat="45.12802" lon="5.91871">
        <ele>2137.46</ele>
        <time>2020-07-01T09:21:32.000Z</time>
      </trkpt>
      <trkpt lat="45.12816" lon="5.91877">
        <ele>2133.5</ele>
        <time>2020-07-01T09:21:42.000Z</time>
      </trkpt>
      <trkpt lat="45.12827" lon="5.91883">
        <ele>2133.07</ele>
        <time>2020-07-01T09:21:52.000Z</time>
      </trkpt>
      <trkpt lat="45.12832" lon="5.91918">
        <ele>2121.71</ele>
        <time>2020-07-01T09:22:02.000Z</time>
      </trkpt>
      <trkpt lat="45.12842" lon="5.91936">
        <ele>2118.52</ele>
        <time>2020-07-01T09:22:12.000Z</time>
      </trkpt>
      <trkpt lat="45.12848" lon="5.91948">
        <ele>2116.5</ele>
        <time>2020-07-01T09:22:22.000Z</time>
      </trkpt>
      <trkpt lat="45.12861" lon="5.91964">
        <ele>2112.91</ele>
        <time>2020-07-01T09:22:32.000Z</time>
      </trkpt>
      <trkpt lat="45.1286" lon="5.91963">
        <ele>2112.28</ele>
        <time>2020-07-01T09:22:45.000Z</time>
      </trkpt>
      <trkpt lat="45.12862" lon="5.91963">
        <ele>2112.32</ele>
        <time>2020-07-01T09:23:22.000Z</time>
      </trkpt>
      <trkpt lat="45.12871" lon="5.91953">
        <ele>2109.64</ele>
        <time>2020-07-01T09:23:32.000Z</time>
      </trkpt>
      <trkpt lat="45.12872" lon="5.91953">
        <ele>2108.63</ele>
        <time>2020-07-01T09:23:42.000Z</time>
      </trkpt>
      <trkpt lat="45.12873" lon="5.91952">
        <ele>2107.91</ele>
        <time>2020-07-01T09:24:30.000Z</time>
      </trkpt>
      <trkpt lat="45.1288" lon="5.91935">
        <ele>2100.55</ele>
        <time>2020-07-01T09:24:40.000Z</time>
      </trkpt>
      <trkpt lat="45.12882" lon="5.91937">
        <ele>2102.58</ele>
        <time>2020-07-01T09:24:50.000Z</time>
      </trkpt>
      <trkpt lat="45.12891" lon="5.91941">
        <ele>2102.09</ele>
        <time>2020-07-01T09:25:00.000Z</time>
      </trkpt>
      <trkpt lat="45.12895" lon="5.91938">
        <ele>2100.75</ele>
        <time>2020-07-01T09:25:10.000Z</time>
      </trkpt>
      <trkpt lat="45.12895" lon="5.91939">
        <ele>2099.42</ele>
        <time>2020-07-01T09:25:31.000Z</time>
      </trkpt>
      <trkpt lat="45.12897" lon="5.91942">
        <ele>2100.34</ele>
        <time>2020-07-01T09:25:41.000Z</time>
      </trkpt>
      <trkpt lat="45.12897" lon="5.91944">
        <ele>2094.21</ele>
        <time>2020-07-01T09:27:32.000Z</time>
      </trkpt>
      <trkpt lat="45.12897" lon="5.91945">
        <ele>2092.05</ele>
        <time>2020-07-01T09:28:45.000Z</time>
      </trkpt>
      <trkpt lat="45.12898" lon="5.91944">
        <ele>2090.33</ele>
        <time>2020-07-01T09:29:37.000Z</time>
      </trkpt>
      <trkpt lat="45.12906" lon="5.91929">
        <ele>2083.03</ele>
        <time>2020-07-01T09:29:47.000Z</time>
      </trkpt>
      <trkpt lat="45.12911" lon="5.91909">
        <ele>2075.37</ele>
        <time>2020-07-01T09:29:57.000Z</time>
      </trkpt>
      <trkpt lat="45.12915" lon="5.91892">
        <ele>2069.6</ele>
        <time>2020-07-01T09:30:07.000Z</time>
      </trkpt>
      <trkpt lat="45.12919" lon="5.91883">
        <ele>2063.95</ele>
        <time>2020-07-01T09:30:17.000Z</time>
      </trkpt>
      <trkpt lat="45.1292" lon="5.91869">
        <ele>2059.67</ele>
        <time>2020-07-01T09:30:27.000Z</time>
      </trkpt>
      <trkpt lat="45.12924" lon="5.91851">
        <ele>2060.3</ele>
        <time>2020-07-01T09:30:37.000Z</time>
      </trkpt>
      <trkpt lat="45.12926" lon="5.91834">
        <ele>2060.82</ele>
        <time>2020-07-01T09:30:47.000Z</time>
      </trkpt>
      <trkpt lat="45.12927" lon="5.91827">
        <ele>2053.23</ele>
        <time>2020-07-01T09:30:57.000Z</time>
      </trkpt>
      <trkpt lat="45.12936" lon="5.91812">
        <ele>2046.33</ele>
        <time>2020-07-01T09:31:07.000Z</time>
      </trkpt>
      <trkpt lat="45.12945" lon="5.91801">
        <ele>2046.19</ele>
        <time>2020-07-01T09:31:17.000Z</time>
      </trkpt>
      <trkpt lat="45.12949" lon="5.91785">
        <ele>2033.5</ele>
        <time>2020-07-01T09:31:27.000Z</time>
      </trkpt>
      <trkpt lat="45.12957" lon="5.91771">
        <ele>2031.69</ele>
        <time>2020-07-01T09:31:37.000Z</time>
      </trkpt>
      <trkpt lat="45.12959" lon="5.91759">
        <ele>2029.19</ele>
        <time>2020-07-01T09:31:47.000Z</time>
      </trkpt>
      <trkpt lat="45.12967" lon="5.91748">
        <ele>2024.06</ele>
        <time>2020-07-01T09:31:57.000Z</time>
      </trkpt>
      <trkpt lat="45.12976" lon="5.91734">
        <ele>2022.73</ele>
        <time>2020-07-01T09:32:07.000Z</time>
      </trkpt>
      <trkpt lat="45.12983" lon="5.91717">
        <ele>2017.77</ele>
        <time>2020-07-01T09:32:17.000Z</time>
      </trkpt>
      <trkpt lat="45.1299" lon="5.91709">
        <ele>2011.41</ele>
        <time>2020-07-01T09:32:27.000Z</time>
      </trkpt>
      <trkpt lat="45.12992" lon="5.91703">
        <ele>2013.06</ele>
        <time>2020-07-01T09:32:37.000Z</time>
      </trkpt>
      <trkpt lat="45.12993" lon="5.91701">
        <ele>2010.6</ele>
        <time>2020-07-01T09:32:50.000Z</time>
      </trkpt>
      <trkpt lat="45.13003" lon="5.91691">
        <ele>2013.13</ele>
        <time>2020-07-01T09:33:00.000Z</time>
      </trkpt>
      <trkpt lat="45.13016" lon="5.91677">
        <ele>2012.87</ele>
        <time>2020-07-01T09:33:10.000Z</time>
      </trkpt>
      <trkpt lat="45.13026" lon="5.91667">
        <ele>2009.35</ele>
        <time>2020-07-01T09:33:20.000Z</time>
      </trkpt>
      <trkpt lat="45.13032" lon="5.91655">
        <ele>2009.19</ele>
        <time>2020-07-01T09:33:30.000Z</time>
      </trkpt>
      <trkpt lat="45.13041" lon="5.91649">
        <ele>2007.97</ele>
        <time>2020-07-01T09:33:40.000Z</time>
      </trkpt>
      <trkpt lat="45.13046" lon="5.91638">
        <ele>2005.66</ele>
        <time>2020-07-01T09:33:50.000Z</time>
      </trkpt>
      <trkpt lat="45.13052" lon="5.91618">
        <ele>2008.89</ele>
        <time>2020-07-01T09:34:00.000Z</time>
      </trkpt>
      <trkpt lat="45.13056" lon="5.91611">
        <ele>2001.01</ele>
        <time>2020-07-01T09:34:10.000Z</time>
      </trkpt>
      <trkpt lat="45.13055" lon="5.91608">
        <ele>2002.5</ele>
        <time>2020-07-01T09:34:20.000Z</time>
      </trkpt>
      <trkpt lat="45.13054" lon="5.91605">
        <ele>2005.72</ele>
        <time>2020-07-01T09:34:30.000Z</time>
      </trkpt>
      <trkpt lat="45.13054" lon="5.91599">
        <ele>2005.4</ele>
        <time>2020-07-01T09:34:40.000Z</time>
      </trkpt>
      <trkpt lat="45.1305" lon="5.91587">
        <ele>2006.88</ele>
        <time>2020-07-01T09:34:50.000Z</time>
      </trkpt>
      <trkpt lat="45.13047" lon="5.9157">
        <ele>2008.85</ele>
        <time>2020-07-01T09:35:00.000Z</time>
      </trkpt>
      <trkpt lat="45.13046" lon="5.91562">
        <ele>2005.06</ele>
        <time>2020-07-01T09:35:10.000Z</time>
      </trkpt>
      <trkpt lat="45.13049" lon="5.91551">
        <ele>2002.46</ele>
        <time>2020-07-01T09:35:20.000Z</time>
      </trkpt>
      <trkpt lat="45.13048" lon="5.91534">
        <ele>2003.51</ele>
        <time>2020-07-01T09:35:30.000Z</time>
      </trkpt>
      <trkpt lat="45.13049" lon="5.91532">
        <ele>2005.51</ele>
        <time>2020-07-01T09:35:40.000Z</time>
      </trkpt>
      <trkpt lat="45.13045" lon="5.91527">
        <ele>2003.39</ele>
        <time>2020-07-01T09:35:50.000Z</time>
      </trkpt>
      <trkpt lat="45.13043" lon="5.91513">
        <ele>2012.39</ele>
        <time>2020-07-01T09:36:00.000Z</time>
      </trkpt>
      <trkpt lat="45.13043" lon="5.91505">
        <ele>2011.58</ele>
        <time>2020-07-01T09:36:10.000Z</time>
      </trkpt>
      <trkpt lat="45.13041" lon="5.91498">
        <ele>2010.01</ele>
        <time>2020-07-01T09:36:20.000Z</time>
      </trkpt>
      <trkpt lat="45.13041" lon="5.91488">
        <ele>2011.86</ele>
        <time>2020-07-01T09:36:30.000Z</time>
      </trkpt>
      <trkpt lat="45.13041" lon="5.91487">
        <ele>2012.09</ele>
        <time>2020-07-01T09:36:40.000Z</time>
      </trkpt>
      <trkpt lat="45.13041" lon="5.91484">
        <ele>2011.34</ele>
        <time>2020-07-01T09:39:16.000Z</time>
      </trkpt>
      <trkpt lat="45.13039" lon="5.91463">
        <ele>2009.59</ele>
        <time>2020-07-01T09:39:26.000Z</time>
      </trkpt>
      <trkpt lat="45.1304" lon="5.91447">
        <ele>2003.57</ele>
        <time>2020-07-01T09:39:36.000Z</time>
      </trkpt>
      <trkpt lat="45.1304" lon="5.91434">
        <ele>2003.53</ele>
        <time>2020-07-01T09:39:46.000Z</time>
      </trkpt>
      <trkpt lat="45.13039" lon="5.91421">
        <ele>2001.21</ele>
        <time>2020-07-01T09:39:56.000Z</time>
      </trkpt>
      <trkpt lat="45.13038" lon="5.91408">
        <ele>1994.36</ele>
        <time>2020-07-01T09:40:06.000Z</time>
      </trkpt>
      <trkpt lat="45.13038" lon="5.91397">
        <ele>1994.63</ele>
        <time>2020-07-01T09:40:16.000Z</time>
      </trkpt>
      <trkpt lat="45.13042" lon="5.91383">
        <ele>1997.69</ele>
        <time>2020-07-01T09:40:26.000Z</time>
      </trkpt>
      <trkpt lat="45.13039" lon="5.91366">
        <ele>1994.76</ele>
        <time>2020-07-01T09:40:36.000Z</time>
      </trkpt>
      <trkpt lat="45.13036" lon="5.91349">
        <ele>1989.48</ele>
        <time>2020-07-01T09:40:46.000Z</time>
      </trkpt>
      <trkpt lat="45.13038" lon="5.91334">
        <ele>1989.52</ele>
        <time>2020-07-01T09:40:56.000Z</time>
      </trkpt>
      <trkpt lat="45.13042" lon="5.91316">
        <ele>1994.6</ele>
        <time>2020-07-01T09:41:06.000Z</time>
      </trkpt>
      <trkpt lat="45.13046" lon="5.91299">
        <ele>1996.26</ele>
        <time>2020-07-01T09:41:16.000Z</time>
      </trkpt>
      <trkpt lat="45.13051" lon="5.91285">
        <ele>1996.35</ele>
        <time>2020-07-01T09:41:26.000Z</time>
      </trkpt>
      <trkpt lat="45.13051" lon="5.91266">
        <ele>1994.47</ele>
        <time>2020-07-01T09:41:36.000Z</time>
      </trkpt>
      <trkpt lat="45.13055" lon="5.91255">
        <ele>1998.44</ele>
        <time>2020-07-01T09:41:46.000Z</time>
      </trkpt>
      <trkpt lat="45.13062" lon="5.9124">
        <ele>1993.56</ele>
        <time>2020-07-01T09:41:56.000Z</time>
      </trkpt>
      <trkpt lat="45.1307" lon="5.91233">
        <ele>1998.11</ele>
        <time>2020-07-01T09:42:06.000Z</time>
      </trkpt>
      <trkpt lat="45.13077" lon="5.91224">
        <ele>1995.97</ele>
        <time>2020-07-01T09:42:16.000Z</time>
      </trkpt>
      <trkpt lat="45.13084" lon="5.91215">
        <ele>2000.96</ele>
        <time>2020-07-01T09:42:26.000Z</time>
      </trkpt>
      <trkpt lat="45.13094" lon="5.91209">
        <ele>2002.51</ele>
        <time>2020-07-01T09:42:36.000Z</time>
      </trkpt>
      <trkpt lat="45.131" lon="5.91202">
        <ele>2003.01</ele>
        <time>2020-07-01T09:42:46.000Z</time>
      </trkpt>
      <trkpt lat="45.13104" lon="5.91199">
        <ele>2002.73</ele>
        <time>2020-07-01T09:42:56.000Z</time>
      </trkpt>
      <trkpt lat="45.13114" lon="5.91197">
        <ele>2001.58</ele>
        <time>2020-07-01T09:43:06.000Z</time>
      </trkpt>
      <trkpt lat="45.13127" lon="5.91199">
        <ele>2001.59</ele>
        <time>2020-07-01T09:43:16.000Z</time>
      </trkpt>
      <trkpt lat="45.13139" lon="5.91192">
        <ele>2000.59</ele>
        <time>2020-07-01T09:43:26.000Z</time>
      </trkpt>
      <trkpt lat="45.13145" lon="5.91184">
        <ele>2003.48</ele>
        <time>2020-07-01T09:43:36.000Z</time>
      </trkpt>
      <trkpt lat="45.1315" lon="5.9118">
        <ele>2007.41</ele>
        <time>2020-07-01T09:43:46.000Z</time>
      </trkpt>
      <trkpt lat="45.13158" lon="5.91172">
        <ele>2010.5</ele>
        <time>2020-07-01T09:43:56.000Z</time>
      </trkpt>
      <trkpt lat="45.13163" lon="5.91186">
        <ele>2007.93</ele>
        <time>2020-07-01T09:44:06.000Z</time>
      </trkpt>
      <trkpt lat="45.1315" lon="5.91185">
        <ele>2003.02</ele>
        <time>2020-07-01T09:44:16.000Z</time>
      </trkpt>
      <trkpt lat="45.13149" lon="5.91184">
        <ele>2000.26</ele>
        <time>2020-07-01T09:44:26.000Z</time>
      </trkpt>
      <trkpt lat="45.13153" lon="5.91174">
        <ele>1995.75</ele>
        <time>2020-07-01T09:44:36.000Z</time>
      </trkpt>
      <trkpt lat="45.13163" lon="5.91159">
        <ele>1999.51</ele>
        <time>2020-07-01T09:44:46.000Z</time>
      </trkpt>
      <trkpt lat="45.13171" lon="5.91149">
        <ele>2002.11</ele>
        <time>2020-07-01T09:44:56.000Z</time>
      </trkpt>
      <trkpt lat="45.13176" lon="5.91138">
        <ele>2005.24</ele>
        <time>2020-07-01T09:45:06.000Z</time>
      </trkpt>
      <trkpt lat="45.1318" lon="5.91127">
        <ele>2006.09</ele>
        <time>2020-07-01T09:45:16.000Z</time>
      </trkpt>
      <trkpt lat="45.13183" lon="5.91121">
        <ele>2008.49</ele>
        <time>2020-07-01T09:45:26.000Z</time>
      </trkpt>
      <trkpt lat="45.13187" lon="5.91111">
        <ele>2011.09</ele>
        <time>2020-07-01T09:45:36.000Z</time>
      </trkpt>
      <trkpt lat="45.13192" lon="5.91102">
        <ele>2013.02</ele>
        <time>2020-07-01T09:45:46.000Z</time>
      </trkpt>
      <trkpt lat="45.13192" lon="5.91091">
        <ele>2011.08</ele>
        <time>2020-07-01T09:45:56.000Z</time>
      </trkpt>
      <trkpt lat="45.13192" lon="5.91079">
        <ele>2010.5</ele>
        <time>2020-07-01T09:46:06.000Z</time>
      </trkpt>
      <trkpt lat="45.1319" lon="5.91077">
        <ele>2005.86</ele>
        <time>2020-07-01T09:46:16.000Z</time>
      </trkpt>
      <trkpt lat="45.13192" lon="5.91071">
        <ele>2002.18</ele>
        <time>2020-07-01T09:46:26.000Z</time>
      </trkpt>
      <trkpt lat="45.13189" lon="5.91061">
        <ele>2007.26</ele>
        <time>2020-07-01T09:46:36.000Z</time>
      </trkpt>
      <trkpt lat="45.13189" lon="5.91055">
        <ele>2008.93</ele>
        <time>2020-07-01T09:46:46.000Z</time>
      </trkpt>
      <trkpt lat="45.1319" lon="5.91041">
        <ele>2006.06</ele>
        <time>2020-07-01T09:46:56.000Z</time>
      </trkpt>
      <trkpt lat="45.13186" lon="5.91033">
        <ele>2017.48</ele>
        <time>2020-07-01T09:47:06.000Z</time>
      </trkpt>
      <trkpt lat="45.13183" lon="5.91025">
        <ele>2018.62</ele>
        <time>2020-07-01T09:47:16.000Z</time>
      </trkpt>
      <trkpt lat="45.13183" lon="5.91024">
        <ele>2020.08</ele>
        <time>2020-07-01T09:47:26.000Z</time>
      </trkpt>
      <trkpt lat="45.13183" lon="5.91022">
        <ele>2021.81</ele>
        <time>2020-07-01T09:47:39.000Z</time>
      </trkpt>
      <trkpt lat="45.13183" lon="5.91021">
        <ele>2021.48</ele>
        <time>2020-07-01T09:47:55.000Z</time>
      </trkpt>
      <trkpt lat="45.13185" lon="5.91007">
        <ele>2022.68</ele>
        <time>2020-07-01T09:48:05.000Z</time>
      </trkpt>
      <trkpt lat="45.13185" lon="5.90994">
        <ele>2020.61</ele>
        <time>2020-07-01T09:48:15.000Z</time>
      </trkpt>
      <trkpt lat="45.13184" lon="5.90984">
        <ele>2027.9</ele>
        <time>2020-07-01T09:48:25.000Z</time>
      </trkpt>
      <trkpt lat="45.13184" lon="5.9097">
        <ele>2032.43</ele>
        <time>2020-07-01T09:48:35.000Z</time>
      </trkpt>
      <trkpt lat="45.13185" lon="5.90967">
        <ele>2034.06</ele>
        <time>2020-07-01T09:48:45.000Z</time>
      </trkpt>
      <trkpt lat="45.13183" lon="5.90962">
        <ele>2031.95</ele>
        <time>2020-07-01T09:48:55.000Z</time>
      </trkpt>
      <trkpt lat="45.13185" lon="5.90951">
        <ele>2032.45</ele>
        <time>2020-07-01T09:49:05.000Z</time>
      </trkpt>
      <trkpt lat="45.132" lon="5.90944">
        <ele>2033.43</ele>
        <time>2020-07-01T09:49:15.000Z</time>
      </trkpt>
      <trkpt lat="45.13198" lon="5.90942">
        <ele>2036.17</ele>
        <time>2020-07-01T09:49:25.000Z</time>
      </trkpt>
      <trkpt lat="45.13196" lon="5.90936">
        <ele>2036.37</ele>
        <time>2020-07-01T09:49:35.000Z</time>
      </trkpt>
      <trkpt lat="45.13195" lon="5.90936">
        <ele>2036.38</ele>
        <time>2020-07-01T09:49:45.000Z</time>
      </trkpt>
      <trkpt lat="45.13194" lon="5.90937">
        <ele>2036.05</ele>
        <time>2020-07-01T09:50:05.000Z</time>
      </trkpt>
      <trkpt lat="45.13193" lon="5.90937">
        <ele>2033.42</ele>
        <time>2020-07-01T09:51:22.000Z</time>
      </trkpt>
      <trkpt lat="45.1319" lon="5.90937">
        <ele>2033.54</ele>
        <time>2020-07-01T09:51:32.000Z</time>
      </trkpt>
      <trkpt lat="45.13189" lon="5.90939">
        <ele>2024.69</ele>
        <time>2020-07-01T09:58:54.000Z</time>
      </trkpt>
      <trkpt lat="45.13187" lon="5.9094">
        <ele>2024.64</ele>
        <time>2020-07-01T09:59:04.000Z</time>
      </trkpt>
      <trkpt lat="45.13188" lon="5.90939">
        <ele>2024.89</ele>
        <time>2020-07-01T10:00:26.000Z</time>
      </trkpt>
      <trkpt lat="45.13189" lon="5.90939">
        <ele>2030.89</ele>
        <time>2020-07-01T10:00:36.000Z</time>
      </trkpt>
      <trkpt lat="45.13188" lon="5.90938">
        <ele>2035.5</ele>
        <time>2020-07-01T10:00:46.000Z</time>
      </trkpt>
      <trkpt lat="45.13186" lon="5.90932">
        <ele>2035.62</ele>
        <time>2020-07-01T10:00:56.000Z</time>
      </trkpt>
      <trkpt lat="45.13188" lon="5.90921">
        <ele>2032.39</ele>
        <time>2020-07-01T10:01:06.000Z</time>
      </trkpt>
      <trkpt lat="45.13188" lon="5.90912">
        <ele>2032.5</ele>
        <time>2020-07-01T10:01:16.000Z</time>
      </trkpt>
      <trkpt lat="45.13186" lon="5.90905">
        <ele>2032.92</ele>
        <time>2020-07-01T10:01:26.000Z</time>
      </trkpt>
      <trkpt lat="45.13184" lon="5.9089">
        <ele>2033.3</ele>
        <time>2020-07-01T10:01:36.000Z</time>
      </trkpt>
      <trkpt lat="45.13189" lon="5.90887">
        <ele>2027.71</ele>
        <time>2020-07-01T10:01:46.000Z</time>
      </trkpt>
      <trkpt lat="45.1319" lon="5.90882">
        <ele>2025.23</ele>
        <time>2020-07-01T10:01:56.000Z</time>
      </trkpt>
      <trkpt lat="45.13192" lon="5.90878">
        <ele>2025.68</ele>
        <time>2020-07-01T10:02:06.000Z</time>
      </trkpt>
      <trkpt lat="45.13191" lon="5.90877">
        <ele>2022.94</ele>
        <time>2020-07-01T10:02:16.000Z</time>
      </trkpt>
      <trkpt lat="45.1319" lon="5.90878">
        <ele>2019.61</ele>
        <time>2020-07-01T10:02:27.000Z</time>
      </trkpt>
      <trkpt lat="45.13192" lon="5.90876">
        <ele>2019.88</ele>
        <time>2020-07-01T10:02:37.000Z</time>
      </trkpt>
      <trkpt lat="45.13194" lon="5.90873">
        <ele>2019.37</ele>
        <time>2020-07-01T10:02:47.000Z</time>
      </trkpt>
      <trkpt lat="45.13193" lon="5.90872">
        <ele>2018.89</ele>
        <time>2020-07-01T10:03:10.000Z</time>
      </trkpt>
      <trkpt lat="45.13191" lon="5.90866">
        <ele>2020.1</ele>
        <time>2020-07-01T10:03:20.000Z</time>
      </trkpt>
      <trkpt lat="45.13191" lon="5.90854">
        <ele>2025.41</ele>
        <time>2020-07-01T10:03:30.000Z</time>
      </trkpt>
      <trkpt lat="45.13191" lon="5.90852">
        <ele>2023.81</ele>
        <time>2020-07-01T10:03:44.000Z</time>
      </trkpt>
      <trkpt lat="45.13191" lon="5.90847">
        <ele>2025.87</ele>
        <time>2020-07-01T10:03:54.000Z</time>
      </trkpt>
      <trkpt lat="45.1319" lon="5.90841">
        <ele>2027.06</ele>
        <time>2020-07-01T10:04:04.000Z</time>
      </trkpt>
      <trkpt lat="45.1319" lon="5.90836">
        <ele>2024.64</ele>
        <time>2020-07-01T10:04:14.000Z</time>
      </trkpt>
      <trkpt lat="45.13191" lon="5.90834">
        <ele>2022.99</ele>
        <time>2020-07-01T10:04:24.000Z</time>
      </trkpt>
      <trkpt lat="45.13189" lon="5.90825">
        <ele>2027.26</ele>
        <time>2020-07-01T10:04:34.000Z</time>
      </trkpt>
      <trkpt lat="45.13188" lon="5.90822">
        <ele>2025.44</ele>
        <time>2020-07-01T10:04:44.000Z</time>
      </trkpt>
      <trkpt lat="45.13186" lon="5.90818">
        <ele>2026.7</ele>
        <time>2020-07-01T10:04:54.000Z</time>
      </trkpt>
      <trkpt lat="45.13185" lon="5.90814">
        <ele>2026.71</ele>
        <time>2020-07-01T10:05:04.000Z</time>
      </trkpt>
      <trkpt lat="45.13184" lon="5.90813">
        <ele>2028.72</ele>
        <time>2020-07-01T10:05:46.000Z</time>
      </trkpt>
      <trkpt lat="45.1318" lon="5.90811">
        <ele>2029.37</ele>
        <time>2020-07-01T10:05:56.000Z</time>
      </trkpt>
      <trkpt lat="45.13176" lon="5.90807">
        <ele>2028.7</ele>
        <time>2020-07-01T10:06:06.000Z</time>
      </trkpt>
      <trkpt lat="45.13171" lon="5.90804">
        <ele>2027.48</ele>
        <time>2020-07-01T10:06:16.000Z</time>
      </trkpt>
      <trkpt lat="45.13171" lon="5.90799">
        <ele>2031.74</ele>
        <time>2020-07-01T10:06:26.000Z</time>
      </trkpt>
      <trkpt lat="45.13169" lon="5.90792">
        <ele>2030.42</ele>
        <time>2020-07-01T10:06:36.000Z</time>
      </trkpt>
      <trkpt lat="45.13167" lon="5.90789">
        <ele>2032.05</ele>
        <time>2020-07-01T10:06:46.000Z</time>
      </trkpt>
      <trkpt lat="45.13168" lon="5.90788">
        <ele>2033.21</ele>
        <time>2020-07-01T10:06:56.000Z</time>
      </trkpt>
      <trkpt lat="45.13169" lon="5.90788">
        <ele>2033.16</ele>
        <time>2020-07-01T10:07:16.000Z</time>
      </trkpt>
      <trkpt lat="45.13165" lon="5.90787">
        <ele>2030.48</ele>
        <time>2020-07-01T10:07:26.000Z</time>
      </trkpt>
      <trkpt lat="45.13166" lon="5.90785">
        <ele>2032.64</ele>
        <time>2020-07-01T10:07:36.000Z</time>
      </trkpt>
      <trkpt lat="45.13165" lon="5.90785">
        <ele>2028.85</ele>
        <time>2020-07-01T10:07:52.000Z</time>
      </trkpt>
      <trkpt lat="45.13164" lon="5.9078">
        <ele>2029.51</ele>
        <time>2020-07-01T10:08:02.000Z</time>
      </trkpt>
      <trkpt lat="45.13166" lon="5.90779">
        <ele>2030.48</ele>
        <time>2020-07-01T10:08:12.000Z</time>
      </trkpt>
      <trkpt lat="45.13164" lon="5.90774">
        <ele>2030.12</ele>
        <time>2020-07-01T10:08:22.000Z</time>
      </trkpt>
      <trkpt lat="45.13164" lon="5.9077">
        <ele>2031.06</ele>
        <time>2020-07-01T10:08:32.000Z</time>
      </trkpt>
      <trkpt lat="45.13164" lon="5.90768">
        <ele>2032.85</ele>
        <time>2020-07-01T10:08:42.000Z</time>
      </trkpt>
      <trkpt lat="45.13164" lon="5.90766">
        <ele>2033.11</ele>
        <time>2020-07-01T10:09:06.000Z</time>
      </trkpt>
      <trkpt lat="45.13163" lon="5.90764">
        <ele>2030.19</ele>
        <time>2020-07-01T10:09:16.000Z</time>
      </trkpt>
      <trkpt lat="45.13163" lon="5.90762">
        <ele>2025.96</ele>
        <time>2020-07-01T10:09:42.000Z</time>
      </trkpt>
      <trkpt lat="45.13163" lon="5.90755">
        <ele>2029.71</ele>
        <time>2020-07-01T10:09:52.000Z</time>
      </trkpt>
      <trkpt lat="45.1316" lon="5.90751">
        <ele>2027.66</ele>
        <time>2020-07-01T10:10:02.000Z</time>
      </trkpt>
      <trkpt lat="45.13159" lon="5.90745">
        <ele>2025.96</ele>
        <time>2020-07-01T10:10:12.000Z</time>
      </trkpt>
      <trkpt lat="45.13159" lon="5.90741">
        <ele>2027.88</ele>
        <time>2020-07-01T10:10:22.000Z</time>
      </trkpt>
      <trkpt lat="45.13159" lon="5.90739">
        <ele>2027.96</ele>
        <time>2020-07-01T10:10:58.000Z</time>
      </trkpt>
      <trkpt lat="45.13155" lon="5.90728">
        <ele>2025.5</ele>
        <time>2020-07-01T10:11:08.000Z</time>
      </trkpt>
      <trkpt lat="45.13154" lon="5.90727">
        <ele>2028.88</ele>
        <time>2020-07-01T10:11:18.000Z</time>
      </trkpt>
      <trkpt lat="45.13154" lon="5.90726">
        <ele>2029.22</ele>
        <time>2020-07-01T10:11:28.000Z</time>
      </trkpt>
      <trkpt lat="45.13153" lon="5.90723">
        <ele>2033.15</ele>
        <time>2020-07-01T10:11:38.000Z</time>
      </trkpt>
      <trkpt lat="45.13153" lon="5.90722">
        <ele>2033.68</ele>
        <time>2020-07-01T10:12:43.000Z</time>
      </trkpt>
      <trkpt lat="45.13153" lon="5.9072">
        <ele>2031.52</ele>
        <time>2020-07-01T10:13:00.000Z</time>
      </trkpt>
      <trkpt lat="45.13154" lon="5.90709">
        <ele>2035.45</ele>
        <time>2020-07-01T10:13:10.000Z</time>
      </trkpt>
      <trkpt lat="45.13153" lon="5.90706">
        <ele>2035.36</ele>
        <time>2020-07-01T10:13:20.000Z</time>
      </trkpt>
      <trkpt lat="45.13153" lon="5.90704">
        <ele>2032.47</ele>
        <time>2020-07-01T10:13:34.000Z</time>
      </trkpt>
      <trkpt lat="45.13155" lon="5.90702">
        <ele>2032.69</ele>
        <time>2020-07-01T10:13:44.000Z</time>
      </trkpt>
      <trkpt lat="45.13156" lon="5.9069">
        <ele>2035.15</ele>
        <time>2020-07-01T10:13:54.000Z</time>
      </trkpt>
      <trkpt lat="45.13156" lon="5.90687">
        <ele>2034.62</ele>
        <time>2020-07-01T10:14:04.000Z</time>
      </trkpt>
      <trkpt lat="45.13153" lon="5.90674">
        <ele>2029.45</ele>
        <time>2020-07-01T10:14:14.000Z</time>
      </trkpt>
      <trkpt lat="45.13153" lon="5.90668">
        <ele>2032.7</ele>
        <time>2020-07-01T10:14:24.000Z</time>
      </trkpt>
      <trkpt lat="45.13152" lon="5.90665">
        <ele>2031.74</ele>
        <time>2020-07-01T10:14:34.000Z</time>
      </trkpt>
      <trkpt lat="45.13155" lon="5.90658">
        <ele>2032.99</ele>
        <time>2020-07-01T10:14:44.000Z</time>
      </trkpt>
      <trkpt lat="45.13154" lon="5.90655">
        <ele>2029.88</ele>
        <time>2020-07-01T10:14:54.000Z</time>
      </trkpt>
      <trkpt lat="45.13155" lon="5.90652">
        <ele>2033.59</ele>
        <time>2020-07-01T10:15:04.000Z</time>
      </trkpt>
      <trkpt lat="45.13155" lon="5.90648">
        <ele>2035.45</ele>
        <time>2020-07-01T10:15:14.000Z</time>
      </trkpt>
      <trkpt lat="45.13156" lon="5.90648">
        <ele>2038.85</ele>
        <time>2020-07-01T10:15:24.000Z</time>
      </trkpt>
      <trkpt lat="45.13158" lon="5.90648">
        <ele>2041.45</ele>
        <time>2020-07-01T10:15:34.000Z</time>
      </trkpt>
      <trkpt lat="45.13161" lon="5.90644">
        <ele>2042.95</ele>
        <time>2020-07-01T10:15:44.000Z</time>
      </trkpt>
      <trkpt lat="45.13161" lon="5.90637">
        <ele>2041.56</ele>
        <time>2020-07-01T10:15:54.000Z</time>
      </trkpt>
      <trkpt lat="45.13162" lon="5.9063">
        <ele>2043.01</ele>
        <time>2020-07-01T10:16:04.000Z</time>
      </trkpt>
      <trkpt lat="45.13162" lon="5.90622">
        <ele>2042.9</ele>
        <time>2020-07-01T10:16:14.000Z</time>
      </trkpt>
      <trkpt lat="45.13159" lon="5.90616">
        <ele>2046.6</ele>
        <time>2020-07-01T10:16:24.000Z</time>
      </trkpt>
      <trkpt lat="45.13156" lon="5.9061">
        <ele>2045.88</ele>
        <time>2020-07-01T10:16:34.000Z</time>
      </trkpt>
      <trkpt lat="45.13153" lon="5.90605">
        <ele>2042.27</ele>
        <time>2020-07-01T10:16:44.000Z</time>
      </trkpt>
      <trkpt lat="45.13149" lon="5.90601">
        <ele>2039.99</ele>
        <time>2020-07-01T10:16:54.000Z</time>
      </trkpt>
      <trkpt lat="45.1315" lon="5.90601">
        <ele>2038.9</ele>
        <time>2020-07-01T10:17:11.000Z</time>
      </trkpt>
      <trkpt lat="45.1315" lon="5.90598">
        <ele>2040.65</ele>
        <time>2020-07-01T10:17:21.000Z</time>
      </trkpt>
      <trkpt lat="45.13151" lon="5.90598">
        <ele>2039.94</ele>
        <time>2020-07-01T10:17:53.000Z</time>
      </trkpt>
      <trkpt lat="45.13152" lon="5.90598">
        <ele>2038.34</ele>
        <time>2020-07-01T10:18:03.000Z</time>
      </trkpt>
      <trkpt lat="45.13151" lon="5.90593">
        <ele>2035.19</ele>
        <time>2020-07-01T10:18:13.000Z</time>
      </trkpt>
      <trkpt lat="45.13145" lon="5.9059">
        <ele>2031.26</ele>
        <time>2020-07-01T10:18:23.000Z</time>
      </trkpt>
      <trkpt lat="45.13149" lon="5.90588">
        <ele>2028.5</ele>
        <time>2020-07-01T10:18:33.000Z</time>
      </trkpt>
      <trkpt lat="45.13148" lon="5.90587">
        <ele>2025.44</ele>
        <time>2020-07-01T10:18:44.000Z</time>
      </trkpt>
      <trkpt lat="45.13147" lon="5.90586">
        <ele>2025.4</ele>
        <time>2020-07-01T10:18:54.000Z</time>
      </trkpt>
      <trkpt lat="45.13146" lon="5.90582">
        <ele>2025.68</ele>
        <time>2020-07-01T10:19:04.000Z</time>
      </trkpt>
      <trkpt lat="45.13145" lon="5.90574">
        <ele>2024.45</ele>
        <time>2020-07-01T10:19:14.000Z</time>
      </trkpt>
      <trkpt lat="45.13144" lon="5.90574">
        <ele>2025.12</ele>
        <time>2020-07-01T10:19:24.000Z</time>
      </trkpt>
      <trkpt lat="45.13143" lon="5.90571">
        <ele>2022.43</ele>
        <time>2020-07-01T10:19:34.000Z</time>
      </trkpt>
      <trkpt lat="45.1314" lon="5.90568">
        <ele>2018.9</ele>
        <time>2020-07-01T10:19:44.000Z</time>
      </trkpt>
      <trkpt lat="45.13139" lon="5.90564">
        <ele>2020.87</ele>
        <time>2020-07-01T10:19:54.000Z</time>
      </trkpt>
      <trkpt lat="45.13138" lon="5.90564">
        <ele>2020.68</ele>
        <time>2020-07-01T10:20:08.000Z</time>
      </trkpt>
      <trkpt lat="45.13141" lon="5.90562">
        <ele>2019.78</ele>
        <time>2020-07-01T10:20:18.000Z</time>
      </trkpt>
      <trkpt lat="45.13138" lon="5.90564">
        <ele>2016.18</ele>
        <time>2020-07-01T10:20:28.000Z</time>
      </trkpt>
      <trkpt lat="45.13136" lon="5.90561">
        <ele>2010.95</ele>
        <time>2020-07-01T10:20:38.000Z</time>
      </trkpt>
      <trkpt lat="45.13136" lon="5.90559">
        <ele>2007.8</ele>
        <time>2020-07-01T10:20:54.000Z</time>
      </trkpt>
      <trkpt lat="45.13136" lon="5.90557">
        <ele>2003.01</ele>
        <time>2020-07-01T10:21:09.000Z</time>
      </trkpt>
      <trkpt lat="45.13132" lon="5.90552">
        <ele>2001.52</ele>
        <time>2020-07-01T10:21:19.000Z</time>
      </trkpt>
      <trkpt lat="45.1313" lon="5.90546">
        <ele>2003.93</ele>
        <time>2020-07-01T10:21:29.000Z</time>
      </trkpt>
      <trkpt lat="45.1313" lon="5.90542">
        <ele>2006.88</ele>
        <time>2020-07-01T10:21:39.000Z</time>
      </trkpt>
      <trkpt lat="45.1313" lon="5.90543">
        <ele>2005.46</ele>
        <time>2020-07-01T10:21:54.000Z</time>
      </trkpt>
      <trkpt lat="45.1313" lon="5.90541">
        <ele>2010.68</ele>
        <time>2020-07-01T10:22:50.000Z</time>
      </trkpt>
      <trkpt lat="45.1313" lon="5.90535">
        <ele>2010.37</ele>
        <time>2020-07-01T10:23:00.000Z</time>
      </trkpt>
      <trkpt lat="45.13125" lon="5.90516">
        <ele>2014.76</ele>
        <time>2020-07-01T10:23:10.000Z</time>
      </trkpt>
      <trkpt lat="45.1312" lon="5.90514">
        <ele>2010.44</ele>
        <time>2020-07-01T10:23:20.000Z</time>
      </trkpt>
      <trkpt lat="45.13116" lon="5.90508">
        <ele>2006.99</ele>
        <time>2020-07-01T10:23:30.000Z</time>
      </trkpt>
      <trkpt lat="45.13117" lon="5.90504">
        <ele>2006.56</ele>
        <time>2020-07-01T10:23:40.000Z</time>
      </trkpt>
      <trkpt lat="45.13114" lon="5.9049">
        <ele>2006.94</ele>
        <time>2020-07-01T10:23:50.000Z</time>
      </trkpt>
      <trkpt lat="45.13113" lon="5.9048">
        <ele>2006.28</ele>
        <time>2020-07-01T10:24:00.000Z</time>
      </trkpt>
      <trkpt lat="45.13117" lon="5.90466">
        <ele>2010.57</ele>
        <time>2020-07-01T10:24:10.000Z</time>
      </trkpt>
      <trkpt lat="45.13116" lon="5.90465">
        <ele>2011.33</ele>
        <time>2020-07-01T10:24:21.000Z</time>
      </trkpt>
      <trkpt lat="45.13116" lon="5.90461">
        <ele>2013.1</ele>
        <time>2020-07-01T10:24:31.000Z</time>
      </trkpt>
      <trkpt lat="45.13115" lon="5.90458">
        <ele>2006.77</ele>
        <time>2020-07-01T10:24:41.000Z</time>
      </trkpt>
      <trkpt lat="45.13117" lon="5.90452">
        <ele>2006.33</ele>
        <time>2020-07-01T10:24:51.000Z</time>
      </trkpt>
      <trkpt lat="45.13115" lon="5.90448">
        <ele>2005.5</ele>
        <time>2020-07-01T10:25:01.000Z</time>
      </trkpt>
      <trkpt lat="45.13112" lon="5.90438">
        <ele>2003.06</ele>
        <time>2020-07-01T10:25:11.000Z</time>
      </trkpt>
      <trkpt lat="45.1311" lon="5.90436">
        <ele>2001.83</ele>
        <time>2020-07-01T10:25:21.000Z</time>
      </trkpt>
      <trkpt lat="45.13106" lon="5.90428">
        <ele>1997.83</ele>
        <time>2020-07-01T10:25:31.000Z</time>
      </trkpt>
      <trkpt lat="45.13104" lon="5.9042">
        <ele>1996.71</ele>
        <time>2020-07-01T10:25:41.000Z</time>
      </trkpt>
      <trkpt lat="45.13102" lon="5.90408">
        <ele>1993.39</ele>
        <time>2020-07-01T10:25:51.000Z</time>
      </trkpt>
      <trkpt lat="45.13102" lon="5.90397">
        <ele>1996.63</ele>
        <time>2020-07-01T10:26:01.000Z</time>
      </trkpt>
      <trkpt lat="45.13101" lon="5.90387">
        <ele>1996.91</ele>
        <time>2020-07-01T10:26:11.000Z</time>
      </trkpt>
      <trkpt lat="45.13098" lon="5.90376">
        <ele>2000.09</ele>
        <time>2020-07-01T10:26:21.000Z</time>
      </trkpt>
      <trkpt lat="45.13095" lon="5.90367">
        <ele>2000.39</ele>
        <time>2020-07-01T10:26:31.000Z</time>
      </trkpt>
      <trkpt lat="45.13096" lon="5.90365">
        <ele>1996.36</ele>
        <time>2020-07-01T10:26:41.000Z</time>
      </trkpt>
      <trkpt lat="45.13095" lon="5.90359">
        <ele>1993.39</ele>
        <time>2020-07-01T10:26:51.000Z</time>
      </trkpt>
      <trkpt lat="45.13094" lon="5.90357">
        <ele>1988.08</ele>
        <time>2020-07-01T10:27:01.000Z</time>
      </trkpt>
      <trkpt lat="45.13093" lon="5.90351">
        <ele>1986.04</ele>
        <time>2020-07-01T10:27:11.000Z</time>
      </trkpt>
      <trkpt lat="45.1309" lon="5.90344">
        <ele>1984.89</ele>
        <time>2020-07-01T10:27:21.000Z</time>
      </trkpt>
      <trkpt lat="45.13087" lon="5.90339">
        <ele>1981.92</ele>
        <time>2020-07-01T10:27:31.000Z</time>
      </trkpt>
      <trkpt lat="45.13084" lon="5.90333">
        <ele>1979.18</ele>
        <time>2020-07-01T10:27:41.000Z</time>
      </trkpt>
      <trkpt lat="45.1308" lon="5.90323">
        <ele>1978.49</ele>
        <time>2020-07-01T10:27:51.000Z</time>
      </trkpt>
      <trkpt lat="45.13078" lon="5.90319">
        <ele>1973.28</ele>
        <time>2020-07-01T10:28:01.000Z</time>
      </trkpt>
      <trkpt lat="45.13077" lon="5.90314">
        <ele>1973</ele>
        <time>2020-07-01T10:28:11.000Z</time>
      </trkpt>
      <trkpt lat="45.13075" lon="5.90309">
        <ele>1973.3</ele>
        <time>2020-07-01T10:28:21.000Z</time>
      </trkpt>
      <trkpt lat="45.1307" lon="5.90298">
        <ele>1973.32</ele>
        <time>2020-07-01T10:28:31.000Z</time>
      </trkpt>
      <trkpt lat="45.13069" lon="5.90297">
        <ele>1973.1</ele>
        <time>2020-07-01T10:28:41.000Z</time>
      </trkpt>
      <trkpt lat="45.13067" lon="5.90297">
        <ele>1972.83</ele>
        <time>2020-07-01T10:28:51.000Z</time>
      </trkpt>
      <trkpt lat="45.13066" lon="5.90297">
        <ele>1973.78</ele>
        <time>2020-07-01T10:29:01.000Z</time>
      </trkpt>
      <trkpt lat="45.13066" lon="5.90295">
        <ele>1974.96</ele>
        <time>2020-07-01T10:29:11.000Z</time>
      </trkpt>
      <trkpt lat="45.13065" lon="5.90292">
        <ele>1974.21</ele>
        <time>2020-07-01T10:29:21.000Z</time>
      </trkpt>
      <trkpt lat="45.1306" lon="5.90288">
        <ele>1968.83</ele>
        <time>2020-07-01T10:29:31.000Z</time>
      </trkpt>
      <trkpt lat="45.13057" lon="5.90288">
        <ele>1971.87</ele>
        <time>2020-07-01T10:29:41.000Z</time>
      </trkpt>
      <trkpt lat="45.13056" lon="5.90288">
        <ele>1972.55</ele>
        <time>2020-07-01T10:29:59.000Z</time>
      </trkpt>
      <trkpt lat="45.13054" lon="5.90286">
        <ele>1973.49</ele>
        <time>2020-07-01T10:30:09.000Z</time>
      </trkpt>
      <trkpt lat="45.13047" lon="5.90279">
        <ele>1977.92</ele>
        <time>2020-07-01T10:30:19.000Z</time>
      </trkpt>
      <trkpt lat="45.13049" lon="5.90282">
        <ele>1973.36</ele>
        <time>2020-07-01T10:30:29.000Z</time>
      </trkpt>
      <trkpt lat="45.13045" lon="5.90273">
        <ele>1971.65</ele>
        <time>2020-07-01T10:30:39.000Z</time>
      </trkpt>
      <trkpt lat="45.13041" lon="5.90266">
        <ele>1971.28</ele>
        <time>2020-07-01T10:30:49.000Z</time>
      </trkpt>
      <trkpt lat="45.13033" lon="5.90262">
        <ele>1969.01</ele>
        <time>2020-07-01T10:30:59.000Z</time>
      </trkpt>
      <trkpt lat="45.13029" lon="5.90254">
        <ele>1969.58</ele>
        <time>2020-07-01T10:31:09.000Z</time>
      </trkpt>
      <trkpt lat="45.13028" lon="5.90249">
        <ele>1969.82</ele>
        <time>2020-07-01T10:31:19.000Z</time>
      </trkpt>
      <trkpt lat="45.13024" lon="5.90242">
        <ele>1971.71</ele>
        <time>2020-07-01T10:31:29.000Z</time>
      </trkpt>
      <trkpt lat="45.13021" lon="5.90238">
        <ele>1970.81</ele>
        <time>2020-07-01T10:31:39.000Z</time>
      </trkpt>
      <trkpt lat="45.13018" lon="5.90227">
        <ele>1970.62</ele>
        <time>2020-07-01T10:31:49.000Z</time>
      </trkpt>
      <trkpt lat="45.13016" lon="5.90226">
        <ele>1969.41</ele>
        <time>2020-07-01T10:31:59.000Z</time>
      </trkpt>
      <trkpt lat="45.13013" lon="5.90224">
        <ele>1970.08</ele>
        <time>2020-07-01T10:32:09.000Z</time>
      </trkpt>
      <trkpt lat="45.1301" lon="5.90219">
        <ele>1968.35</ele>
        <time>2020-07-01T10:32:19.000Z</time>
      </trkpt>
      <trkpt lat="45.13006" lon="5.90213">
        <ele>1969.76</ele>
        <time>2020-07-01T10:32:29.000Z</time>
      </trkpt>
      <trkpt lat="45.13006" lon="5.90212">
        <ele>1966.37</ele>
        <time>2020-07-01T10:32:39.000Z</time>
      </trkpt>
      <trkpt lat="45.13006" lon="5.9021">
        <ele>1966.76</ele>
        <time>2020-07-01T10:32:49.000Z</time>
      </trkpt>
      <trkpt lat="45.13003" lon="5.90202">
        <ele>1969.76</ele>
        <time>2020-07-01T10:32:59.000Z</time>
      </trkpt>
      <trkpt lat="45.13001" lon="5.90197">
        <ele>1969.02</ele>
        <time>2020-07-01T10:33:09.000Z</time>
      </trkpt>
      <trkpt lat="45.12999" lon="5.90187">
        <ele>1970.53</ele>
        <time>2020-07-01T10:33:19.000Z</time>
      </trkpt>
      <trkpt lat="45.12999" lon="5.90179">
        <ele>1969.11</ele>
        <time>2020-07-01T10:33:29.000Z</time>
      </trkpt>
      <trkpt lat="45.12998" lon="5.90172">
        <ele>1972.49</ele>
        <time>2020-07-01T10:33:39.000Z</time>
      </trkpt>
      <trkpt lat="45.12998" lon="5.9017">
        <ele>1972.71</ele>
        <time>2020-07-01T10:33:49.000Z</time>
      </trkpt>
      <trkpt lat="45.12995" lon="5.90166">
        <ele>1974.39</ele>
        <time>2020-07-01T10:33:59.000Z</time>
      </trkpt>
      <trkpt lat="45.12991" lon="5.90168">
        <ele>1969.87</ele>
        <time>2020-07-01T10:34:09.000Z</time>
      </trkpt>
      <trkpt lat="45.12988" lon="5.90165">
        <ele>1969.18</ele>
        <time>2020-07-01T10:34:19.000Z</time>
      </trkpt>
      <trkpt lat="45.12988" lon="5.90163">
        <ele>1973.78</ele>
        <time>2020-07-01T10:34:29.000Z</time>
      </trkpt>
      <trkpt lat="45.12985" lon="5.90164">
        <ele>1973</ele>
        <time>2020-07-01T10:34:39.000Z</time>
      </trkpt>
      <trkpt lat="45.12986" lon="5.90164">
        <ele>1971.09</ele>
        <time>2020-07-01T10:35:02.000Z</time>
      </trkpt>
      <trkpt lat="45.12988" lon="5.90161">
        <ele>1977.15</ele>
        <time>2020-07-01T10:35:12.000Z</time>
      </trkpt>
      <trkpt lat="45.12987" lon="5.90161">
        <ele>1976.22</ele>
        <time>2020-07-01T10:35:28.000Z</time>
      </trkpt>
      <trkpt lat="45.12986" lon="5.90161">
        <ele>1977.06</ele>
        <time>2020-07-01T10:35:41.000Z</time>
      </trkpt>
      <trkpt lat="45.12986" lon="5.90153">
        <ele>1979.1</ele>
        <time>2020-07-01T10:35:51.000Z</time>
      </trkpt>
      <trkpt lat="45.12986" lon="5.90143">
        <ele>1976.27</ele>
        <time>2020-07-01T10:36:01.000Z</time>
      </trkpt>
      <trkpt lat="45.12985" lon="5.90127">
        <ele>1974.43</ele>
        <time>2020-07-01T10:36:11.000Z</time>
      </trkpt>
      <trkpt lat="45.12983" lon="5.90119">
        <ele>1968.2</ele>
        <time>2020-07-01T10:36:21.000Z</time>
      </trkpt>
      <trkpt lat="45.12979" lon="5.90111">
        <ele>1969.92</ele>
        <time>2020-07-01T10:36:31.000Z</time>
      </trkpt>
      <trkpt lat="45.12977" lon="5.90097">
        <ele>1968.47</ele>
        <time>2020-07-01T10:36:41.000Z</time>
      </trkpt>
      <trkpt lat="45.12977" lon="5.90085">
        <ele>1964.25</ele>
        <time>2020-07-01T10:36:51.000Z</time>
      </trkpt>
      <trkpt lat="45.12979" lon="5.90075">
        <ele>1964.9</ele>
        <time>2020-07-01T10:37:01.000Z</time>
      </trkpt>
      <trkpt lat="45.12977" lon="5.90062">
        <ele>1966.29</ele>
        <time>2020-07-01T10:37:11.000Z</time>
      </trkpt>
      <trkpt lat="45.12979" lon="5.90043">
        <ele>1966.97</ele>
        <time>2020-07-01T10:37:21.000Z</time>
      </trkpt>
      <trkpt lat="45.12978" lon="5.90032">
        <ele>1967.39</ele>
        <time>2020-07-01T10:37:31.000Z</time>
      </trkpt>
      <trkpt lat="45.12979" lon="5.90021">
        <ele>1966.76</ele>
        <time>2020-07-01T10:37:41.000Z</time>
      </trkpt>
      <trkpt lat="45.12982" lon="5.90007">
        <ele>1967.67</ele>
        <time>2020-07-01T10:37:51.000Z</time>
      </trkpt>
      <trkpt lat="45.12986" lon="5.90001">
        <ele>1965.19</ele>
        <time>2020-07-01T10:38:01.000Z</time>
      </trkpt>
      <trkpt lat="45.12989" lon="5.89991">
        <ele>1960.68</ele>
        <time>2020-07-01T10:38:11.000Z</time>
      </trkpt>
      <trkpt lat="45.1299" lon="5.89986">
        <ele>1954.58</ele>
        <time>2020-07-01T10:38:21.000Z</time>
      </trkpt>
      <trkpt lat="45.12989" lon="5.89979">
        <ele>1959.88</ele>
        <time>2020-07-01T10:38:31.000Z</time>
      </trkpt>
      <trkpt lat="45.12994" lon="5.8997">
        <ele>1957.03</ele>
        <time>2020-07-01T10:38:41.000Z</time>
      </trkpt>
      <trkpt lat="45.12996" lon="5.89971">
        <ele>1956.6</ele>
        <time>2020-07-01T10:38:51.000Z</time>
      </trkpt>
      <trkpt lat="45.12996" lon="5.89967">
        <ele>1958.26</ele>
        <time>2020-07-01T10:39:01.000Z</time>
      </trkpt>
      <trkpt lat="45.12997" lon="5.89956">
        <ele>1957.08</ele>
        <time>2020-07-01T10:39:11.000Z</time>
      </trkpt>
      <trkpt lat="45.12998" lon="5.89947">
        <ele>1956.04</ele>
        <time>2020-07-01T10:39:21.000Z</time>
      </trkpt>
      <trkpt lat="45.12996" lon="5.89942">
        <ele>1950.28</ele>
        <time>2020-07-01T10:39:31.000Z</time>
      </trkpt>
      <trkpt lat="45.12992" lon="5.8993">
        <ele>1950.53</ele>
        <time>2020-07-01T10:39:41.000Z</time>
      </trkpt>
      <trkpt lat="45.12986" lon="5.89917">
        <ele>1952.44</ele>
        <time>2020-07-01T10:39:51.000Z</time>
      </trkpt>
      <trkpt lat="45.12979" lon="5.89908">
        <ele>1950.47</ele>
        <time>2020-07-01T10:40:01.000Z</time>
      </trkpt>
      <trkpt lat="45.12972" lon="5.89899">
        <ele>1955.12</ele>
        <time>2020-07-01T10:40:11.000Z</time>
      </trkpt>
      <trkpt lat="45.12962" lon="5.89885">
        <ele>1953.72</ele>
        <time>2020-07-01T10:40:21.000Z</time>
      </trkpt>
      <trkpt lat="45.12957" lon="5.8987">
        <ele>1952.82</ele>
        <time>2020-07-01T10:40:31.000Z</time>
      </trkpt>
      <trkpt lat="45.1295" lon="5.89849">
        <ele>1957.28</ele>
        <time>2020-07-01T10:40:41.000Z</time>
      </trkpt>
      <trkpt lat="45.12941" lon="5.89843">
        <ele>1947.96</ele>
        <time>2020-07-01T10:40:51.000Z</time>
      </trkpt>
      <trkpt lat="45.12937" lon="5.89828">
        <ele>1953.77</ele>
        <time>2020-07-01T10:41:01.000Z</time>
      </trkpt>
      <trkpt lat="45.12933" lon="5.89812">
        <ele>1953.13</ele>
        <time>2020-07-01T10:41:11.000Z</time>
      </trkpt>
      <trkpt lat="45.1293" lon="5.89801">
        <ele>1949.48</ele>
        <time>2020-07-01T10:41:21.000Z</time>
      </trkpt>
      <trkpt lat="45.12928" lon="5.89797">
        <ele>1948.73</ele>
        <time>2020-07-01T10:41:31.000Z</time>
      </trkpt>
      <trkpt lat="45.12923" lon="5.89787">
        <ele>1947.68</ele>
        <time>2020-07-01T10:41:41.000Z</time>
      </trkpt>
      <trkpt lat="45.12915" lon="5.89775">
        <ele>1947.35</ele>
        <time>2020-07-01T10:41:51.000Z</time>
      </trkpt>
      <trkpt lat="45.12907" lon="5.8976">
        <ele>1950.38</ele>
        <time>2020-07-01T10:42:01.000Z</time>
      </trkpt>
      <trkpt lat="45.12901" lon="5.89746">
        <ele>1948.39</ele>
        <time>2020-07-01T10:42:11.000Z</time>
      </trkpt>
      <trkpt lat="45.12897" lon="5.89735">
        <ele>1948.52</ele>
        <time>2020-07-01T10:42:21.000Z</time>
      </trkpt>
      <trkpt lat="45.12889" lon="5.89722">
        <ele>1948.9</ele>
        <time>2020-07-01T10:42:31.000Z</time>
      </trkpt>
      <trkpt lat="45.12881" lon="5.89707">
        <ele>1949.84</ele>
        <time>2020-07-01T10:42:41.000Z</time>
      </trkpt>
      <trkpt lat="45.12876" lon="5.89694">
        <ele>1950.84</ele>
        <time>2020-07-01T10:42:51.000Z</time>
      </trkpt>
      <trkpt lat="45.12874" lon="5.89692">
        <ele>1949.43</ele>
        <time>2020-07-01T10:43:01.000Z</time>
      </trkpt>
      <trkpt lat="45.12866" lon="5.89682">
        <ele>1948.87</ele>
        <time>2020-07-01T10:43:11.000Z</time>
      </trkpt>
      <trkpt lat="45.12857" lon="5.89673">
        <ele>1945.14</ele>
        <time>2020-07-01T10:43:21.000Z</time>
      </trkpt>
      <trkpt lat="45.12851" lon="5.89664">
        <ele>1938.45</ele>
        <time>2020-07-01T10:43:31.000Z</time>
      </trkpt>
      <trkpt lat="45.12848" lon="5.89652">
        <ele>1937.88</ele>
        <time>2020-07-01T10:43:41.000Z</time>
      </trkpt>
      <trkpt lat="45.12846" lon="5.8964">
        <ele>1936.88</ele>
        <time>2020-07-01T10:43:51.000Z</time>
      </trkpt>
      <trkpt lat="45.12842" lon="5.89627">
        <ele>1937.45</ele>
        <time>2020-07-01T10:44:01.000Z</time>
      </trkpt>
      <trkpt lat="45.12839" lon="5.89616">
        <ele>1939.87</ele>
        <time>2020-07-01T10:44:11.000Z</time>
      </trkpt>
      <trkpt lat="45.1284" lon="5.89613">
        <ele>1936.66</ele>
        <time>2020-07-01T10:44:25.000Z</time>
      </trkpt>
      <trkpt lat="45.12836" lon="5.89597">
        <ele>1938.76</ele>
        <time>2020-07-01T10:44:35.000Z</time>
      </trkpt>
      <trkpt lat="45.1283" lon="5.89586">
        <ele>1935.63</ele>
        <time>2020-07-01T10:44:45.000Z</time>
      </trkpt>
      <trkpt lat="45.12825" lon="5.89571">
        <ele>1933.27</ele>
        <time>2020-07-01T10:44:55.000Z</time>
      </trkpt>
      <trkpt lat="45.12824" lon="5.89567">
        <ele>1933.49</ele>
        <time>2020-07-01T10:45:05.000Z</time>
      </trkpt>
      <trkpt lat="45.12816" lon="5.89554">
        <ele>1933.16</ele>
        <time>2020-07-01T10:45:15.000Z</time>
      </trkpt>
      <trkpt lat="45.12809" lon="5.89535">
        <ele>1929.08</ele>
        <time>2020-07-01T10:45:27.000Z</time>
      </trkpt>
      <trkpt lat="45.12808" lon="5.89522">
        <ele>1930.93</ele>
        <time>2020-07-01T10:45:37.000Z</time>
      </trkpt>
      <trkpt lat="45.12804" lon="5.89507">
        <ele>1930.27</ele>
        <time>2020-07-01T10:45:47.000Z</time>
      </trkpt>
      <trkpt lat="45.12799" lon="5.89495">
        <ele>1930.86</ele>
        <time>2020-07-01T10:45:57.000Z</time>
      </trkpt>
      <trkpt lat="45.12799" lon="5.89492">
        <ele>1927.81</ele>
        <time>2020-07-01T10:46:07.000Z</time>
      </trkpt>
      <trkpt lat="45.12792" lon="5.89488">
        <ele>1924.57</ele>
        <time>2020-07-01T10:46:17.000Z</time>
      </trkpt>
      <trkpt lat="45.12791" lon="5.89485">
        <ele>1919.6</ele>
        <time>2020-07-01T10:46:27.000Z</time>
      </trkpt>
      <trkpt lat="45.12788" lon="5.89481">
        <ele>1919.53</ele>
        <time>2020-07-01T10:46:37.000Z</time>
      </trkpt>
      <trkpt lat="45.12793" lon="5.89487">
        <ele>1923.89</ele>
        <time>2020-07-01T10:46:47.000Z</time>
      </trkpt>
      <trkpt lat="45.12796" lon="5.89488">
        <ele>1925.58</ele>
        <time>2020-07-01T10:46:57.000Z</time>
      </trkpt>
      <trkpt lat="45.12795" lon="5.89477">
        <ele>1925.21</ele>
        <time>2020-07-01T10:47:07.000Z</time>
      </trkpt>
      <trkpt lat="45.1279" lon="5.89466">
        <ele>1926.83</ele>
        <time>2020-07-01T10:47:17.000Z</time>
      </trkpt>
      <trkpt lat="45.12783" lon="5.89454">
        <ele>1931.08</ele>
        <time>2020-07-01T10:47:27.000Z</time>
      </trkpt>
      <trkpt lat="45.12773" lon="5.8945">
        <ele>1931.71</ele>
        <time>2020-07-01T10:47:37.000Z</time>
      </trkpt>
      <trkpt lat="45.12765" lon="5.89447">
        <ele>1932.27</ele>
        <time>2020-07-01T10:47:47.000Z</time>
      </trkpt>
      <trkpt lat="45.12762" lon="5.89445">
        <ele>1931.84</ele>
        <time>2020-07-01T10:47:57.000Z</time>
      </trkpt>
      <trkpt lat="45.12754" lon="5.89435">
        <ele>1934.25</ele>
        <time>2020-07-01T10:48:07.000Z</time>
      </trkpt>
      <trkpt lat="45.12746" lon="5.89424">
        <ele>1930.85</ele>
        <time>2020-07-01T10:48:17.000Z</time>
      </trkpt>
      <trkpt lat="45.12739" lon="5.89409">
        <ele>1925.31</ele>
        <time>2020-07-01T10:48:30.000Z</time>
      </trkpt>
      <trkpt lat="45.12732" lon="5.89395">
        <ele>1923.77</ele>
        <time>2020-07-01T10:48:40.000Z</time>
      </trkpt>
      <trkpt lat="45.12732" lon="5.89387">
        <ele>1921.07</ele>
        <time>2020-07-01T10:48:50.000Z</time>
      </trkpt>
      <trkpt lat="45.12732" lon="5.89385">
        <ele>1920.5</ele>
        <time>2020-07-01T10:49:00.000Z</time>
      </trkpt>
      <trkpt lat="45.12728" lon="5.89388">
        <ele>1919.07</ele>
        <time>2020-07-01T10:49:10.000Z</time>
      </trkpt>
      <trkpt lat="45.12727" lon="5.89387">
        <ele>1921.16</ele>
        <time>2020-07-01T10:49:20.000Z</time>
      </trkpt>
      <trkpt lat="45.12728" lon="5.89388">
        <ele>1925.17</ele>
        <time>2020-07-01T10:50:19.000Z</time>
      </trkpt>
      <trkpt lat="45.12728" lon="5.89389">
        <ele>1929.81</ele>
        <time>2020-07-01T10:50:29.000Z</time>
      </trkpt>
      <trkpt lat="45.12727" lon="5.8939">
        <ele>1928.61</ele>
        <time>2020-07-01T10:50:39.000Z</time>
      </trkpt>
      <trkpt lat="45.12724" lon="5.89391">
        <ele>1927.48</ele>
        <time>2020-07-01T10:50:49.000Z</time>
      </trkpt>
      <trkpt lat="45.12726" lon="5.89391">
        <ele>1926.71</ele>
        <time>2020-07-01T10:51:01.000Z</time>
      </trkpt>
      <trkpt lat="45.12725" lon="5.8939">
        <ele>1925.47</ele>
        <time>2020-07-01T10:51:59.000Z</time>
      </trkpt>
      <trkpt lat="45.12714" lon="5.89377">
        <ele>1922.72</ele>
        <time>2020-07-01T10:52:09.000Z</time>
      </trkpt>
      <trkpt lat="45.12705" lon="5.89364">
        <ele>1922.93</ele>
        <time>2020-07-01T10:52:19.000Z</time>
      </trkpt>
      <trkpt lat="45.12703" lon="5.89342">
        <ele>1919.97</ele>
        <time>2020-07-01T10:52:29.000Z</time>
      </trkpt>
      <trkpt lat="45.12695" lon="5.89325">
        <ele>1920.23</ele>
        <time>2020-07-01T10:52:39.000Z</time>
      </trkpt>
      <trkpt lat="45.12696" lon="5.89324">
        <ele>1921.41</ele>
        <time>2020-07-01T10:52:49.000Z</time>
      </trkpt>
      <trkpt lat="45.12697" lon="5.89322">
        <ele>1920.47</ele>
        <time>2020-07-01T10:53:27.000Z</time>
      </trkpt>
      <trkpt lat="45.12692" lon="5.89303">
        <ele>1918.17</ele>
        <time>2020-07-01T10:53:37.000Z</time>
      </trkpt>
      <trkpt lat="45.12684" lon="5.8929">
        <ele>1918.03</ele>
        <time>2020-07-01T10:53:47.000Z</time>
      </trkpt>
      <trkpt lat="45.12676" lon="5.89277">
        <ele>1916.61</ele>
        <time>2020-07-01T10:53:57.000Z</time>
      </trkpt>
      <trkpt lat="45.12671" lon="5.89261">
        <ele>1915.21</ele>
        <time>2020-07-01T10:54:07.000Z</time>
      </trkpt>
      <trkpt lat="45.12662" lon="5.89253">
        <ele>1911.75</ele>
        <time>2020-07-01T10:54:17.000Z</time>
      </trkpt>
      <trkpt lat="45.12659" lon="5.8925">
        <ele>1907.51</ele>
        <time>2020-07-01T10:54:27.000Z</time>
      </trkpt>
      <trkpt lat="45.12652" lon="5.8924">
        <ele>1902.5</ele>
        <time>2020-07-01T10:54:37.000Z</time>
      </trkpt>
      <trkpt lat="45.12643" lon="5.89233">
        <ele>1902.01</ele>
        <time>2020-07-01T10:54:47.000Z</time>
      </trkpt>
      <trkpt lat="45.12638" lon="5.8922">
        <ele>1897.69</ele>
        <time>2020-07-01T10:54:57.000Z</time>
      </trkpt>
      <trkpt lat="45.12627" lon="5.89205">
        <ele>1895.97</ele>
        <time>2020-07-01T10:55:07.000Z</time>
      </trkpt>
      <trkpt lat="45.1262" lon="5.89193">
        <ele>1897.35</ele>
        <time>2020-07-01T10:55:17.000Z</time>
      </trkpt>
      <trkpt lat="45.12616" lon="5.89175">
        <ele>1897.07</ele>
        <time>2020-07-01T10:55:27.000Z</time>
      </trkpt>
      <trkpt lat="45.12611" lon="5.89162">
        <ele>1898.6</ele>
        <time>2020-07-01T10:55:37.000Z</time>
      </trkpt>
      <trkpt lat="45.12608" lon="5.89146">
        <ele>1898.17</ele>
        <time>2020-07-01T10:55:47.000Z</time>
      </trkpt>
      <trkpt lat="45.12604" lon="5.8913">
        <ele>1898.64</ele>
        <time>2020-07-01T10:55:57.000Z</time>
      </trkpt>
      <trkpt lat="45.12599" lon="5.89113">
        <ele>1895.81</ele>
        <time>2020-07-01T10:56:07.000Z</time>
      </trkpt>
      <trkpt lat="45.12593" lon="5.89096">
        <ele>1897.24</ele>
        <time>2020-07-01T10:56:17.000Z</time>
      </trkpt>
      <trkpt lat="45.12587" lon="5.89085">
        <ele>1897.65</ele>
        <time>2020-07-01T10:56:27.000Z</time>
      </trkpt>
      <trkpt lat="45.12582" lon="5.89076">
        <ele>1897.48</ele>
        <time>2020-07-01T10:56:37.000Z</time>
      </trkpt>
      <trkpt lat="45.12574" lon="5.89068">
        <ele>1893.97</ele>
        <time>2020-07-01T10:56:47.000Z</time>
      </trkpt>
      <trkpt lat="45.12568" lon="5.89061">
        <ele>1889.89</ele>
        <time>2020-07-01T10:56:57.000Z</time>
      </trkpt>
      <trkpt lat="45.12562" lon="5.89053">
        <ele>1888.39</ele>
        <time>2020-07-01T10:57:07.000Z</time>
      </trkpt>
      <trkpt lat="45.12556" lon="5.89047">
        <ele>1889.16</ele>
        <time>2020-07-01T10:57:17.000Z</time>
      </trkpt>
      <trkpt lat="45.12551" lon="5.89043">
        <ele>1890.66</ele>
        <time>2020-07-01T10:57:27.000Z</time>
      </trkpt>
      <trkpt lat="45.12543" lon="5.8904">
        <ele>1881.11</ele>
        <time>2020-07-01T10:57:37.000Z</time>
      </trkpt>
      <trkpt lat="45.12541" lon="5.89031">
        <ele>1879.28</ele>
        <time>2020-07-01T10:57:47.000Z</time>
      </trkpt>
      <trkpt lat="45.1254" lon="5.89021">
        <ele>1873.04</ele>
        <time>2020-07-01T10:57:57.000Z</time>
      </trkpt>
      <trkpt lat="45.12536" lon="5.89007">
        <ele>1871.29</ele>
        <time>2020-07-01T10:58:07.000Z</time>
      </trkpt>
      <trkpt lat="45.12533" lon="5.88993">
        <ele>1868.52</ele>
        <time>2020-07-01T10:58:17.000Z</time>
      </trkpt>
      <trkpt lat="45.1253" lon="5.88979">
        <ele>1865.21</ele>
        <time>2020-07-01T10:58:27.000Z</time>
      </trkpt>
      <trkpt lat="45.12529" lon="5.88957">
        <ele>1867.47</ele>
        <time>2020-07-01T10:58:37.000Z</time>
      </trkpt>
      <trkpt lat="45.12529" lon="5.88945">
        <ele>1862.53</ele>
        <time>2020-07-01T10:58:47.000Z</time>
      </trkpt>
      <trkpt lat="45.12526" lon="5.88928">
        <ele>1861.8</ele>
        <time>2020-07-01T10:58:57.000Z</time>
      </trkpt>
      <trkpt lat="45.12521" lon="5.88915">
        <ele>1860.32</ele>
        <time>2020-07-01T10:59:07.000Z</time>
      </trkpt>
      <trkpt lat="45.12515" lon="5.88902">
        <ele>1859.47</ele>
        <time>2020-07-01T10:59:17.000Z</time>
      </trkpt>
      <trkpt lat="45.1251" lon="5.88889">
        <ele>1858.21</ele>
        <time>2020-07-01T10:59:27.000Z</time>
      </trkpt>
      <trkpt lat="45.12507" lon="5.88876">
        <ele>1859.26</ele>
        <time>2020-07-01T10:59:37.000Z</time>
      </trkpt>
      <trkpt lat="45.12503" lon="5.88868">
        <ele>1858.99</ele>
        <time>2020-07-01T10:59:47.000Z</time>
      </trkpt>
      <trkpt lat="45.12499" lon="5.8886">
        <ele>1853.69</ele>
        <time>2020-07-01T10:59:57.000Z</time>
      </trkpt>
      <trkpt lat="45.12496" lon="5.88847">
        <ele>1852.67</ele>
        <time>2020-07-01T11:00:07.000Z</time>
      </trkpt>
      <trkpt lat="45.12493" lon="5.88835">
        <ele>1852.67</ele>
        <time>2020-07-01T11:00:17.000Z</time>
      </trkpt>
      <trkpt lat="45.12488" lon="5.88825">
        <ele>1846.99</ele>
        <time>2020-07-01T11:00:27.000Z</time>
      </trkpt>
      <trkpt lat="45.12488" lon="5.88813">
        <ele>1841.69</ele>
        <time>2020-07-01T11:00:37.000Z</time>
      </trkpt>
      <trkpt lat="45.12484" lon="5.88797">
        <ele>1840.31</ele>
        <time>2020-07-01T11:00:47.000Z</time>
      </trkpt>
      <trkpt lat="45.12482" lon="5.88783">
        <ele>1836.69</ele>
        <time>2020-07-01T11:00:57.000Z</time>
      </trkpt>
      <trkpt lat="45.12481" lon="5.88773">
        <ele>1831.73</ele>
        <time>2020-07-01T11:01:07.000Z</time>
      </trkpt>
      <trkpt lat="45.12477" lon="5.88768">
        <ele>1828.98</ele>
        <time>2020-07-01T11:01:17.000Z</time>
      </trkpt>
      <trkpt lat="45.1247" lon="5.88761">
        <ele>1828.76</ele>
        <time>2020-07-01T11:01:27.000Z</time>
      </trkpt>
      <trkpt lat="45.12462" lon="5.88759">
        <ele>1825.98</ele>
        <time>2020-07-01T11:01:37.000Z</time>
      </trkpt>
      <trkpt lat="45.12451" lon="5.88752">
        <ele>1830.61</ele>
        <time>2020-07-01T11:01:47.000Z</time>
      </trkpt>
      <trkpt lat="45.12441" lon="5.88743">
        <ele>1829.37</ele>
        <time>2020-07-01T11:01:57.000Z</time>
      </trkpt>
      <trkpt lat="45.12434" lon="5.88733">
        <ele>1828.13</ele>
        <time>2020-07-01T11:02:07.000Z</time>
      </trkpt>
      <trkpt lat="45.12427" lon="5.88726">
        <ele>1826.15</ele>
        <time>2020-07-01T11:02:17.000Z</time>
      </trkpt>
      <trkpt lat="45.1242" lon="5.88719">
        <ele>1822.4</ele>
        <time>2020-07-01T11:02:27.000Z</time>
      </trkpt>
      <trkpt lat="45.12411" lon="5.88701">
        <ele>1824.09</ele>
        <time>2020-07-01T11:02:37.000Z</time>
      </trkpt>
      <trkpt lat="45.12404" lon="5.88686">
        <ele>1822.32</ele>
        <time>2020-07-01T11:02:47.000Z</time>
      </trkpt>
      <trkpt lat="45.12407" lon="5.88671">
        <ele>1822.39</ele>
        <time>2020-07-01T11:02:57.000Z</time>
      </trkpt>
      <trkpt lat="45.12406" lon="5.88659">
        <ele>1822.59</ele>
        <time>2020-07-01T11:03:07.000Z</time>
      </trkpt>
      <trkpt lat="45.12406" lon="5.88645">
        <ele>1825.99</ele>
        <time>2020-07-01T11:03:17.000Z</time>
      </trkpt>
      <trkpt lat="45.12401" lon="5.88629">
        <ele>1826.72</ele>
        <time>2020-07-01T11:03:27.000Z</time>
      </trkpt>
      <trkpt lat="45.12398" lon="5.88612">
        <ele>1827.81</ele>
        <time>2020-07-01T11:03:37.000Z</time>
      </trkpt>
      <trkpt lat="45.12394" lon="5.88603">
        <ele>1820.64</ele>
        <time>2020-07-01T11:03:47.000Z</time>
      </trkpt>
      <trkpt lat="45.12393" lon="5.88599">
        <ele>1814.98</ele>
        <time>2020-07-01T11:03:57.000Z</time>
      </trkpt>
      <trkpt lat="45.12386" lon="5.88592">
        <ele>1815.08</ele>
        <time>2020-07-01T11:04:07.000Z</time>
      </trkpt>
      <trkpt lat="45.12384" lon="5.88584">
        <ele>1816.76</ele>
        <time>2020-07-01T11:04:17.000Z</time>
      </trkpt>
      <trkpt lat="45.12376" lon="5.88575">
        <ele>1813.23</ele>
        <time>2020-07-01T11:04:27.000Z</time>
      </trkpt>
      <trkpt lat="45.12367" lon="5.88572">
        <ele>1809.01</ele>
        <time>2020-07-01T11:04:37.000Z</time>
      </trkpt>
      <trkpt lat="45.12359" lon="5.88571">
        <ele>1804.56</ele>
        <time>2020-07-01T11:04:47.000Z</time>
      </trkpt>
      <trkpt lat="45.12348" lon="5.8857">
        <ele>1801.59</ele>
        <time>2020-07-01T11:04:57.000Z</time>
      </trkpt>
      <trkpt lat="45.12337" lon="5.88567">
        <ele>1799.45</ele>
        <time>2020-07-01T11:05:07.000Z</time>
      </trkpt>
      <trkpt lat="45.12332" lon="5.88568">
        <ele>1797.22</ele>
        <time>2020-07-01T11:05:17.000Z</time>
      </trkpt>
      <trkpt lat="45.12325" lon="5.88568">
        <ele>1798.86</ele>
        <time>2020-07-01T11:05:27.000Z</time>
      </trkpt>
      <trkpt lat="45.12317" lon="5.88561">
        <ele>1800.31</ele>
        <time>2020-07-01T11:05:37.000Z</time>
      </trkpt>
      <trkpt lat="45.12305" lon="5.8855">
        <ele>1799.12</ele>
        <time>2020-07-01T11:05:47.000Z</time>
      </trkpt>
      <trkpt lat="45.12294" lon="5.88546">
        <ele>1803.22</ele>
        <time>2020-07-01T11:05:57.000Z</time>
      </trkpt>
      <trkpt lat="45.12282" lon="5.88536">
        <ele>1804.11</ele>
        <time>2020-07-01T11:06:07.000Z</time>
      </trkpt>
      <trkpt lat="45.12278" lon="5.88526">
        <ele>1804.63</ele>
        <time>2020-07-01T11:06:17.000Z</time>
      </trkpt>
      <trkpt lat="45.12267" lon="5.88512">
        <ele>1805.86</ele>
        <time>2020-07-01T11:06:27.000Z</time>
      </trkpt>
      <trkpt lat="45.12261" lon="5.88501">
        <ele>1810.16</ele>
        <time>2020-07-01T11:06:37.000Z</time>
      </trkpt>
      <trkpt lat="45.12254" lon="5.88488">
        <ele>1816.05</ele>
        <time>2020-07-01T11:06:47.000Z</time>
      </trkpt>
      <trkpt lat="45.12249" lon="5.88482">
        <ele>1816.1</ele>
        <time>2020-07-01T11:06:57.000Z</time>
      </trkpt>
      <trkpt lat="45.12244" lon="5.88472">
        <ele>1811.71</ele>
        <time>2020-07-01T11:07:07.000Z</time>
      </trkpt>
      <trkpt lat="45.1224" lon="5.88466">
        <ele>1806.57</ele>
        <time>2020-07-01T11:07:17.000Z</time>
      </trkpt>
      <trkpt lat="45.1223" lon="5.88455">
        <ele>1810.56</ele>
        <time>2020-07-01T11:07:27.000Z</time>
      </trkpt>
      <trkpt lat="45.1222" lon="5.88439">
        <ele>1811.76</ele>
        <time>2020-07-01T11:07:37.000Z</time>
      </trkpt>
      <trkpt lat="45.12217" lon="5.88427">
        <ele>1815.39</ele>
        <time>2020-07-01T11:07:47.000Z</time>
      </trkpt>
      <trkpt lat="45.12208" lon="5.8841">
        <ele>1816.36</ele>
        <time>2020-07-01T11:07:57.000Z</time>
      </trkpt>
      <trkpt lat="45.12204" lon="5.88397">
        <ele>1813.53</ele>
        <time>2020-07-01T11:08:07.000Z</time>
      </trkpt>
      <trkpt lat="45.12201" lon="5.88379">
        <ele>1813.54</ele>
        <time>2020-07-01T11:08:17.000Z</time>
      </trkpt>
      <trkpt lat="45.12201" lon="5.88363">
        <ele>1812.07</ele>
        <time>2020-07-01T11:08:27.000Z</time>
      </trkpt>
      <trkpt lat="45.12204" lon="5.88348">
        <ele>1808.56</ele>
        <time>2020-07-01T11:08:37.000Z</time>
      </trkpt>
      <trkpt lat="45.12203" lon="5.88334">
        <ele>1802.01</ele>
        <time>2020-07-01T11:08:47.000Z</time>
      </trkpt>
      <trkpt lat="45.12202" lon="5.88328">
        <ele>1801.46</ele>
        <time>2020-07-01T11:08:57.000Z</time>
      </trkpt>
      <trkpt lat="45.12197" lon="5.88311">
        <ele>1800.39</ele>
        <time>2020-07-01T11:09:07.000Z</time>
      </trkpt>
      <trkpt lat="45.122" lon="5.88305">
        <ele>1801.89</ele>
        <time>2020-07-01T11:09:17.000Z</time>
      </trkpt>
      <trkpt lat="45.12194" lon="5.88289">
        <ele>1801.53</ele>
        <time>2020-07-01T11:09:27.000Z</time>
      </trkpt>
      <trkpt lat="45.12196" lon="5.88277">
        <ele>1800.79</ele>
        <time>2020-07-01T11:09:37.000Z</time>
      </trkpt>
      <trkpt lat="45.12196" lon="5.88267">
        <ele>1799.06</ele>
        <time>2020-07-01T11:09:47.000Z</time>
      </trkpt>
      <trkpt lat="45.12189" lon="5.88254">
        <ele>1796.62</ele>
        <time>2020-07-01T11:09:57.000Z</time>
      </trkpt>
      <trkpt lat="45.12187" lon="5.88244">
        <ele>1791.68</ele>
        <time>2020-07-01T11:10:07.000Z</time>
      </trkpt>
      <trkpt lat="45.1218" lon="5.88237">
        <ele>1793.92</ele>
        <time>2020-07-01T11:10:17.000Z</time>
      </trkpt>
      <trkpt lat="45.1218" lon="5.88233">
        <ele>1796.28</ele>
        <time>2020-07-01T11:10:27.000Z</time>
      </trkpt>
      <trkpt lat="45.12176" lon="5.88232">
        <ele>1795.47</ele>
        <time>2020-07-01T11:10:37.000Z</time>
      </trkpt>
      <trkpt lat="45.12163" lon="5.88222">
        <ele>1788.47</ele>
        <time>2020-07-01T11:10:47.000Z</time>
      </trkpt>
      <trkpt lat="45.12153" lon="5.88215">
        <ele>1782.72</ele>
        <time>2020-07-01T11:10:57.000Z</time>
      </trkpt>
      <trkpt lat="45.12148" lon="5.88205">
        <ele>1784.05</ele>
        <time>2020-07-01T11:11:07.000Z</time>
      </trkpt>
      <trkpt lat="45.12139" lon="5.88195">
        <ele>1782.88</ele>
        <time>2020-07-01T11:11:17.000Z</time>
      </trkpt>
      <trkpt lat="45.1213" lon="5.88185">
        <ele>1783.84</ele>
        <time>2020-07-01T11:11:27.000Z</time>
      </trkpt>
      <trkpt lat="45.12117" lon="5.88172">
        <ele>1789.88</ele>
        <time>2020-07-01T11:11:37.000Z</time>
      </trkpt>
      <trkpt lat="45.12117" lon="5.88171">
        <ele>1788.49</ele>
        <time>2020-07-01T11:11:47.000Z</time>
      </trkpt>
      <trkpt lat="45.12118" lon="5.88172">
        <ele>1787.24</ele>
        <time>2020-07-01T11:11:57.000Z</time>
      </trkpt>
      <trkpt lat="45.12117" lon="5.88171">
        <ele>1788.01</ele>
        <time>2020-07-01T11:12:07.000Z</time>
      </trkpt>
      <trkpt lat="45.12116" lon="5.88173">
        <ele>1786.75</ele>
        <time>2020-07-01T11:12:20.000Z</time>
      </trkpt>
      <trkpt lat="45.121" lon="5.88175">
        <ele>1783.17</ele>
        <time>2020-07-01T11:12:30.000Z</time>
      </trkpt>
      <trkpt lat="45.12082" lon="5.88163">
        <ele>1782.64</ele>
        <time>2020-07-01T11:12:40.000Z</time>
      </trkpt>
      <trkpt lat="45.12079" lon="5.88158">
        <ele>1785.28</ele>
        <time>2020-07-01T11:12:50.000Z</time>
      </trkpt>
      <trkpt lat="45.12078" lon="5.88159">
        <ele>1784.07</ele>
        <time>2020-07-01T11:13:07.000Z</time>
      </trkpt>
      <trkpt lat="45.12058" lon="5.88161">
        <ele>1778.41</ele>
        <time>2020-07-01T11:13:17.000Z</time>
      </trkpt>
      <trkpt lat="45.1205" lon="5.88157">
        <ele>1780.54</ele>
        <time>2020-07-01T11:13:27.000Z</time>
      </trkpt>
      <trkpt lat="45.12039" lon="5.88143">
        <ele>1783</ele>
        <time>2020-07-01T11:13:37.000Z</time>
      </trkpt>
      <trkpt lat="45.12028" lon="5.88131">
        <ele>1780.08</ele>
        <time>2020-07-01T11:13:47.000Z</time>
      </trkpt>
      <trkpt lat="45.12021" lon="5.88116">
        <ele>1779.03</ele>
        <time>2020-07-01T11:13:57.000Z</time>
      </trkpt>
      <trkpt lat="45.12014" lon="5.88106">
        <ele>1773.53</ele>
        <time>2020-07-01T11:14:07.000Z</time>
      </trkpt>
      <trkpt lat="45.12006" lon="5.88106">
        <ele>1771.5</ele>
        <time>2020-07-01T11:14:17.000Z</time>
      </trkpt>
      <trkpt lat="45.11994" lon="5.88108">
        <ele>1773.18</ele>
        <time>2020-07-01T11:14:27.000Z</time>
      </trkpt>
      <trkpt lat="45.11978" lon="5.88111">
        <ele>1776.61</ele>
        <time>2020-07-01T11:14:37.000Z</time>
      </trkpt>
      <trkpt lat="45.11971" lon="5.88105">
        <ele>1777.24</ele>
        <time>2020-07-01T11:14:47.000Z</time>
      </trkpt>
      <trkpt lat="45.11961" lon="5.88103">
        <ele>1779.56</ele>
        <time>2020-07-01T11:14:57.000Z</time>
      </trkpt>
      <trkpt lat="45.11948" lon="5.88104">
        <ele>1781.27</ele>
        <time>2020-07-01T11:15:07.000Z</time>
      </trkpt>
      <trkpt lat="45.11947" lon="5.88107">
        <ele>1780.44</ele>
        <time>2020-07-01T11:15:17.000Z</time>
      </trkpt>
      <trkpt lat="45.11938" lon="5.88099">
        <ele>1784.12</ele>
        <time>2020-07-01T11:15:27.000Z</time>
      </trkpt>
      <trkpt lat="45.11924" lon="5.88095">
        <ele>1784.93</ele>
        <time>2020-07-01T11:15:37.000Z</time>
      </trkpt>
      <trkpt lat="45.11916" lon="5.88089">
        <ele>1786.18</ele>
        <time>2020-07-01T11:15:47.000Z</time>
      </trkpt>
      <trkpt lat="45.11907" lon="5.88081">
        <ele>1785.81</ele>
        <time>2020-07-01T11:15:57.000Z</time>
      </trkpt>
      <trkpt lat="45.11898" lon="5.88074">
        <ele>1790.67</ele>
        <time>2020-07-01T11:16:07.000Z</time>
      </trkpt>
      <trkpt lat="45.1189" lon="5.88069">
        <ele>1789.92</ele>
        <time>2020-07-01T11:16:17.000Z</time>
      </trkpt>
      <trkpt lat="45.11881" lon="5.88065">
        <ele>1796.43</ele>
        <time>2020-07-01T11:16:27.000Z</time>
      </trkpt>
      <trkpt lat="45.11869" lon="5.88067">
        <ele>1795.83</ele>
        <time>2020-07-01T11:16:37.000Z</time>
      </trkpt>
      <trkpt lat="45.11857" lon="5.88065">
        <ele>1798.07</ele>
        <time>2020-07-01T11:16:47.000Z</time>
      </trkpt>
      <trkpt lat="45.11851" lon="5.88062">
        <ele>1796.77</ele>
        <time>2020-07-01T11:16:57.000Z</time>
      </trkpt>
      <trkpt lat="45.11842" lon="5.88062">
        <ele>1798.25</ele>
        <time>2020-07-01T11:17:07.000Z</time>
      </trkpt>
      <trkpt lat="45.11834" lon="5.88057">
        <ele>1795.83</ele>
        <time>2020-07-01T11:17:17.000Z</time>
      </trkpt>
      <trkpt lat="45.11824" lon="5.88056">
        <ele>1797.7</ele>
        <time>2020-07-01T11:17:27.000Z</time>
      </trkpt>
      <trkpt lat="45.11809" lon="5.88059">
        <ele>1799.08</ele>
        <time>2020-07-01T11:17:37.000Z</time>
      </trkpt>
      <trkpt lat="45.11798" lon="5.88055">
        <ele>1799.9</ele>
        <time>2020-07-01T11:17:47.000Z</time>
      </trkpt>
      <trkpt lat="45.11786" lon="5.8805">
        <ele>1801.73</ele>
        <time>2020-07-01T11:17:57.000Z</time>
      </trkpt>
      <trkpt lat="45.11776" lon="5.88041">
        <ele>1798.67</ele>
        <time>2020-07-01T11:18:07.000Z</time>
      </trkpt>
      <trkpt lat="45.11768" lon="5.88034">
        <ele>1796.62</ele>
        <time>2020-07-01T11:18:17.000Z</time>
      </trkpt>
      <trkpt lat="45.1176" lon="5.88023">
        <ele>1791.13</ele>
        <time>2020-07-01T11:18:27.000Z</time>
      </trkpt>
      <trkpt lat="45.11753" lon="5.88009">
        <ele>1790.14</ele>
        <time>2020-07-01T11:18:37.000Z</time>
      </trkpt>
      <trkpt lat="45.11745" lon="5.87998">
        <ele>1787.09</ele>
        <time>2020-07-01T11:18:47.000Z</time>
      </trkpt>
      <trkpt lat="45.11737" lon="5.87984">
        <ele>1785.5</ele>
        <time>2020-07-01T11:18:57.000Z</time>
      </trkpt>
      <trkpt lat="45.11729" lon="5.87975">
        <ele>1782.98</ele>
        <time>2020-07-01T11:19:07.000Z</time>
      </trkpt>
      <trkpt lat="45.11715" lon="5.8797">
        <ele>1782.4</ele>
        <time>2020-07-01T11:19:17.000Z</time>
      </trkpt>
      <trkpt lat="45.11706" lon="5.87967">
        <ele>1780.09</ele>
        <time>2020-07-01T11:19:27.000Z</time>
      </trkpt>
      <trkpt lat="45.11696" lon="5.87964">
        <ele>1784.32</ele>
        <time>2020-07-01T11:19:37.000Z</time>
      </trkpt>
      <trkpt lat="45.11685" lon="5.87964">
        <ele>1792.11</ele>
        <time>2020-07-01T11:19:47.000Z</time>
      </trkpt>
      <trkpt lat="45.11672" lon="5.87961">
        <ele>1791.65</ele>
        <time>2020-07-01T11:19:57.000Z</time>
      </trkpt>
      <trkpt lat="45.11661" lon="5.87958">
        <ele>1791.93</ele>
        <time>2020-07-01T11:20:07.000Z</time>
      </trkpt>
      <trkpt lat="45.1165" lon="5.87956">
        <ele>1791.85</ele>
        <time>2020-07-01T11:20:17.000Z</time>
      </trkpt>
      <trkpt lat="45.1164" lon="5.87953">
        <ele>1794.26</ele>
        <time>2020-07-01T11:20:27.000Z</time>
      </trkpt>
      <trkpt lat="45.11633" lon="5.87953">
        <ele>1796.6</ele>
        <time>2020-07-01T11:20:37.000Z</time>
      </trkpt>
      <trkpt lat="45.11617" lon="5.87951">
        <ele>1802</ele>
        <time>2020-07-01T11:20:47.000Z</time>
      </trkpt>
      <trkpt lat="45.11605" lon="5.87949">
        <ele>1803.9</ele>
        <time>2020-07-01T11:20:57.000Z</time>
      </trkpt>
      <trkpt lat="45.11593" lon="5.87948">
        <ele>1801.85</ele>
        <time>2020-07-01T11:21:07.000Z</time>
      </trkpt>
      <trkpt lat="45.11585" lon="5.87946">
        <ele>1802.23</ele>
        <time>2020-07-01T11:21:17.000Z</time>
      </trkpt>
      <trkpt lat="45.11571" lon="5.87948">
        <ele>1805.02</ele>
        <time>2020-07-01T11:21:27.000Z</time>
      </trkpt>
      <trkpt lat="45.11559" lon="5.87946">
        <ele>1803.6</ele>
        <time>2020-07-01T11:21:37.000Z</time>
      </trkpt>
      <trkpt lat="45.11548" lon="5.87936">
        <ele>1805.73</ele>
        <time>2020-07-01T11:21:47.000Z</time>
      </trkpt>
      <trkpt lat="45.11538" lon="5.87936">
        <ele>1804.94</ele>
        <time>2020-07-01T11:21:57.000Z</time>
      </trkpt>
      <trkpt lat="45.11525" lon="5.87941">
        <ele>1808.94</ele>
        <time>2020-07-01T11:22:07.000Z</time>
      </trkpt>
      <trkpt lat="45.11513" lon="5.87941">
        <ele>1806.74</ele>
        <time>2020-07-01T11:22:17.000Z</time>
      </trkpt>
      <trkpt lat="45.11504" lon="5.87942">
        <ele>1802.71</ele>
        <time>2020-07-01T11:22:27.000Z</time>
      </trkpt>
      <trkpt lat="45.11494" lon="5.87937">
        <ele>1799.91</ele>
        <time>2020-07-01T11:22:37.000Z</time>
      </trkpt>
      <trkpt lat="45.11482" lon="5.87934">
        <ele>1804.49</ele>
        <time>2020-07-01T11:22:47.000Z</time>
      </trkpt>
      <trkpt lat="45.1147" lon="5.87929">
        <ele>1806.39</ele>
        <time>2020-07-01T11:22:57.000Z</time>
      </trkpt>
      <trkpt lat="45.11464" lon="5.87937">
        <ele>1802.24</ele>
        <time>2020-07-01T11:23:07.000Z</time>
      </trkpt>
      <trkpt lat="45.11454" lon="5.8794">
        <ele>1797.48</ele>
        <time>2020-07-01T11:23:17.000Z</time>
      </trkpt>
      <trkpt lat="45.11442" lon="5.87942">
        <ele>1797.34</ele>
        <time>2020-07-01T11:23:27.000Z</time>
      </trkpt>
      <trkpt lat="45.11428" lon="5.87944">
        <ele>1797.55</ele>
        <time>2020-07-01T11:23:37.000Z</time>
      </trkpt>
      <trkpt lat="45.11416" lon="5.87945">
        <ele>1795.14</ele>
        <time>2020-07-01T11:23:47.000Z</time>
      </trkpt>
      <trkpt lat="45.11405" lon="5.87947">
        <ele>1796.8</ele>
        <time>2020-07-01T11:23:57.000Z</time>
      </trkpt>
      <trkpt lat="45.114" lon="5.87946">
        <ele>1797.34</ele>
        <time>2020-07-01T11:24:07.000Z</time>
      </trkpt>
      <trkpt lat="45.11388" lon="5.87942">
        <ele>1794.84</ele>
        <time>2020-07-01T11:24:17.000Z</time>
      </trkpt>
      <trkpt lat="45.11369" lon="5.87934">
        <ele>1799.34</ele>
        <time>2020-07-01T11:24:27.000Z</time>
      </trkpt>
      <trkpt lat="45.11358" lon="5.87931">
        <ele>1793.19</ele>
        <time>2020-07-01T11:24:37.000Z</time>
      </trkpt>
      <trkpt lat="45.1135" lon="5.8793">
        <ele>1791.04</ele>
        <time>2020-07-01T11:24:47.000Z</time>
      </trkpt>
      <trkpt lat="45.11338" lon="5.87931">
        <ele>1794.09</ele>
        <time>2020-07-01T11:24:57.000Z</time>
      </trkpt>
      <trkpt lat="45.11326" lon="5.87925">
        <ele>1790.19</ele>
        <time>2020-07-01T11:25:07.000Z</time>
      </trkpt>
      <trkpt lat="45.11315" lon="5.8792">
        <ele>1789.02</ele>
        <time>2020-07-01T11:25:17.000Z</time>
      </trkpt>
      <trkpt lat="45.11303" lon="5.87916">
        <ele>1787.9</ele>
        <time>2020-07-01T11:25:27.000Z</time>
      </trkpt>
      <trkpt lat="45.11292" lon="5.8791">
        <ele>1789.42</ele>
        <time>2020-07-01T11:25:37.000Z</time>
      </trkpt>
      <trkpt lat="45.11282" lon="5.87906">
        <ele>1787.79</ele>
        <time>2020-07-01T11:25:47.000Z</time>
      </trkpt>
      <trkpt lat="45.1127" lon="5.87905">
        <ele>1786.12</ele>
        <time>2020-07-01T11:25:57.000Z</time>
      </trkpt>
      <trkpt lat="45.11259" lon="5.87901">
        <ele>1783.59</ele>
        <time>2020-07-01T11:26:07.000Z</time>
      </trkpt>
      <trkpt lat="45.11255" lon="5.87899">
        <ele>1779.69</ele>
        <time>2020-07-01T11:26:17.000Z</time>
      </trkpt>
      <trkpt lat="45.11241" lon="5.87901">
        <ele>1779.27</ele>
        <time>2020-07-01T11:26:27.000Z</time>
      </trkpt>
      <trkpt lat="45.11235" lon="5.87905">
        <ele>1779.01</ele>
        <time>2020-07-01T11:26:37.000Z</time>
      </trkpt>
      <trkpt lat="45.11234" lon="5.879">
        <ele>1774.69</ele>
        <time>2020-07-01T11:26:47.000Z</time>
      </trkpt>
      <trkpt lat="45.11237" lon="5.87882">
        <ele>1776.48</ele>
        <time>2020-07-01T11:26:57.000Z</time>
      </trkpt>
      <trkpt lat="45.11231" lon="5.87863">
        <ele>1778.87</ele>
        <time>2020-07-01T11:27:07.000Z</time>
      </trkpt>
      <trkpt lat="45.11229" lon="5.8786">
        <ele>1778.83</ele>
        <time>2020-07-01T11:27:17.000Z</time>
      </trkpt>
      <trkpt lat="45.11226" lon="5.8786">
        <ele>1778.1</ele>
        <time>2020-07-01T11:27:27.000Z</time>
      </trkpt>
      <trkpt lat="45.11225" lon="5.87861">
        <ele>1777.98</ele>
        <time>2020-07-01T11:27:40.000Z</time>
      </trkpt>
      <trkpt lat="45.11225" lon="5.87863">
        <ele>1780.85</ele>
        <time>2020-07-01T11:27:50.000Z</time>
      </trkpt>
      <trkpt lat="45.11224" lon="5.87862">
        <ele>1784.38</ele>
        <time>2020-07-01T11:28:06.000Z</time>
      </trkpt>
      <trkpt lat="45.11225" lon="5.87858">
        <ele>1783.47</ele>
        <time>2020-07-01T11:28:16.000Z</time>
      </trkpt>
      <trkpt lat="45.11225" lon="5.87856">
        <ele>1782.17</ele>
        <time>2020-07-01T11:28:34.000Z</time>
      </trkpt>
      <trkpt lat="45.11224" lon="5.87854">
        <ele>1778.63</ele>
        <time>2020-07-01T11:28:44.000Z</time>
      </trkpt>
      <trkpt lat="45.11224" lon="5.87854">
        <ele>1777.65</ele>
        <time>2020-07-01T11:28:55.000Z</time>
      </trkpt>
    </trkseg>
  </trk>
</gpx>